Darstellungsparameter: Aktuell verwendete Einstellungen:
Skalierung der Graphiken ... ?
xyx+y,   Skalierungsfaktor:      Skalierung: Modus: x, Faktor: 1
Darstellungszeitraum ... ?
Vom - - bis: - -   Zeitraum: 28.12.2008 - 27.06.2009
Min/Max/Avg-Anzeige ... ?
Zeige MMA aktuell
Zeige MMA Monat
Zeige MMA alles
Zeige --A aktuell
Zeige --A Monat
Zeige --A alles
Keine MMA-Anzeige
MMA:
Keine MMA-Graphiken
MMA-Basis: 28.12.2008 - 27.06.2009
Quicknavigation für Darstellung... ?
Tage:      1T, 2T, 3T, 5T -1T -2T -3T -5T +1T +2T +3T +5T
Wochen: 1W, 2W, 3W -1W -2W -3W +1W +2W +3W
Monate: 1M, 3M, 6M -1M -3M -6M +1M +3M +6M
Jahre:    1J, 3J, 5J, 10J -1J -3J -5J -10J +1J +3J +5J +10J
Nutze für die Darstellung ... ?
Originaldaten oder Mittelwerte auf ...
Stundenbasis Tagesbasis Wochenbasis
Monatsbasis Jahresbasis      Datenbasis: Original-Daten
Darstellen als:
Statistik (Auto) Statistik J:M      Darstellung:
Zur Graphik,    zurück zur Übersicht aller Sensoren.
 
Tabellarische Datenbersicht: ?
 
Sensor: Nr:Datum:Temp:Abs-Feuchte:Windchill:Wind:
Aussen-T/F 1 28-12-2008 00:02:59 -3.2 C 2.59 g/m*3 -3.2 C 0 km/h
2 28-12-2008 00:14:59 -3.2 C 2.59 g/m*3 -3.2 C 0 km/h
3 28-12-2008 00:26:59 -3.1 C 2.57 g/m*3 -3.1 C 0 km/h
4 28-12-2008 00:38:58 -3.1 C 2.57 g/m*3 -3.1 C 0 km/h
5 28-12-2008 00:50:59 -3 C 2.55 g/m*3 -3 C 0 km/h
6 28-12-2008 01:02:58 -3 C 2.55 g/m*3 -3 C 0 km/h
7 28-12-2008 01:14:58 -3.1 C 2.54 g/m*3 -3.1 C 0 km/h
8 28-12-2008 01:26:58 -3.1 C 2.54 g/m*3 -3.1 C 0 km/h
9 28-12-2008 01:38:57 -3.1 C 2.54 g/m*3 -3.1 C 0 km/h
10 28-12-2008 01:50:58 -3.4 C 2.48 g/m*3 -3.4 C 0 km/h
11 28-12-2008 02:02:57 -3.5 C 2.5 g/m*3 -3.5 C 0 km/h
12 28-12-2008 02:14:57 -3.7 C 2.47 g/m*3 -3.7 C 0 km/h
13 28-12-2008 02:26:57 -3.7 C 2.5 g/m*3 -3.7 C 0 km/h
14 28-12-2008 02:38:57 -3.5 C 2.54 g/m*3 -3.5 C 0 km/h
15 28-12-2008 02:51:58 -3.4 C 2.56 g/m*3 -3.4 C 0 km/h
16 28-12-2008 03:03:58 -3.7 C 2.5 g/m*3 -3.7 C 0 km/h
17 28-12-2008 03:15:58 -3.6 C 2.56 g/m*3 -3.6 C 0 km/h
18 28-12-2008 03:27:58 -3.5 C 2.58 g/m*3 -3.5 C 0 km/h
19 28-12-2008 03:39:58 -3.3 C 2.61 g/m*3 -3.3 C 0 km/h
20 28-12-2008 03:51:58 -3.3 C 2.58 g/m*3 -3.3 C 0 km/h
21 28-12-2008 04:03:58 -3.1 C 2.57 g/m*3 -3.1 C 0 km/h
22 28-12-2008 04:15:58 -3.1 C 2.54 g/m*3 -3.1 C 0 km/h
23 28-12-2008 04:27:58 -3 C 2.55 g/m*3 -3 C 0 km/h
24 28-12-2008 04:39:58 -2.8 C 2.55 g/m*3 -2.8 C 0 km/h
25 28-12-2008 04:51:58 -2.6 C 2.55 g/m*3 -2.6 C 0 km/h
Sensor: Nr:Datum:Temp:Abs-Feuchte:Windchill:Wind:
Aussen-T/F 26 28-12-2008 05:03:57 -2.6 C 2.51 g/m*3 -2.6 C 0 km/h
27 28-12-2008 05:15:57 -2.5 C 2.52 g/m*3 -2.5 C 0 km/h
28 28-12-2008 05:27:57 -2.4 C 2.5 g/m*3 -2.4 C 0 km/h
29 28-12-2008 05:39:57 -2.4 C 2.5 g/m*3 -2.4 C 0 km/h
30 28-12-2008 05:51:56 -2.5 C 2.48 g/m*3 -2.5 C 0 km/h
31 28-12-2008 06:03:57 -2.5 C 2.48 g/m*3 -2.5 C 0 km/h
32 28-12-2008 06:15:57 -2.7 C 2.45 g/m*3 -2.7 C 0 km/h
33 28-12-2008 06:27:57 -2.7 C 2.45 g/m*3 -2.7 C 0 km/h
34 28-12-2008 06:39:56 -2.8 C 2.47 g/m*3 -2.8 C 0 km/h
35 28-12-2008 06:51:57 -2.7 C 2.45 g/m*3 -2.7 C 0 km/h
36 28-12-2008 07:03:56 -2.5 C 2.48 g/m*3 -2.5 C 0 km/h
37 28-12-2008 07:15:56 -2.7 C 2.45 g/m*3 -2.7 C 0 km/h
38 28-12-2008 07:27:56 -2.8 C 2.43 g/m*3 -2.8 C 0 km/h
39 28-12-2008 07:39:56 -3.1 C 2.38 g/m*3 -3.1 C 0 km/h
40 28-12-2008 07:51:56 -3.5 C 2.35 g/m*3 -3.5 C 0 km/h
41 28-12-2008 08:03:55 -3.7 C 2.43 g/m*3 -3.7 C 0 km/h
42 28-12-2008 08:15:55 -4 C 2.38 g/m*3 -4 C 0 km/h
43 28-12-2008 08:27:55 -4.1 C 2.43 g/m*3 -4.1 C 0 km/h
44 28-12-2008 08:39:55 -4.2 C 2.45 g/m*3 -4.2 C 0 km/h
45 28-12-2008 08:51:55 -4.3 C 2.43 g/m*3 -4.3 C 0 km/h
46 28-12-2008 09:03:55 -4.2 C 2.49 g/m*3 -4.2 C 0 km/h
47 28-12-2008 09:15:55 -4.2 C 2.49 g/m*3 -4.2 C 0 km/h
48 28-12-2008 09:27:55 -4.1 C 2.51 g/m*3 -4.1 C 0 km/h
49 28-12-2008 09:39:55 -4.1 C 2.51 g/m*3 -4.1 C 0 km/h
50 28-12-2008 09:51:54 -3.9 C 2.54 g/m*3 -3.9 C 0 km/h
Sensor: Nr:Datum:Temp:Abs-Feuchte:Windchill:Wind:
Aussen-T/F 51 28-12-2008 10:03:55 -3.5 C 2.58 g/m*3 -3.5 C 0 km/h
52 28-12-2008 10:15:54 -3.2 C 2.56 g/m*3 -3.2 C 0 km/h
53 28-12-2008 10:27:54 -2.9 C 2.53 g/m*3 -2.9 C 0 km/h
54 28-12-2008 10:39:54 -2.8 C 2.51 g/m*3 -2.8 C 0 km/h
55 28-12-2008 10:51:54 -2.7 C 2.49 g/m*3 -2.7 C 0 km/h
56 28-12-2008 11:03:54 -2.7 C 2.49 g/m*3 -2.7 C 0 km/h
57 28-12-2008 11:15:54 -2.5 C 2.48 g/m*3 -2.5 C 0 km/h
58 28-12-2008 11:27:54 -2.4 C 2.5 g/m*3 -2.4 C 0 km/h
59 28-12-2008 11:39:53 -2.4 C 2.5 g/m*3 -2.4 C 0 km/h
60 28-12-2008 11:51:54 -2 C 2.53 g/m*3 -2 C 0 km/h
61 28-12-2008 12:03:53 -2 C 2.53 g/m*3 -2 C 0 km/h
62 28-12-2008 12:15:53 -1.9 C 2.5 g/m*3 -1.9 C 0 km/h
63 28-12-2008 12:27:53 -1.8 C 2.48 g/m*3 -1.8 C 0 km/h
64 28-12-2008 12:39:53 -1.7 C 2.5 g/m*3 -1.7 C 0 km/h
65 28-12-2008 12:51:53 -1.4 C 2.51 g/m*3 -1.4 C 0 km/h
66 28-12-2008 13:03:52 -1.4 C 2.51 g/m*3 -1.4 C 0 km/h
67 28-12-2008 13:15:53 -1.3 C 2.48 g/m*3 -1.3 C 0 km/h
68 28-12-2008 13:27:53 -1.3 C 2.48 g/m*3 -1.3 C 0 km/h
69 28-12-2008 13:39:53 -1.2 C 2.5 g/m*3 -1.2 C 0 km/h
70 28-12-2008 13:51:52 -1.1 C 2.51 g/m*3 -1.1 C 0 km/h
71 28-12-2008 14:03:53 -1.1 C 2.47 g/m*3 -1.1 C 0 km/h
72 28-12-2008 14:15:52 -1.1 C 2.47 g/m*3 -1.1 C 0 km/h
73 28-12-2008 14:27:52 -1.1 C 2.51 g/m*3 -1.1 C 0 km/h
74 28-12-2008 14:39:52 -1.2 C 2.5 g/m*3 -1.2 C 0 km/h
75 28-12-2008 14:51:52 -1.5 C 2.53 g/m*3 -1.5 C 0 km/h
Sensor: Nr:Datum:Temp:Abs-Feuchte:Windchill:Wind:
Aussen-T/F 76 28-12-2008 15:03:52 -1.4 C 2.55 g/m*3 -1.4 C 0 km/h
77 28-12-2008 15:15:51 -1.4 C 2.51 g/m*3 -1.4 C 0 km/h
78 28-12-2008 15:27:51 -1.3 C 2.52 g/m*3 -1.3 C 0 km/h
79 28-12-2008 15:39:51 -1.2 C 2.54 g/m*3 -1.2 C 0 km/h
80 28-12-2008 15:51:51 -1.3 C 2.52 g/m*3 -1.3 C 0 km/h
81 28-12-2008 16:03:51 -1.6 C 2.51 g/m*3 -1.6 C 0 km/h
82 28-12-2008 16:15:51 -1.6 C 2.47 g/m*3 -1.6 C 0 km/h
83 28-12-2008 16:27:51 -1.9 C 2.46 g/m*3 -1.9 C 0 km/h
84 28-12-2008 16:39:51 -2.4 C 2.42 g/m*3 -2.4 C 0 km/h
85 28-12-2008 16:51:51 -2.2 C 2.49 g/m*3 -2.2 C 0 km/h
86 28-12-2008 17:03:50 -2.5 C 2.48 g/m*3 -2.5 C 0 km/h
87 28-12-2008 17:15:51 -2.7 C 2.49 g/m*3 -2.7 C 0 km/h
88 28-12-2008 17:27:51 -2.8 C 2.51 g/m*3 -2.8 C 0 km/h
89 28-12-2008 17:39:50 -2.9 C 2.53 g/m*3 -2.9 C 0 km/h
90 28-12-2008 17:51:50 -3.1 C 2.54 g/m*3 -3.1 C 0 km/h
91 28-12-2008 18:03:50 -3.2 C 2.52 g/m*3 -3.2 C 0 km/h
92 28-12-2008 18:15:50 -3.3 C 2.54 g/m*3 -3.3 C 0 km/h
93 28-12-2008 18:27:50 -3.3 C 2.58 g/m*3 -3.3 C 0 km/h
94 28-12-2008 18:39:50 -3.3 C 2.58 g/m*3 -3.3 C 0 km/h
95 28-12-2008 18:51:49 -3.3 C 2.58 g/m*3 -3.3 C 0 km/h
96 28-12-2008 19:03:50 -3.5 C 2.54 g/m*3 -3.5 C 0 km/h
97 28-12-2008 19:15:50 -3.5 C 2.58 g/m*3 -3.5 C 0 km/h
98 28-12-2008 19:27:50 -3.4 C 2.6 g/m*3 -3.4 C 0 km/h
99 28-12-2008 19:39:49 -3.6 C 2.56 g/m*3 -3.6 C 0 km/h
100 28-12-2008 19:51:49 -3.4 C 2.6 g/m*3 -3.4 C 0 km/h
Sensor: Nr:Datum:Temp:Abs-Feuchte:Windchill:Wind:
Aussen-T/F 101 28-12-2008 20:03:49 -3.5 C 2.58 g/m*3 -3.5 C 0 km/h
102 28-12-2008 20:15:49 -3.7 C 2.58 g/m*3 -3.7 C 0 km/h
103 28-12-2008 20:27:49 -3.9 C 2.54 g/m*3 -3.9 C 0 km/h
104 28-12-2008 20:39:48 -4 C 2.56 g/m*3 -4 C 0 km/h
105 28-12-2008 20:51:49 -3.9 C 2.62 g/m*3 -3.9 C 0 km/h
106 28-12-2008 21:03:48 -4 C 2.6 g/m*3 -4 C 0 km/h
107 28-12-2008 21:15:48 -4.1 C 2.58 g/m*3 -4.1 C 0 km/h
108 28-12-2008 21:27:48 -4.3 C 2.54 g/m*3 -4.3 C 0 km/h
109 28-12-2008 21:39:48 -4.4 C 2.56 g/m*3 -4.4 C 0 km/h
110 28-12-2008 21:51:48 -4.5 C 2.58 g/m*3 -4.5 C 0 km/h
111 28-12-2008 22:03:47 -4.5 C 2.61 g/m*3 -4.5 C 0 km/h
112 28-12-2008 22:15:47 -4.6 C 2.59 g/m*3 -4.6 C 0 km/h
113 28-12-2008 22:27:47 -4.6 C 2.59 g/m*3 -4.6 C 0 km/h
114 28-12-2008 22:39:48 -4.8 C 2.59 g/m*3 -4.8 C 0 km/h
115 28-12-2008 22:51:47 -4.8 C 2.59 g/m*3 -4.8 C 0 km/h
116 28-12-2008 23:03:47 -4.8 C 2.59 g/m*3 -4.8 C 0 km/h
117 28-12-2008 23:15:47 -5.1 C 2.54 g/m*3 -5.1 C 0 km/h
118 28-12-2008 23:27:47 -5.2 C 2.55 g/m*3 -5.2 C 0 km/h
119 28-12-2008 23:39:47 -5 C 2.59 g/m*3 -5 C 0 km/h
120 28-12-2008 23:51:46 -5.2 C 2.58 g/m*3 -5.2 C 0 km/h
121 29-12-2008 00:03:47 -5.2 C 2.58 g/m*3 -5.2 C 0 km/h
122 29-12-2008 00:15:46 -5.3 C 2.57 g/m*3 -5.3 C 0 km/h
123 29-12-2008 00:27:46 -5.2 C 2.58 g/m*3 -5.2 C 0 km/h
124 29-12-2008 00:39:46 -5.3 C 2.57 g/m*3 -5.3 C 0 km/h
125 29-12-2008 00:51:46 -5.3 C 2.57 g/m*3 -5.3 C 0 km/h
Sensor: Nr:Datum:Temp:Abs-Feuchte:Windchill:Wind:
Aussen-T/F 126 29-12-2008 01:03:46 -5.5 C 2.53 g/m*3 -5.5 C 0 km/h
127 29-12-2008 01:15:45 -5.5 C 2.53 g/m*3 -5.5 C 0 km/h
128 29-12-2008 01:27:45 -5.6 C 2.54 g/m*3 -5.6 C 0 km/h
129 29-12-2008 01:39:46 -5.7 C 2.52 g/m*3 -5.7 C 0 km/h
130 29-12-2008 01:51:45 -5.8 C 2.51 g/m*3 -5.8 C 0 km/h
131 29-12-2008 02:03:45 -5.7 C 2.56 g/m*3 -5.7 C 0 km/h
132 29-12-2008 02:15:46 -5.7 C 2.56 g/m*3 -5.7 C 0 km/h
133 29-12-2008 02:27:46 -6 C 2.5 g/m*3 -6 C 0 km/h
134 29-12-2008 02:39:45 -6.1 C 2.48 g/m*3 -6.1 C 0 km/h
135 29-12-2008 02:52:47 -6.2 C 2.47 g/m*3 -6.2 C 0 km/h
136 29-12-2008 03:04:47 -6.2 C 2.5 g/m*3 -6.2 C 0 km/h
137 29-12-2008 03:16:47 -6.2 C 2.5 g/m*3 -6.2 C 0 km/h
138 29-12-2008 03:28:47 -6.1 C 2.55 g/m*3 -6.1 C 0 km/h
139 29-12-2008 03:40:46 -6.2 C 2.53 g/m*3 -6.2 C 0 km/h
140 29-12-2008 03:52:46 -6.2 C 2.53 g/m*3 -6.2 C 0 km/h
141 29-12-2008 04:04:46 -6.2 C 2.53 g/m*3 -6.2 C 0 km/h
142 29-12-2008 04:16:47 -6.4 C 2.49 g/m*3 -6.4 C 0 km/h
143 29-12-2008 04:28:47 -6.4 C 2.49 g/m*3 -6.4 C 0 km/h
144 29-12-2008 04:40:46 -6.4 C 2.52 g/m*3 -6.4 C 0 km/h
145 29-12-2008 04:52:46 -6.5 C 2.5 g/m*3 -6.5 C 0 km/h
146 29-12-2008 05:04:46 -6.5 C 2.5 g/m*3 -6.5 C 0 km/h
147 29-12-2008 05:16:45 -6.7 C 2.47 g/m*3 -6.7 C 0 km/h
148 29-12-2008 05:28:45 -6.8 C 2.45 g/m*3 -6.8 C 0 km/h
149 29-12-2008 05:40:46 -6.9 C 2.43 g/m*3 -6.9 C 0 km/h
150 29-12-2008 05:52:46 -6.9 C 2.43 g/m*3 -6.9 C 0 km/h
Sensor: Nr:Datum:Temp:Abs-Feuchte:Windchill:Wind:
Aussen-T/F 151 29-12-2008 06:04:45 -7.1 C 2.4 g/m*3 -7.1 C 0 km/h
152 29-12-2008 06:16:45 -7.1 C 2.4 g/m*3 -7.1 C 0 km/h
153 29-12-2008 06:28:46 -6.9 C 2.46 g/m*3 -6.9 C 0 km/h
154 29-12-2008 06:40:44 -7 C 2.44 g/m*3 -7 C 0 km/h
155 29-12-2008 06:52:45 -7.1 C 2.43 g/m*3 -7.1 C 0 km/h
156 29-12-2008 07:04:44 -7.2 C 2.41 g/m*3 -7.2 C 0 km/h
157 29-12-2008 07:16:44 -7.3 C 2.39 g/m*3 -7.3 C 0 km/h
158 29-12-2008 07:28:44 -7.4 C 2.37 g/m*3 -7.4 C 0 km/h
159 29-12-2008 07:40:45 -7.7 C 2.32 g/m*3 -7.7 C 0 km/h
160 29-12-2008 07:52:44 -7.8 C 2.3 g/m*3 -7.8 C 0 km/h
161 29-12-2008 08:04:44 -7.7 C 2.32 g/m*3 -7.7 C 0 km/h
162 29-12-2008 08:16:44 -7.6 C 2.37 g/m*3 -7.6 C 0 km/h
163 29-12-2008 08:28:44 -7.7 C 2.35 g/m*3 -7.7 C 0 km/h
164 29-12-2008 08:40:44 -7.7 C 2.35 g/m*3 -7.7 C 0 km/h
165 29-12-2008 08:52:44 -7.8 C 2.33 g/m*3 -7.8 C 0 km/h
166 29-12-2008 09:04:43 -7.9 C 2.31 g/m*3 -7.9 C 0 km/h
167 29-12-2008 09:16:44 -7.7 C 2.35 g/m*3 -7.7 C 0 km/h
168 29-12-2008 09:28:44 -7.6 C 2.39 g/m*3 -7.6 C 0 km/h
169 29-12-2008 09:40:43 -7.5 C 2.41 g/m*3 -7.5 C 0 km/h
170 29-12-2008 09:52:43 -7.4 C 2.43 g/m*3 -7.4 C 0 km/h
171 29-12-2008 10:04:43 -7.2 C 2.47 g/m*3 -7.2 C 0 km/h
172 29-12-2008 10:16:43 -7 C 2.5 g/m*3 -7 C 0 km/h
173 29-12-2008 10:28:43 -6.9 C 2.52 g/m*3 -6.9 C 0 km/h
174 29-12-2008 10:40:42 -6.6 C 2.61 g/m*3 -6.6 C 0 km/h
175 29-12-2008 10:52:42 -6.3 C 2.66 g/m*3 -6.3 C 0 km/h
Sensor: Nr:Datum:Temp:Abs-Feuchte:Windchill:Wind:
Aussen-T/F 176 29-12-2008 11:04:43 -6.2 C 2.68 g/m*3 -6.2 C 0 km/h
177 29-12-2008 11:16:42 -6.1 C 2.7 g/m*3 -6.1 C 0 km/h
178 29-12-2008 11:28:42 -5.7 C 2.78 g/m*3 -5.7 C 0 km/h
179 29-12-2008 11:40:42 -5.5 C 2.82 g/m*3 -5.5 C 0 km/h
180 29-12-2008 11:52:42 -5.3 C 2.87 g/m*3 -5.3 C 0 km/h
181 29-12-2008 12:04:41 -5.1 C 2.87 g/m*3 -5.1 C 0 km/h
182 29-12-2008 12:16:42 -4.9 C 2.92 g/m*3 -4.9 C 0 km/h
183 29-12-2008 12:28:42 -4.7 C 2.92 g/m*3 -4.7 C 0 km/h
184 29-12-2008 12:40:42 -4.5 C 2.93 g/m*3 -4.5 C 0 km/h
185 29-12-2008 12:52:41 -4.3 C 2.9 g/m*3 -4.3 C 0 km/h
186 29-12-2008 13:04:42 -4 C 2.89 g/m*3 -4 C 0 km/h
187 29-12-2008 13:16:41 -3.8 C 2.89 g/m*3 -3.8 C 0 km/h
188 29-12-2008 13:28:41 -3.6 C 2.86 g/m*3 -3.6 C 0 km/h
189 29-12-2008 13:40:41 -3.4 C 2.83 g/m*3 -3.4 C 0 km/h
190 29-12-2008 13:52:41 -3.1 C 2.85 g/m*3 -3.1 C 0 km/h
191 29-12-2008 14:04:41 -3 C 2.79 g/m*3 -3 C 0 km/h
192 29-12-2008 14:16:40 -2.9 C 2.81 g/m*3 -2.9 C 0 km/h
193 29-12-2008 14:28:40 -2.7 C 2.81 g/m*3 -2.7 C 0 km/h
194 29-12-2008 14:40:41 -2.7 C 2.77 g/m*3 -2.7 C 0 km/h
195 29-12-2008 14:52:41 -2.8 C 2.75 g/m*3 -2.8 C 0 km/h
196 29-12-2008 15:04:40 -2.7 C 2.77 g/m*3 -2.7 C 0 km/h
197 29-12-2008 15:16:40 -2.6 C 2.79 g/m*3 -2.6 C 0 km/h
198 29-12-2008 15:28:40 -2.8 C 2.75 g/m*3 -2.8 C 0 km/h
199 29-12-2008 15:40:40 -2.8 C 2.79 g/m*3 -2.8 C 0 km/h
200 29-12-2008 15:52:40 -3 C 2.75 g/m*3 -3 C 0 km/h
Sensor: Nr:Datum:Temp:Abs-Feuchte:Windchill:Wind:
Aussen-T/F 201 29-12-2008 16:04:40 -3 C 2.79 g/m*3 -3 C 0 km/h
202 29-12-2008 16:16:39 -3.1 C 2.81 g/m*3 -3.1 C 0 km/h
203 29-12-2008 16:28:39 -3.3 C 2.77 g/m*3 -3.3 C 0 km/h
204 29-12-2008 16:40:38 -3.4 C 2.79 g/m*3 -3.4 C 0 km/h
205 29-12-2008 16:52:38 -3.5 C 2.77 g/m*3 -3.5 C 0 km/h
206 29-12-2008 17:04:38 -3.5 C 2.77 g/m*3 -3.5 C 0 km/h
207 29-12-2008 17:16:38 -3.7 C 2.73 g/m*3 -3.7 C 0 km/h
208 29-12-2008 17:28:38 -3.9 C 2.69 g/m*3 -3.9 C 0 km/h
209 29-12-2008 17:40:38 -4 C 2.71 g/m*3 -4 C 0 km/h
210 29-12-2008 17:52:38 -4 C 2.74 g/m*3 -4 C 0 km/h
211 29-12-2008 18:04:38 -4.1 C 2.76 g/m*3 -4.1 C 0 km/h
212 29-12-2008 18:16:38 -4.3 C 2.72 g/m*3 -4.3 C 0 km/h
213 29-12-2008 18:28:38 -4.2 C 2.74 g/m*3 -4.2 C 0 km/h
214 29-12-2008 18:40:37 -4.2 C 2.74 g/m*3 -4.2 C 0 km/h
215 29-12-2008 18:52:37 -4.4 C 2.7 g/m*3 -4.4 C 0 km/h
216 29-12-2008 19:04:37 -4.5 C 2.68 g/m*3 -4.5 C 0 km/h
217 29-12-2008 19:16:37 -4.6 C 2.7 g/m*3 -4.6 C 0 km/h
218 29-12-2008 19:28:37 -4.7 C 2.68 g/m*3 -4.7 C 0 km/h
219 29-12-2008 19:40:37 -4.9 C 2.64 g/m*3 -4.9 C 0 km/h
220 29-12-2008 19:52:37 -4.9 C 2.68 g/m*3 -4.9 C 0 km/h
221 29-12-2008 20:04:37 -4.9 C 2.68 g/m*3 -4.9 C 0 km/h
222 29-12-2008 20:16:36 -5.2 C 2.62 g/m*3 -5.2 C 0 km/h
223 29-12-2008 20:28:36 -5.2 C 2.65 g/m*3 -5.2 C 0 km/h
224 29-12-2008 20:40:37 -5.3 C 2.63 g/m*3 -5.3 C 0 km/h
225 29-12-2008 20:52:36 -5.4 C 2.61 g/m*3 -5.4 C 0 km/h
Sensor: Nr:Datum:Temp:Abs-Feuchte:Windchill:Wind:
Aussen-T/F 226 29-12-2008 21:04:36 -5.5 C 2.59 g/m*3 -5.5 C 0 km/h
227 29-12-2008 21:16:36 -5.6 C 2.61 g/m*3 -5.6 C 0 km/h
228 29-12-2008 21:28:36 -5.8 C 2.57 g/m*3 -5.8 C 0 km/h
229 29-12-2008 21:40:36 -5.9 C 2.55 g/m*3 -5.9 C 0 km/h
230 29-12-2008 21:53:37 -6 C 2.53 g/m*3 -6 C 0 km/h
231 29-12-2008 22:05:37 -6 C 2.53 g/m*3 -6 C 0 km/h
232 29-12-2008 22:17:37 -6 C 2.57 g/m*3 -6 C 0 km/h
233 29-12-2008 22:29:37 -6.1 C 2.55 g/m*3 -6.1 C 0 km/h
234 29-12-2008 22:41:37 -6 C 2.6 g/m*3 -6 C 0 km/h
235 29-12-2008 22:53:37 -6.1 C 2.58 g/m*3 -6.1 C 0 km/h
236 29-12-2008 23:05:38 -6.3 C 2.54 g/m*3 -6.3 C 0 km/h
237 29-12-2008 23:17:38 -6.4 C 2.52 g/m*3 -6.4 C 0 km/h
238 29-12-2008 23:29:38 -6.4 C 2.52 g/m*3 -6.4 C 0 km/h
239 29-12-2008 23:41:38 -6.6 C 2.49 g/m*3 -6.6 C 0 km/h
240 29-12-2008 23:53:38 -6.8 C 2.45 g/m*3 -6.8 C 0 km/h
241 30-12-2008 00:05:38 -6.9 C 2.43 g/m*3 -6.9 C 0 km/h
242 30-12-2008 00:17:38 -6.9 C 2.46 g/m*3 -6.9 C 0 km/h
243 30-12-2008 00:29:38 -7 C 2.44 g/m*3 -7 C 0 km/h
244 30-12-2008 00:41:38 -6.8 C 2.51 g/m*3 -6.8 C 0 km/h
245 30-12-2008 00:53:38 -6.9 C 2.49 g/m*3 -6.9 C 0 km/h
246 30-12-2008 01:05:38 -7 C 2.47 g/m*3 -7 C 0 km/h
247 30-12-2008 01:17:38 -7.2 C 2.44 g/m*3 -7.2 C 0 km/h
248 30-12-2008 01:29:38 -7.1 C 2.45 g/m*3 -7.1 C 0 km/h
249 30-12-2008 01:41:38 -7.2 C 2.44 g/m*3 -7.2 C 0 km/h
250 30-12-2008 01:53:38 -7.2 C 2.44 g/m*3 -7.2 C 0 km/h
Sensor: Nr:Datum:Temp:Abs-Feuchte:Windchill:Wind:
Aussen-T/F 251 30-12-2008 02:05:38 -7.3 C 2.42 g/m*3 -7.3 C 0 km/h
252 30-12-2008 02:17:38 -7.2 C 2.47 g/m*3 -7.2 C 0 km/h
253 30-12-2008 02:29:38 -7.3 C 2.45 g/m*3 -7.3 C 0 km/h
254 30-12-2008 02:41:38 -7.5 C 2.41 g/m*3 -7.5 C 0 km/h
255 30-12-2008 02:53:39 -7.7 C 2.38 g/m*3 -7.7 C 0 km/h
256 30-12-2008 03:05:39 -7.7 C 2.38 g/m*3 -7.7 C 0 km/h
257 30-12-2008 03:17:39 -7.5 C 2.41 g/m*3 -7.5 C 0 km/h
258 30-12-2008 03:29:39 -7.7 C 2.38 g/m*3 -7.7 C 0 km/h
259 30-12-2008 03:41:39 -7.8 C 2.36 g/m*3 -7.8 C 0 km/h
260 30-12-2008 03:53:39 -7.9 C 2.34 g/m*3 -7.9 C 0 km/h
261 30-12-2008 04:05:39 -8 C 2.32 g/m*3 -8 C 0 km/h
262 30-12-2008 04:17:39 -8 C 2.32 g/m*3 -8 C 0 km/h
263 30-12-2008 04:29:39 -8.1 C 2.31 g/m*3 -8.1 C 0 km/h
264 30-12-2008 04:41:39 -8.2 C 2.29 g/m*3 -8.2 C 0 km/h
265 30-12-2008 04:53:39 -8.1 C 2.31 g/m*3 -8.1 C 0 km/h
266 30-12-2008 05:05:39 -8.2 C 2.29 g/m*3 -8.2 C 0 km/h
267 30-12-2008 05:17:39 -8.2 C 2.26 g/m*3 -8.2 C 0 km/h
268 30-12-2008 05:29:39 -8.3 C 2.25 g/m*3 -8.3 C 0 km/h
269 30-12-2008 05:41:39 -8.3 C 2.22 g/m*3 -8.3 C 0 km/h
270 30-12-2008 05:53:39 -8.3 C 2.22 g/m*3 -8.3 C 0 km/h
271 30-12-2008 06:05:39 -8.3 C 2.22 g/m*3 -8.3 C 0 km/h
272 30-12-2008 06:17:39 -8.4 C 2.2 g/m*3 -8.4 C 0 km/h
273 30-12-2008 06:29:39 -8.4 C 2.18 g/m*3 -8.4 C 0 km/h
274 30-12-2008 06:41:39 -8.4 C 2.18 g/m*3 -8.4 C 0 km/h
275 30-12-2008 06:53:40 -8.3 C 2.19 g/m*3 -8.3 C 0 km/h
Sensor: Nr:Datum:Temp:Abs-Feuchte:Windchill:Wind:
Aussen-T/F 276 30-12-2008 07:05:40 -8.4 C 2.15 g/m*3 -8.4 C 0 km/h
277 30-12-2008 07:17:40 -8.2 C 2.21 g/m*3 -8.2 C 0 km/h
278 30-12-2008 07:29:40 -8.3 C 2.17 g/m*3 -8.3 C 0 km/h
279 30-12-2008 07:41:40 -8.2 C 2.18 g/m*3 -8.2 C 0 km/h
280 30-12-2008 07:53:40 -8.3 C 2.17 g/m*3 -8.3 C 0 km/h
281 30-12-2008 08:05:40 -8.5 C 2.13 g/m*3 -8.5 C 0 km/h
282 30-12-2008 08:17:37 -8.4 C 2.15 g/m*3 -8.4 C 0 km/h
283 30-12-2008 08:29:37 -8.3 C 2.17 g/m*3 -8.3 C 0 km/h
284 30-12-2008 08:41:37 -8.3 C 2.17 g/m*3 -8.3 C 0 km/h
285 30-12-2008 08:53:37 -8.5 C 2.13 g/m*3 -8.5 C 0 km/h
286 30-12-2008 09:05:37 -8.2 C 2.18 g/m*3 -8.2 C 0 km/h
287 30-12-2008 09:17:36 -8.3 C 2.17 g/m*3 -8.3 C 0 km/h
288 30-12-2008 09:29:36 -8.2 C 2.18 g/m*3 -8.2 C 0 km/h
289 30-12-2008 09:41:37 -8.2 C 2.18 g/m*3 -8.2 C 0 km/h
290 30-12-2008 09:53:02 -8 C 2.22 g/m*3 -8 C 0 km/h
291 30-12-2008 10:05:01 -7.9 C 2.23 g/m*3 -7.9 C 0 km/h
292 30-12-2008 10:17:01 -7.7 C 2.26 g/m*3 -7.7 C 0 km/h
293 30-12-2008 10:29:01 -7.6 C 2.28 g/m*3 -7.6 C 0 km/h
294 30-12-2008 10:41:02 -7.5 C 2.3 g/m*3 -7.5 C 0 km/h
295 30-12-2008 10:53:01 -7.4 C 2.32 g/m*3 -7.4 C 0 km/h
296 30-12-2008 11:05:01 -7.1 C 2.4 g/m*3 -7.1 C 0 km/h
297 30-12-2008 11:17:01 -6.9 C 2.43 g/m*3 -6.9 C 0 km/h
298 30-12-2008 11:29:01 -6.6 C 2.52 g/m*3 -6.6 C 0 km/h
299 30-12-2008 11:41:00 -6.5 C 2.5 g/m*3 -6.5 C 0 km/h
300 30-12-2008 11:53:01 -6.2 C 2.59 g/m*3 -6.2 C 0 km/h
Sensor: Nr:Datum:Temp:Abs-Feuchte:Windchill:Wind:
Aussen-T/F 301 30-12-2008 12:05:00 -5.9 C 2.65 g/m*3 -5.9 C 0 km/h
302 30-12-2008 12:17:00 -5.7 C 2.69 g/m*3 -5.7 C 0 km/h
303 30-12-2008 12:29:01 -5.5 C 2.73 g/m*3 -5.5 C 0 km/h
304 30-12-2008 12:41:00 -5.2 C 2.82 g/m*3 -5.2 C 0 km/h
305 30-12-2008 12:53:00 -5.1 C 2.81 g/m*3 -5.1 C 0 km/h
306 30-12-2008 13:05:59 -4.9 C 2.85 g/m*3 -4.9 C 0 km/h
307 30-12-2008 13:17:00 -4.6 C 2.94 g/m*3 -4.6 C 0 km/h
308 30-12-2008 13:29:00 -4.1 C 3.01 g/m*3 -4.1 C 0 km/h
309 30-12-2008 13:41:00 -3.7 C 3.06 g/m*3 -3.7 C 0 km/h
310 30-12-2008 13:53:59 -3.6 C 3.01 g/m*3 -3.6 C 0 km/h
311 30-12-2008 14:04:59 -3.5 C 3.03 g/m*3 -3.5 C 0 km/h
312 30-12-2008 14:17:59 -3.4 C 3.02 g/m*3 -3.4 C 0 km/h
313 30-12-2008 14:29:59 -3.3 C 3 g/m*3 -3.3 C 0 km/h
314 30-12-2008 14:41:59 -3.2 C 2.98 g/m*3 -3.2 C 0 km/h
315 30-12-2008 14:53:58 -3.1 C 2.96 g/m*3 -3.1 C 0 km/h
316 30-12-2008 15:05:59 -3.1 C 2.96 g/m*3 -3.1 C 0 km/h
317 30-12-2008 15:17:58 -3.1 C 2.96 g/m*3 -3.1 C 0 km/h
318 30-12-2008 15:29:58 -3.1 C 2.93 g/m*3 -3.1 C 0 km/h
319 30-12-2008 15:41:58 -3.1 C 2.96 g/m*3 -3.1 C 0 km/h
320 30-12-2008 15:53:58 -3.3 C 2.92 g/m*3 -3.3 C 0 km/h
321 30-12-2008 16:05:58 -3.4 C 2.9 g/m*3 -3.4 C 0 km/h
322 30-12-2008 16:17:58 -3.4 C 2.94 g/m*3 -3.4 C 0 km/h
323 30-12-2008 16:29:58 -3.5 C 2.92 g/m*3 -3.5 C 0 km/h
324 30-12-2008 16:41:57 -3.7 C 2.88 g/m*3 -3.7 C 0 km/h
325 30-12-2008 16:53:58 -3.8 C 2.82 g/m*3 -3.8 C 0 km/h
Sensor: Nr:Datum:Temp:Abs-Feuchte:Windchill:Wind:
Aussen-T/F 326 30-12-2008 17:05:57 -3.9 C 2.8 g/m*3 -3.9 C 0 km/h
327 30-12-2008 17:17:58 -3.9 C 2.84 g/m*3 -3.9 C 0 km/h
328 30-12-2008 17:29:58 -4.1 C 2.76 g/m*3 -4.1 C 0 km/h
329 30-12-2008 17:41:57 -4.2 C 2.78 g/m*3 -4.2 C 0 km/h
330 30-12-2008 17:53:57 -4.3 C 2.72 g/m*3 -4.3 C 0 km/h
331 30-12-2008 18:05:57 -4.4 C 2.74 g/m*3 -4.4 C 0 km/h
332 30-12-2008 18:17:57 -4.5 C 2.72 g/m*3 -4.5 C 0 km/h
333 30-12-2008 18:29:58 -4.5 C 2.75 g/m*3 -4.5 C 0 km/h
334 30-12-2008 18:41:56 -4.5 C 2.75 g/m*3 -4.5 C 0 km/h
335 30-12-2008 18:53:57 -4.6 C 2.73 g/m*3 -4.6 C 0 km/h
336 30-12-2008 19:05:56 -4.5 C 2.75 g/m*3 -4.5 C 0 km/h
337 30-12-2008 19:17:56 -4.6 C 2.73 g/m*3 -4.6 C 0 km/h
338 30-12-2008 19:29:56 -4.8 C 2.69 g/m*3 -4.8 C 0 km/h
339 30-12-2008 19:41:56 -5 C 2.66 g/m*3 -5 C 0 km/h
340 30-12-2008 19:53:56 -5 C 2.66 g/m*3 -5 C 0 km/h
341 30-12-2008 20:05:56 -5 C 2.69 g/m*3 -5 C 0 km/h
342 30-12-2008 20:17:55 -5.1 C 2.67 g/m*3 -5.1 C 0 km/h
343 30-12-2008 20:29:55 -5.1 C 2.67 g/m*3 -5.1 C 0 km/h
344 30-12-2008 20:41:56 -5.3 C 2.63 g/m*3 -5.3 C 0 km/h
345 30-12-2008 20:53:55 -5.4 C 2.61 g/m*3 -5.4 C 0 km/h
346 30-12-2008 21:05:55 -5.6 C 2.58 g/m*3 -5.6 C 0 km/h
347 30-12-2008 21:17:55 -5.5 C 2.63 g/m*3 -5.5 C 0 km/h
348 30-12-2008 21:29:55 -5.6 C 2.64 g/m*3 -5.6 C 0 km/h
349 30-12-2008 21:42:56 -5.7 C 2.62 g/m*3 -5.7 C 0 km/h
350 30-12-2008 21:54:56 -5.8 C 2.6 g/m*3 -5.8 C 0 km/h
Sensor: Nr:Datum:Temp:Abs-Feuchte:Windchill:Wind:
Aussen-T/F 351 30-12-2008 22:06:56 -5.8 C 2.6 g/m*3 -5.8 C 0 km/h
352 30-12-2008 22:18:56 -5.8 C 2.64 g/m*3 -5.8 C 0 km/h
353 30-12-2008 22:30:56 -6 C 2.6 g/m*3 -6 C 0 km/h
354 30-12-2008 22:42:56 -6.2 C 2.56 g/m*3 -6.2 C 0 km/h
355 30-12-2008 22:54:56 -6.3 C 2.54 g/m*3 -6.3 C 0 km/h
356 30-12-2008 23:06:56 -6.3 C 2.54 g/m*3 -6.3 C 0 km/h
357 30-12-2008 23:18:56 -6.3 C 2.57 g/m*3 -6.3 C 0 km/h
358 30-12-2008 23:30:56 -6.5 C 2.53 g/m*3 -6.5 C 0 km/h
359 30-12-2008 23:42:56 -6.4 C 2.55 g/m*3 -6.4 C 0 km/h
360 30-12-2008 23:54:56 -6.4 C 2.55 g/m*3 -6.4 C 0 km/h
361 31-12-2008 00:06:57 -6.4 C 2.55 g/m*3 -6.4 C 0 km/h
362 31-12-2008 00:18:57 -6.4 C 2.55 g/m*3 -6.4 C 0 km/h
363 31-12-2008 00:30:57 -6.2 C 2.62 g/m*3 -6.2 C 0 km/h
364 31-12-2008 00:42:57 -6.2 C 2.62 g/m*3 -6.2 C 0 km/h
365 31-12-2008 00:54:57 -6.4 C 2.58 g/m*3 -6.4 C 0 km/h
366 31-12-2008 01:06:57 -6.4 C 2.58 g/m*3 -6.4 C 0 km/h
367 31-12-2008 01:18:57 -6.6 C 2.55 g/m*3 -6.6 C 0 km/h
368 31-12-2008 01:30:57 -6.8 C 2.48 g/m*3 -6.8 C 0 km/h
369 31-12-2008 01:42:57 -6.7 C 2.5 g/m*3 -6.7 C 0 km/h
370 31-12-2008 01:54:57 -6.7 C 2.5 g/m*3 -6.7 C 0 km/h
371 31-12-2008 02:06:57 -6.9 C 2.46 g/m*3 -6.9 C 0 km/h
372 31-12-2008 02:18:57 -7.1 C 2.43 g/m*3 -7.1 C 0 km/h
373 31-12-2008 02:30:57 -7.1 C 2.43 g/m*3 -7.1 C 0 km/h
374 31-12-2008 02:42:57 -7.2 C 2.41 g/m*3 -7.2 C 0 km/h
375 31-12-2008 02:54:57 -7.3 C 2.39 g/m*3 -7.3 C 0 km/h
Sensor: Nr:Datum:Temp:Abs-Feuchte:Windchill:Wind:
Aussen-T/F 376 31-12-2008 03:06:57 -7.2 C 2.41 g/m*3 -7.2 C 0 km/h
377 31-12-2008 03:18:57 -7.3 C 2.39 g/m*3 -7.3 C 0 km/h
378 31-12-2008 03:30:57 -7.3 C 2.39 g/m*3 -7.3 C 0 km/h
379 31-12-2008 03:42:57 -7.2 C 2.41 g/m*3 -7.2 C 0 km/h
380 31-12-2008 03:54:57 -7.1 C 2.45 g/m*3 -7.1 C 0 km/h
381 31-12-2008 04:06:58 -7.1 C 2.45 g/m*3 -7.1 C 0 km/h
382 31-12-2008 04:18:58 -7.3 C 2.39 g/m*3 -7.3 C 0 km/h
383 31-12-2008 04:30:58 -7.3 C 2.39 g/m*3 -7.3 C 0 km/h
384 31-12-2008 04:42:58 -7.4 C 2.37 g/m*3 -7.4 C 0 km/h
385 31-12-2008 04:54:55 -7.4 C 2.37 g/m*3 -7.4 C 0 km/h
386 31-12-2008 05:06:56 -7.4 C 2.37 g/m*3 -7.4 C 0 km/h
387 31-12-2008 05:18:55 -7.4 C 2.37 g/m*3 -7.4 C 0 km/h
388 31-12-2008 05:30:55 -7.5 C 2.36 g/m*3 -7.5 C 0 km/h
389 31-12-2008 05:42:55 -7.4 C 2.37 g/m*3 -7.4 C 0 km/h
390 31-12-2008 05:54:55 -7.5 C 2.36 g/m*3 -7.5 C 0 km/h
391 31-12-2008 06:06:55 -7.5 C 2.36 g/m*3 -7.5 C 0 km/h
392 31-12-2008 06:18:55 -7.7 C 2.32 g/m*3 -7.7 C 0 km/h
393 31-12-2008 06:30:55 -7.7 C 2.29 g/m*3 -7.7 C 0 km/h
394 31-12-2008 06:42:55 -7.8 C 2.28 g/m*3 -7.8 C 0 km/h
395 31-12-2008 06:54:54 -7.8 C 2.28 g/m*3 -7.8 C 0 km/h
396 31-12-2008 07:06:55 -7.8 C 2.28 g/m*3 -7.8 C 0 km/h
397 31-12-2008 07:18:54 -7.8 C 2.28 g/m*3 -7.8 C 0 km/h
398 31-12-2008 07:30:54 -7.8 C 2.28 g/m*3 -7.8 C 0 km/h
399 31-12-2008 07:42:54 -7.8 C 2.28 g/m*3 -7.8 C 0 km/h
400 31-12-2008 07:54:54 -7.8 C 2.28 g/m*3 -7.8 C 0 km/h
Sensor: Nr:Datum:Temp:Abs-Feuchte:Windchill:Wind:
Aussen-T/F 401 31-12-2008 08:06:54 -7.8 C 2.28 g/m*3 -7.8 C 0 km/h
402 31-12-2008 08:18:54 -7.8 C 2.28 g/m*3 -7.8 C 0 km/h
403 31-12-2008 08:30:54 -7.5 C 2.33 g/m*3 -7.5 C 0 km/h
404 31-12-2008 08:42:54 -7.1 C 2.43 g/m*3 -7.1 C 0 km/h
405 31-12-2008 08:54:53 -6.7 C 2.53 g/m*3 -6.7 C 0 km/h
406 31-12-2008 09:06:53 -6.4 C 2.58 g/m*3 -6.4 C 0 km/h
407 31-12-2008 09:18:53 -6 C 2.66 g/m*3 -6 C 0 km/h
408 31-12-2008 09:30:53 -5.9 C 2.68 g/m*3 -5.9 C 0 km/h
409 31-12-2008 09:42:53 -5.7 C 2.72 g/m*3 -5.7 C 0 km/h
410 31-12-2008 09:54:52 -5.6 C 2.74 g/m*3 -5.6 C 0 km/h
411 31-12-2008 10:06:53 -5.4 C 2.75 g/m*3 -5.4 C 0 km/h
412 31-12-2008 10:18:53 -5.2 C 2.79 g/m*3 -5.2 C 0 km/h
413 31-12-2008 10:30:52 -4.9 C 2.85 g/m*3 -4.9 C 0 km/h
414 31-12-2008 10:42:52 -4.5 C 2.89 g/m*3 -4.5 C 0 km/h
415 31-12-2008 10:54:02 -3.8 C 3.04 g/m*3 -3.8 C 0 km/h
416 31-12-2008 11:06:01 -3.7 C 3.06 g/m*3 -3.7 C 0 km/h
417 31-12-2008 11:18:01 -3.8 C 3.01 g/m*3 -3.8 C 0 km/h
418 31-12-2008 11:30:01 -3.9 C 2.98 g/m*3 -3.9 C 0 km/h
419 31-12-2008 11:42:01 -3.6 C 3.05 g/m*3 -3.6 C 0 km/h
420 31-12-2008 11:54:01 -3 C 3.22 g/m*3 -3 C 0 km/h
421 31-12-2008 12:06:01 -2.6 C 3.27 g/m*3 -2.6 C 0 km/h
422 31-12-2008 12:18:02 -2.6 C 3.23 g/m*3 -2.6 C 0 km/h
423 31-12-2008 12:30:02 -2.9 C 3.09 g/m*3 -2.9 C 0 km/h
424 31-12-2008 12:42:01 -2.9 C 3.09 g/m*3 -2.9 C 0 km/h
425 31-12-2008 12:54:00 -2.9 C 3.05 g/m*3 -2.9 C 0 km/h
Sensor: Nr:Datum:Temp:Abs-Feuchte:Windchill:Wind:
Aussen-T/F 426 31-12-2008 13:06:01 -2.9 C 3.05 g/m*3 -2.9 C 0 km/h
427 31-12-2008 13:18:01 -2.8 C 3.03 g/m*3 -2.8 C 0 km/h
428 31-12-2008 13:30:01 -2.7 C 3.05 g/m*3 -2.7 C 0 km/h
429 31-12-2008 13:42:00 -2.4 C 3.11 g/m*3 -2.4 C 0 km/h
430 31-12-2008 13:54:01 -2.1 C 3.22 g/m*3 -2.1 C 0 km/h
431 31-12-2008 14:06:00 -1.7 C 3.31 g/m*3 -1.7 C 0 km/h
432 31-12-2008 14:18:00 -1.5 C 3.32 g/m*3 -1.5 C 0 km/h
433 31-12-2008 14:30:00 -1.5 C 3.27 g/m*3 -1.5 C 0 km/h
434 31-12-2008 14:42:00 -1.4 C 3.3 g/m*3 -1.4 C 0 km/h
435 31-12-2008 14:54:00 -1.5 C 3.27 g/m*3 -1.5 C 0 km/h
436 31-12-2008 15:06:59 -1.6 C 3.25 g/m*3 -1.6 C 0 km/h
437 31-12-2008 15:29:59 -1.6 C 3.25 g/m*3 -1.6 C 0 km/h
438 31-12-2008 15:30:00 -1.6 C 3.25 g/m*3 -1.6 C 0 km/h
439 31-12-2008 15:42:00 -1.6 C 3.25 g/m*3 -1.6 C 0 km/h
440 31-12-2008 15:54:59 -1.6 C 3.25 g/m*3 -1.6 C 0 km/h
441 31-12-2008 16:05:59 -1.6 C 3.25 g/m*3 -1.6 C 0 km/h
442 31-12-2008 16:18:59 -1.7 C 3.23 g/m*3 -1.7 C 0 km/h
443 31-12-2008 16:30:59 -1.7 C 3.23 g/m*3 -1.7 C 0 km/h
444 31-12-2008 16:43:00 -1.7 C 3.23 g/m*3 -1.7 C 0 km/h
445 31-12-2008 16:54:59 -1.7 C 3.27 g/m*3 -1.7 C 0 km/h
446 31-12-2008 17:06:59 -1.4 C 3.39 g/m*3 -1.4 C 0 km/h
447 31-12-2008 17:18:59 -1.2 C 3.48 g/m*3 -1.2 C 0 km/h
448 31-12-2008 17:30:58 -1 C 3.53 g/m*3 -1 C 0 km/h
449 31-12-2008 17:42:58 -1.1 C 3.5 g/m*3 -1.1 C 0 km/h
450 31-12-2008 17:54:59 -1.3 C 3.45 g/m*3 -1.3 C 0 km/h
Sensor: Nr:Datum:Temp:Abs-Feuchte:Windchill:Wind:
Aussen-T/F 451 31-12-2008 18:06:58 -1.1 C 3.55 g/m*3 -1.1 C 0 km/h
452 31-12-2008 18:18:58 -1.2 C 3.52 g/m*3 -1.2 C 0 km/h
453 31-12-2008 18:30:57 -1.4 C 3.52 g/m*3 -1.4 C 0 km/h
454 31-12-2008 18:42:57 -1.5 C 3.54 g/m*3 -1.5 C 0 km/h
455 31-12-2008 18:54:58 -1.5 C 3.54 g/m*3 -1.5 C 0 km/h
456 31-12-2008 19:06:57 -1.5 C 3.54 g/m*3 -1.5 C 0 km/h
457 31-12-2008 19:18:57 -1.6 C 3.55 g/m*3 -1.6 C 0 km/h
458 31-12-2008 19:30:57 -1.6 C 3.6 g/m*3 -1.6 C 0 km/h
459 31-12-2008 19:42:57 -1.7 C 3.62 g/m*3 -1.7 C 0 km/h
460 31-12-2008 19:54:57 -1.8 C 3.59 g/m*3 -1.8 C 0 km/h
461 31-12-2008 20:06:56 -1.8 C 3.59 g/m*3 -1.8 C 0 km/h
462 31-12-2008 20:18:57 -1.9 C 3.61 g/m*3 -1.9 C 0 km/h
463 31-12-2008 20:30:57 -2.3 C 3.51 g/m*3 -2.3 C 0 km/h
464 31-12-2008 20:42:57 -2.4 C 3.48 g/m*3 -2.4 C 0 km/h
465 31-12-2008 20:54:56 -2.5 C 3.5 g/m*3 -2.5 C 0 km/h
466 31-12-2008 21:06:57 -2.6 C 3.48 g/m*3 -2.6 C 0 km/h
467 31-12-2008 21:18:56 -2.7 C 3.45 g/m*3 -2.7 C 0 km/h
468 31-12-2008 21:30:56 -2.5 C 3.54 g/m*3 -2.5 C 0 km/h
469 31-12-2008 21:42:56 -2.6 C 3.52 g/m*3 -2.6 C 0 km/h
470 31-12-2008 21:54:55 -2.4 C 3.57 g/m*3 -2.4 C 0 km/h
471 31-12-2008 22:06:56 -2.5 C 3.54 g/m*3 -2.5 C 0 km/h
472 31-12-2008 22:18:56 -2.7 C 3.49 g/m*3 -2.7 C 0 km/h
473 31-12-2008 22:30:55 -2.8 C 3.47 g/m*3 -2.8 C 0 km/h
474 31-12-2008 22:42:55 -3.1 C 3.39 g/m*3 -3.1 C 0 km/h
475 31-12-2008 22:54:55 -3.2 C 3.37 g/m*3 -3.2 C 0 km/h
Sensor: Nr:Datum:Temp:Abs-Feuchte:Windchill:Wind:
Aussen-T/F 476 31-12-2008 23:07:53 -3.2 C 3.37 g/m*3 -3.2 C 0 km/h
477 31-12-2008 23:19:53 -3 C 3.46 g/m*3 -3 C 0 km/h
478 31-12-2008 23:31:53 -2.6 C 3.6 g/m*3 -2.6 C 0 km/h
479 31-12-2008 23:43:53 -2.4 C 3.65 g/m*3 -2.4 C 0 km/h
480 31-12-2008 23:55:53 -2.2 C 3.74 g/m*3 -2.2 C 0 km/h
481 01-01-2009 00:07:53 -2.1 C 3.77 g/m*3 -2.1 C 0 km/h
482 01-01-2009 00:19:53 -2 C 3.79 g/m*3 -2 C 0 km/h
483 01-01-2009 00:31:53 -1.9 C 3.82 g/m*3 -1.9 C 0 km/h
484 01-01-2009 00:43:53 -1.8 C 3.85 g/m*3 -1.8 C 0 km/h
485 01-01-2009 00:55:53 -1.7 C 3.87 g/m*3 -1.7 C 0 km/h
486 01-01-2009 01:07:54 -1.3 C 4.03 g/m*3 -1.3 C 0 km/h
487 01-01-2009 01:19:54 -1.1 C 4.04 g/m*3 -1.1 C 0 km/h
488 01-01-2009 01:31:54 -0.9 C 4.05 g/m*3 -0.9 C 0 km/h
489 01-01-2009 01:43:54 -0.9 C 3.91 g/m*3 -0.9 C 0 km/h
490 01-01-2009 01:55:54 -0.8 C 3.9 g/m*3 -0.8 C 0 km/h
491 01-01-2009 02:07:54 -0.9 C 3.82 g/m*3 -0.9 C 0 km/h
492 01-01-2009 02:19:54 -0.8 C 3.8 g/m*3 -0.8 C 0 km/h
493 01-01-2009 02:31:54 -0.9 C 3.78 g/m*3 -0.9 C 0 km/h
494 01-01-2009 02:43:54 -0.9 C 3.78 g/m*3 -0.9 C 0 km/h
495 01-01-2009 02:55:54 -1 C 3.75 g/m*3 -1 C 0 km/h
496 01-01-2009 03:07:54 -1.1 C 3.73 g/m*3 -1.1 C 0 km/h
497 01-01-2009 03:19:53 -1.1 C 3.77 g/m*3 -1.1 C 0 km/h
498 01-01-2009 03:31:53 -1.5 C 3.62 g/m*3 -1.5 C 0 km/h
499 01-01-2009 03:43:53 -1.8 C 3.55 g/m*3 -1.8 C 0 km/h
500 01-01-2009 03:55:53 -2 C 3.5 g/m*3 -2 C 0 km/h
Sensor: Nr:Datum:Temp:Abs-Feuchte:Windchill:Wind:
Aussen-T/F 501 01-01-2009 04:07:53 -2.1 C 3.52 g/m*3 -2.1 C 0 km/h
502 01-01-2009 04:19:53 -2.1 C 3.52 g/m*3 -2.1 C 0 km/h
503 01-01-2009 04:31:52 -2.1 C 3.52 g/m*3 -2.1 C 0 km/h
504 01-01-2009 04:43:52 -2.1 C 3.52 g/m*3 -2.1 C 0 km/h
505 01-01-2009 04:55:52 -2.1 C 3.52 g/m*3 -2.1 C 0 km/h
506 01-01-2009 05:07:53 -2 C 3.54 g/m*3 -2 C 0 km/h
507 01-01-2009 05:19:52 -2 C 3.54 g/m*3 -2 C 0 km/h
508 01-01-2009 05:31:52 -2 C 3.54 g/m*3 -2 C 0 km/h
509 01-01-2009 05:43:53 -2.2 C 3.41 g/m*3 -2.2 C 0 km/h
510 01-01-2009 05:55:52 -2.3 C 3.38 g/m*3 -2.3 C 0 km/h
511 01-01-2009 06:07:51 -2.4 C 3.32 g/m*3 -2.4 C 0 km/h
512 01-01-2009 06:19:52 -2.6 C 3.27 g/m*3 -2.6 C 0 km/h
513 01-01-2009 06:31:52 -2.8 C 3.23 g/m*3 -2.8 C 0 km/h
514 01-01-2009 06:43:52 -3.3 C 3.11 g/m*3 -3.3 C 0 km/h
515 01-01-2009 06:55:51 -3.6 C 3.05 g/m*3 -3.6 C 0 km/h
516 01-01-2009 07:07:52 -3.8 C 3.01 g/m*3 -3.8 C 0 km/h
517 01-01-2009 07:19:51 -3.8 C 3.01 g/m*3 -3.8 C 0 km/h
518 01-01-2009 07:31:51 -3.9 C 2.98 g/m*3 -3.9 C 0 km/h
519 01-01-2009 07:43:51 -3.9 C 2.98 g/m*3 -3.9 C 0 km/h
520 01-01-2009 07:55:51 -3.9 C 2.98 g/m*3 -3.9 C 0 km/h
521 01-01-2009 08:07:51 -4.2 C 2.89 g/m*3 -4.2 C 0 km/h
522 01-01-2009 08:19:51 -4.4 C 2.84 g/m*3 -4.4 C 0 km/h
523 01-01-2009 08:31:50 -4.5 C 2.82 g/m*3 -4.5 C 0 km/h
524 01-01-2009 08:43:50 -4.6 C 2.77 g/m*3 -4.6 C 0 km/h
525 01-01-2009 08:55:51 -4.7 C 2.75 g/m*3 -4.7 C 0 km/h
Sensor: Nr:Datum:Temp:Abs-Feuchte:Windchill:Wind:
Aussen-T/F 526 01-01-2009 09:07:50 -4.6 C 2.8 g/m*3 -4.6 C 0 km/h
527 01-01-2009 09:19:50 -4.6 C 2.8 g/m*3 -4.6 C 0 km/h
528 01-01-2009 09:31:50 -4.5 C 2.82 g/m*3 -4.5 C 0 km/h
529 01-01-2009 09:43:50 -4.5 C 2.79 g/m*3 -4.5 C 0 km/h
530 01-01-2009 09:55:50 -4.2 C 2.85 g/m*3 -4.2 C 0 km/h
531 01-01-2009 10:07:49 -4.2 C 2.85 g/m*3 -4.2 C 0 km/h
532 01-01-2009 10:19:50 -4.2 C 2.81 g/m*3 -4.2 C 0 km/h
533 01-01-2009 10:31:50 -4.1 C 2.83 g/m*3 -4.1 C 0 km/h
534 01-01-2009 10:43:50 -4.1 C 2.8 g/m*3 -4.1 C 0 km/h
535 01-01-2009 10:55:49 -4.3 C 2.69 g/m*3 -4.3 C 0 km/h
536 01-01-2009 11:07:50 -4.3 C 2.69 g/m*3 -4.3 C 0 km/h
537 01-01-2009 11:19:49 -4 C 2.74 g/m*3 -4 C 0 km/h
538 01-01-2009 11:31:49 -4 C 2.71 g/m*3 -4 C 0 km/h
539 01-01-2009 11:43:49 -4.1 C 2.65 g/m*3 -4.1 C 0 km/h
540 01-01-2009 11:55:48 -4.1 C 2.69 g/m*3 -4.1 C 0 km/h
541 01-01-2009 12:07:49 -4.1 C 2.69 g/m*3 -4.1 C 0 km/h
542 01-01-2009 12:19:48 -4.1 C 2.69 g/m*3 -4.1 C 0 km/h
543 01-01-2009 12:31:48 -4.1 C 2.65 g/m*3 -4.1 C 0 km/h
544 01-01-2009 12:43:48 -4 C 2.67 g/m*3 -4 C 0 km/h
545 01-01-2009 12:55:48 -4 C 2.63 g/m*3 -4 C 0 km/h
546 01-01-2009 13:07:48 -3.9 C 2.65 g/m*3 -3.9 C 0 km/h
547 01-01-2009 13:19:48 -3.8 C 2.67 g/m*3 -3.8 C 0 km/h
548 01-01-2009 13:31:48 -3.8 C 2.67 g/m*3 -3.8 C 0 km/h
549 01-01-2009 13:43:48 -3.7 C 2.69 g/m*3 -3.7 C 0 km/h
550 01-01-2009 13:55:48 -3.7 C 2.65 g/m*3 -3.7 C 0 km/h
Sensor: Nr:Datum:Temp:Abs-Feuchte:Windchill:Wind:
Aussen-T/F 551 01-01-2009 14:07:47 -3.6 C 2.63 g/m*3 -3.6 C 0 km/h
552 01-01-2009 14:19:48 -3.7 C 2.58 g/m*3 -3.7 C 0 km/h
553 01-01-2009 14:31:01 -3.8 C 2.56 g/m*3 -3.8 C 0 km/h
554 01-01-2009 14:43:01 -3.9 C 2.54 g/m*3 -3.9 C 0 km/h
555 01-01-2009 14:55:02 -3.9 C 2.58 g/m*3 -3.9 C 0 km/h
556 01-01-2009 15:07:01 -3.8 C 2.6 g/m*3 -3.8 C 0 km/h
557 01-01-2009 15:19:01 -3.7 C 2.62 g/m*3 -3.7 C 0 km/h
558 01-01-2009 15:31:01 -3.6 C 2.63 g/m*3 -3.6 C 0 km/h
559 01-01-2009 15:43:01 -3.6 C 2.63 g/m*3 -3.6 C 0 km/h
560 01-01-2009 15:55:01 -3.9 C 2.58 g/m*3 -3.9 C 0 km/h
561 01-01-2009 16:07:00 -4.2 C 2.56 g/m*3 -4.2 C 0 km/h
562 01-01-2009 16:19:00 -4.4 C 2.56 g/m*3 -4.4 C 0 km/h
563 01-01-2009 16:31:01 -4.6 C 2.56 g/m*3 -4.6 C 0 km/h
564 01-01-2009 16:43:01 -4.8 C 2.56 g/m*3 -4.8 C 0 km/h
565 01-01-2009 16:55:00 -4.9 C 2.54 g/m*3 -4.9 C 0 km/h
566 01-01-2009 17:07:00 -5.1 C 2.54 g/m*3 -5.1 C 0 km/h
567 01-01-2009 17:19:00 -5.3 C 2.5 g/m*3 -5.3 C 0 km/h
568 01-01-2009 17:31:59 -5.3 C 2.53 g/m*3 -5.3 C 0 km/h
569 01-01-2009 17:42:59 -5 C 2.62 g/m*3 -5 C 0 km/h
570 01-01-2009 17:55:00 -4.9 C 2.64 g/m*3 -4.9 C 0 km/h
571 01-01-2009 18:07:59 -4.8 C 2.66 g/m*3 -4.8 C 0 km/h
572 01-01-2009 18:19:59 -4.6 C 2.7 g/m*3 -4.6 C 0 km/h
573 01-01-2009 18:31:00 -4.6 C 2.73 g/m*3 -4.6 C 0 km/h
574 01-01-2009 18:43:00 -4.4 C 2.77 g/m*3 -4.4 C 0 km/h
575 01-01-2009 18:55:59 -4.3 C 2.79 g/m*3 -4.3 C 0 km/h
Sensor: Nr:Datum:Temp:Abs-Feuchte:Windchill:Wind:
Aussen-T/F 576 01-01-2009 19:07:59 -4.2 C 2.78 g/m*3 -4.2 C 0 km/h
577 01-01-2009 19:19:59 -4.2 C 2.78 g/m*3 -4.2 C 0 km/h
578 01-01-2009 19:31:59 -4.2 C 2.7 g/m*3 -4.2 C 0 km/h
579 01-01-2009 19:44:00 -4.2 C 2.67 g/m*3 -4.2 C 0 km/h
580 01-01-2009 19:55:58 -4.1 C 2.69 g/m*3 -4.1 C 0 km/h
581 01-01-2009 20:07:59 -4.1 C 2.69 g/m*3 -4.1 C 0 km/h
582 01-01-2009 20:19:58 -4.1 C 2.69 g/m*3 -4.1 C 0 km/h
583 01-01-2009 20:31:58 -4 C 2.71 g/m*3 -4 C 0 km/h
584 01-01-2009 20:43:58 -4 C 2.71 g/m*3 -4 C 0 km/h
585 01-01-2009 20:55:58 -4 C 2.71 g/m*3 -4 C 0 km/h
586 01-01-2009 21:07:58 -3.9 C 2.73 g/m*3 -3.9 C 0 km/h
587 01-01-2009 21:19:58 -3.9 C 2.73 g/m*3 -3.9 C 0 km/h
588 01-01-2009 21:31:57 -3.9 C 2.73 g/m*3 -3.9 C 0 km/h
589 01-01-2009 21:43:57 -3.9 C 2.73 g/m*3 -3.9 C 0 km/h
590 01-01-2009 21:55:58 -3.9 C 2.73 g/m*3 -3.9 C 0 km/h
591 01-01-2009 22:07:57 -3.9 C 2.73 g/m*3 -3.9 C 0 km/h
592 01-01-2009 22:20:58 -3.9 C 2.76 g/m*3 -3.9 C 0 km/h
593 01-01-2009 22:32:58 -3.9 C 2.76 g/m*3 -3.9 C 0 km/h
594 01-01-2009 22:44:59 -3.9 C 2.76 g/m*3 -3.9 C 0 km/h
595 01-01-2009 22:56:59 -4 C 2.78 g/m*3 -4 C 0 km/h
596 01-01-2009 23:08:59 -4 C 2.78 g/m*3 -4 C 0 km/h
597 01-01-2009 23:20:59 -3.9 C 2.8 g/m*3 -3.9 C 0 km/h
598 01-01-2009 23:32:59 -3.9 C 2.8 g/m*3 -3.9 C 0 km/h
599 01-01-2009 23:44:59 -4 C 2.78 g/m*3 -4 C 0 km/h
600 01-01-2009 23:56:59 -4.1 C 2.76 g/m*3 -4.1 C 0 km/h
Sensor: Nr:Datum:Temp:Abs-Feuchte:Windchill:Wind:
Aussen-T/F 601 02-01-2009 00:08:59 -4 C 2.78 g/m*3 -4 C 0 km/h
602 02-01-2009 00:20:59 -4 C 2.78 g/m*3 -4 C 0 km/h
603 02-01-2009 00:32:59 -4.1 C 2.76 g/m*3 -4.1 C 0 km/h
604 02-01-2009 00:44:59 -4.1 C 2.76 g/m*3 -4.1 C 0 km/h
605 02-01-2009 00:56:59 -4 C 2.78 g/m*3 -4 C 0 km/h
606 02-01-2009 01:08:59 -4 C 2.78 g/m*3 -4 C 0 km/h
607 02-01-2009 01:20:59 -4 C 2.78 g/m*3 -4 C 0 km/h
608 02-01-2009 01:32:59 -4 C 2.78 g/m*3 -4 C 0 km/h
609 02-01-2009 01:44:59 -4 C 2.78 g/m*3 -4 C 0 km/h
610 02-01-2009 01:56:59 -4 C 2.82 g/m*3 -4 C 0 km/h
611 02-01-2009 02:08:59 -3.9 C 2.84 g/m*3 -3.9 C 0 km/h
612 02-01-2009 02:19:59 -3.9 C 2.8 g/m*3 -3.9 C 0 km/h
613 02-01-2009 02:31:59 -3.9 C 2.8 g/m*3 -3.9 C 0 km/h
614 02-01-2009 02:44:00 -3.9 C 2.8 g/m*3 -3.9 C 0 km/h
615 02-01-2009 02:56:00 -3.9 C 2.8 g/m*3 -3.9 C 0 km/h
616 02-01-2009 03:08:00 -4 C 2.78 g/m*3 -4 C 0 km/h
617 02-01-2009 03:20:00 -4 C 2.78 g/m*3 -4 C 0 km/h
618 02-01-2009 03:32:00 -3.9 C 2.84 g/m*3 -3.9 C 0 km/h
619 02-01-2009 03:44:00 -3.9 C 2.84 g/m*3 -3.9 C 0 km/h
620 02-01-2009 03:56:00 -3.9 C 2.84 g/m*3 -3.9 C 0 km/h
621 02-01-2009 04:08:00 -3.8 C 2.86 g/m*3 -3.8 C 0 km/h
622 02-01-2009 04:20:00 -3.8 C 2.86 g/m*3 -3.8 C 0 km/h
623 02-01-2009 04:32:00 -3.7 C 2.84 g/m*3 -3.7 C 0 km/h
624 02-01-2009 04:44:00 -3.7 C 2.84 g/m*3 -3.7 C 0 km/h
625 02-01-2009 04:56:00 -3.7 C 2.88 g/m*3 -3.7 C 0 km/h
Sensor: Nr:Datum:Temp:Abs-Feuchte:Windchill:Wind:
Aussen-T/F 626 02-01-2009 05:08:00 -3.6 C 2.9 g/m*3 -3.6 C 0 km/h
627 02-01-2009 05:20:00 -3.6 C 2.9 g/m*3 -3.6 C 0 km/h
628 02-01-2009 05:32:00 -3.5 C 2.92 g/m*3 -3.5 C 0 km/h
629 02-01-2009 05:44:00 -3.5 C 2.88 g/m*3 -3.5 C 0 km/h
630 02-01-2009 05:56:00 -3.5 C 2.92 g/m*3 -3.5 C 0 km/h
631 02-01-2009 06:08:00 -3.4 C 2.94 g/m*3 -3.4 C 0 km/h
632 02-01-2009 06:20:00 -3.4 C 2.94 g/m*3 -3.4 C 0 km/h
633 02-01-2009 06:32:01 -3.4 C 2.94 g/m*3 -3.4 C 0 km/h
634 02-01-2009 06:44:01 -3.3 C 2.96 g/m*3 -3.3 C 0 km/h
635 02-01-2009 06:56:01 -3.3 C 2.96 g/m*3 -3.3 C 0 km/h
636 02-01-2009 07:08:01 -3.2 C 2.98 g/m*3 -3.2 C 0 km/h
637 02-01-2009 07:20:01 -3.2 C 2.94 g/m*3 -3.2 C 0 km/h
638 02-01-2009 07:32:01 -3.2 C 2.98 g/m*3 -3.2 C 0 km/h
639 02-01-2009 07:44:01 -3.2 C 2.98 g/m*3 -3.2 C 0 km/h
640 02-01-2009 07:56:01 -3.2 C 2.98 g/m*3 -3.2 C 0 km/h
641 02-01-2009 08:08:01 -3.3 C 3 g/m*3 -3.3 C 0 km/h
642 02-01-2009 08:20:59 -3.3 C 3.04 g/m*3 -3.3 C 0 km/h
643 02-01-2009 08:32:58 -3.3 C 3.11 g/m*3 -3.3 C 0 km/h
644 02-01-2009 08:44:57 -3.3 C 3.15 g/m*3 -3.3 C 0 km/h
645 02-01-2009 08:56:57 -3.3 C 3.15 g/m*3 -3.3 C 0 km/h
646 02-01-2009 09:08:58 -3.2 C 3.18 g/m*3 -3.2 C 0 km/h
647 02-01-2009 09:20:58 -3.1 C 3.2 g/m*3 -3.1 C 0 km/h
648 02-01-2009 09:32:57 -3.1 C 3.2 g/m*3 -3.1 C 0 km/h
649 02-01-2009 09:44:58 -3 C 3.22 g/m*3 -3 C 0 km/h
650 02-01-2009 09:56:58 -3 C 3.22 g/m*3 -3 C 0 km/h
Sensor: Nr:Datum:Temp:Abs-Feuchte:Windchill:Wind:
Aussen-T/F 651 02-01-2009 10:08:57 -2.8 C 3.27 g/m*3 -2.8 C 0 km/h
652 02-01-2009 10:20:57 -2.8 C 3.27 g/m*3 -2.8 C 0 km/h
653 02-01-2009 10:32:57 -2.7 C 3.25 g/m*3 -2.7 C 0 km/h
654 02-01-2009 10:44:57 -2.7 C 3.25 g/m*3 -2.7 C 0 km/h
655 02-01-2009 10:56:57 -2.5 C 3.3 g/m*3 -2.5 C 0 km/h
656 02-01-2009 11:08:56 -2.3 C 3.34 g/m*3 -2.3 C 0 km/h
657 02-01-2009 11:20:57 -2.1 C 3.39 g/m*3 -2.1 C 0 km/h
658 02-01-2009 11:32:57 -2 C 3.37 g/m*3 -2 C 0 km/h
659 02-01-2009 11:44:56 -1.8 C 3.42 g/m*3 -1.8 C 0 km/h
660 02-01-2009 11:56:56 -1.7 C 3.44 g/m*3 -1.7 C 0 km/h
661 02-01-2009 12:08:57 -1.7 C 3.44 g/m*3 -1.7 C 0 km/h
662 02-01-2009 12:20:56 -1.7 C 3.49 g/m*3 -1.7 C 0 km/h
663 02-01-2009 12:32:56 -1.6 C 3.51 g/m*3 -1.6 C 0 km/h
664 02-01-2009 12:44:55 -1.5 C 3.54 g/m*3 -1.5 C 0 km/h
665 02-01-2009 12:56:55 -1.3 C 3.59 g/m*3 -1.3 C 0 km/h
666 02-01-2009 13:08:56 -1.1 C 3.64 g/m*3 -1.1 C 0 km/h
667 02-01-2009 13:20:55 -1 C 3.66 g/m*3 -1 C 0 km/h
668 02-01-2009 13:32:55 -0.8 C 3.71 g/m*3 -0.8 C 0 km/h
669 02-01-2009 13:44:55 -0.8 C 3.71 g/m*3 -0.8 C 0 km/h
670 02-01-2009 13:56:55 -0.8 C 3.71 g/m*3 -0.8 C 0 km/h
671 02-01-2009 14:08:55 -0.6 C 3.76 g/m*3 -0.6 C 0 km/h
672 02-01-2009 14:20:55 -0.6 C 3.76 g/m*3 -0.6 C 0 km/h
673 02-01-2009 14:32:54 -0.5 C 3.79 g/m*3 -0.5 C 0 km/h
674 02-01-2009 14:44:55 -0.5 C 3.79 g/m*3 -0.5 C 0 km/h
675 02-01-2009 14:56:55 -0.5 C 3.79 g/m*3 -0.5 C 0 km/h
Sensor: Nr:Datum:Temp:Abs-Feuchte:Windchill:Wind:
Aussen-T/F 676 02-01-2009 15:08:54 -0.5 C 3.79 g/m*3 -0.5 C 0 km/h
677 02-01-2009 15:20:55 -0.5 C 3.79 g/m*3 -0.5 C 0 km/h
678 02-01-2009 15:32:54 -0.5 C 3.79 g/m*3 -0.5 C 0 km/h
679 02-01-2009 15:44:54 -0.5 C 3.79 g/m*3 -0.5 C 0 km/h
680 02-01-2009 15:56:55 -0.5 C 3.84 g/m*3 -0.5 C 0 km/h
681 02-01-2009 16:08:53 -0.5 C 3.84 g/m*3 -0.5 C 0 km/h
682 02-01-2009 16:20:54 -0.6 C 3.81 g/m*3 -0.6 C 0 km/h
683 02-01-2009 16:32:54 -0.6 C 3.86 g/m*3 -0.6 C 0 km/h
684 02-01-2009 16:44:53 -0.6 C 3.86 g/m*3 -0.6 C 0 km/h
685 02-01-2009 16:56:53 -0.6 C 3.9 g/m*3 -0.6 C 0 km/h
686 02-01-2009 17:08:54 -0.6 C 3.9 g/m*3 -0.6 C 0 km/h
687 02-01-2009 17:20:53 -0.4 C 3.96 g/m*3 -0.4 C 0 km/h
688 02-01-2009 17:32:53 -0.5 C 3.93 g/m*3 -0.5 C 0 km/h
689 02-01-2009 17:44:53 -0.5 C 3.93 g/m*3 -0.5 C 0 km/h
690 02-01-2009 17:56:53 -0.5 C 3.93 g/m*3 -0.5 C 0 km/h
691 02-01-2009 18:08:53 -0.6 C 3.9 g/m*3 -0.6 C 0 km/h
692 02-01-2009 18:20:52 -0.4 C 3.96 g/m*3 -0.4 C 0 km/h
693 02-01-2009 18:32:52 -0.6 C 3.9 g/m*3 -0.6 C 0 km/h
694 02-01-2009 18:44:52 -0.4 C 3.96 g/m*3 -0.4 C 0 km/h
695 02-01-2009 18:56:52 -0.4 C 3.96 g/m*3 -0.4 C 0 km/h
696 02-01-2009 19:08:52 -0.6 C 3.9 g/m*3 -0.6 C 0 km/h
697 02-01-2009 19:20:52 -0.6 C 3.9 g/m*3 -0.6 C 0 km/h
698 02-01-2009 19:32:52 -0.4 C 3.96 g/m*3 -0.4 C 0 km/h
699 02-01-2009 19:44:52 -0.5 C 3.98 g/m*3 -0.5 C 0 km/h
700 02-01-2009 19:56:52 -0.6 C 3.95 g/m*3 -0.6 C 0 km/h
Sensor: Nr:Datum:Temp:Abs-Feuchte:Windchill:Wind:
Aussen-T/F 701 02-01-2009 20:08:51 -0.6 C 3.95 g/m*3 -0.6 C 0 km/h
702 02-01-2009 20:20:52 -0.6 C 3.95 g/m*3 -0.6 C 0 km/h
703 02-01-2009 20:32:51 -0.6 C 3.95 g/m*3 -0.6 C 0 km/h
704 02-01-2009 20:44:51 -0.6 C 3.95 g/m*3 -0.6 C 0 km/h
705 02-01-2009 20:56:51 -0.6 C 3.95 g/m*3 -0.6 C 0 km/h
706 02-01-2009 21:08:52 -0.6 C 3.95 g/m*3 -0.6 C 0 km/h
707 02-01-2009 21:20:51 -0.6 C 3.95 g/m*3 -0.6 C 0 km/h
708 02-01-2009 21:32:51 -0.6 C 3.95 g/m*3 -0.6 C 0 km/h
709 02-01-2009 21:44:50 -0.5 C 3.98 g/m*3 -0.5 C 0 km/h
710 02-01-2009 21:56:50 -0.6 C 3.95 g/m*3 -0.6 C 0 km/h
711 02-01-2009 22:08:51 -0.6 C 3.95 g/m*3 -0.6 C 0 km/h
712 02-01-2009 22:20:50 -0.6 C 3.95 g/m*3 -0.6 C 0 km/h
713 02-01-2009 22:33:51 -0.6 C 3.95 g/m*3 -0.6 C 0 km/h
714 02-01-2009 22:45:51 -0.6 C 3.95 g/m*3 -0.6 C 0 km/h
715 02-01-2009 22:57:51 -0.7 C 3.92 g/m*3 -0.7 C 0 km/h
716 02-01-2009 23:09:51 -0.8 C 3.9 g/m*3 -0.8 C 0 km/h
717 02-01-2009 23:21:51 -0.8 C 3.9 g/m*3 -0.8 C 0 km/h
718 02-01-2009 23:33:51 -0.8 C 3.9 g/m*3 -0.8 C 0 km/h
719 02-01-2009 23:45:51 -0.7 C 3.92 g/m*3 -0.7 C 0 km/h
720 02-01-2009 23:57:51 -0.7 C 3.92 g/m*3 -0.7 C 0 km/h
721 03-01-2009 00:09:51 -0.7 C 3.92 g/m*3 -0.7 C 0 km/h
722 03-01-2009 00:21:51 -0.6 C 3.95 g/m*3 -0.6 C 0 km/h
723 03-01-2009 00:33:51 -0.7 C 3.92 g/m*3 -0.7 C 0 km/h
724 03-01-2009 00:45:51 -0.7 C 3.88 g/m*3 -0.7 C 0 km/h
725 03-01-2009 00:57:51 -0.8 C 3.67 g/m*3 -0.8 C 0 km/h
Sensor: Nr:Datum:Temp:Abs-Feuchte:Windchill:Wind:
Aussen-T/F 726 03-01-2009 01:09:51 -1.2 C 3.43 g/m*3 -1.2 C 0 km/h
727 03-01-2009 01:21:51 -1.7 C 3.31 g/m*3 -1.7 C 0 km/h
728 03-01-2009 01:33:51 -2.1 C 3.26 g/m*3 -2.1 C 0 km/h
729 03-01-2009 01:45:51 -2.5 C 3.21 g/m*3 -2.5 C 0 km/h
730 03-01-2009 01:57:51 -2.9 C 3.16 g/m*3 -2.9 C 0 km/h
731 03-01-2009 02:09:51 -3.1 C 3.12 g/m*3 -3.1 C 0 km/h
732 03-01-2009 02:21:51 -3.2 C 3.14 g/m*3 -3.2 C 0 km/h
733 03-01-2009 02:33:52 -3.1 C 3.2 g/m*3 -3.1 C 0 km/h
734 03-01-2009 02:45:52 -2.7 C 3.29 g/m*3 -2.7 C 0 km/h
735 03-01-2009 02:57:52 -2.6 C 3.31 g/m*3 -2.6 C 0 km/h
736 03-01-2009 03:09:52 -2.5 C 3.34 g/m*3 -2.5 C 0 km/h
737 03-01-2009 03:21:52 -2.4 C 3.36 g/m*3 -2.4 C 0 km/h
738 03-01-2009 03:33:52 -2.3 C 3.38 g/m*3 -2.3 C 0 km/h
739 03-01-2009 03:45:52 -2.2 C 3.41 g/m*3 -2.2 C 0 km/h
740 03-01-2009 03:57:52 -2.1 C 3.39 g/m*3 -2.1 C 0 km/h
741 03-01-2009 04:09:52 -2.2 C 3.28 g/m*3 -2.2 C 0 km/h
742 03-01-2009 04:21:52 -2.5 C 3.17 g/m*3 -2.5 C 0 km/h
743 03-01-2009 04:33:52 -2.9 C 3.05 g/m*3 -2.9 C 0 km/h
744 03-01-2009 04:45:52 -3 C 3.06 g/m*3 -3 C 0 km/h
745 03-01-2009 04:57:52 -3 C 3.02 g/m*3 -3 C 0 km/h
746 03-01-2009 05:09:52 -2.8 C 3.07 g/m*3 -2.8 C 0 km/h
747 03-01-2009 05:21:52 -2.7 C 3.09 g/m*3 -2.7 C 0 km/h
748 03-01-2009 05:33:52 -2.6 C 3.11 g/m*3 -2.6 C 0 km/h
749 03-01-2009 05:45:52 -2.6 C 3.11 g/m*3 -2.6 C 0 km/h
750 03-01-2009 05:57:52 -2.6 C 3.07 g/m*3 -2.6 C 0 km/h
Sensor: Nr:Datum:Temp:Abs-Feuchte:Windchill:Wind:
Aussen-T/F 751 03-01-2009 06:09:52 -2.6 C 3.11 g/m*3 -2.6 C 0 km/h
752 03-01-2009 06:21:52 -2.6 C 3.11 g/m*3 -2.6 C 0 km/h
753 03-01-2009 06:33:52 -2.6 C 3.11 g/m*3 -2.6 C 0 km/h
754 03-01-2009 06:45:53 -2.6 C 3.11 g/m*3 -2.6 C 0 km/h
755 03-01-2009 06:57:53 -2.6 C 3.11 g/m*3 -2.6 C 0 km/h
756 03-01-2009 07:09:53 -2.8 C 2.99 g/m*3 -2.8 C 0 km/h
757 03-01-2009 07:21:53 -2.9 C 2.97 g/m*3 -2.9 C 0 km/h
758 03-01-2009 07:33:53 -3 C 2.91 g/m*3 -3 C 0 km/h
759 03-01-2009 07:45:53 -3.4 C 2.83 g/m*3 -3.4 C 0 km/h
760 03-01-2009 07:57:53 -3.9 C 2.73 g/m*3 -3.9 C 0 km/h
761 03-01-2009 08:09:53 -4 C 2.74 g/m*3 -4 C 0 km/h
762 03-01-2009 08:21:53 -4 C 2.78 g/m*3 -4 C 0 km/h
763 03-01-2009 08:33:53 -4 C 2.78 g/m*3 -4 C 0 km/h
764 03-01-2009 08:45:53 -4.2 C 2.74 g/m*3 -4.2 C 0 km/h
765 03-01-2009 08:57:53 -4.4 C 2.7 g/m*3 -4.4 C 0 km/h
766 03-01-2009 09:09:51 -4.7 C 2.64 g/m*3 -4.7 C 0 km/h
767 03-01-2009 09:21:50 -4.7 C 2.68 g/m*3 -4.7 C 0 km/h
768 03-01-2009 09:33:50 -4.7 C 2.68 g/m*3 -4.7 C 0 km/h
769 03-01-2009 09:45:50 -4.7 C 2.68 g/m*3 -4.7 C 0 km/h
770 03-01-2009 09:57:50 -4.7 C 2.71 g/m*3 -4.7 C 0 km/h
771 03-01-2009 10:09:50 -4.7 C 2.71 g/m*3 -4.7 C 0 km/h
772 03-01-2009 10:21:50 -4.7 C 2.71 g/m*3 -4.7 C 0 km/h
773 03-01-2009 10:33:50 -4.6 C 2.73 g/m*3 -4.6 C 0 km/h
774 03-01-2009 10:45:50 -4.6 C 2.73 g/m*3 -4.6 C 0 km/h
775 03-01-2009 10:57:50 -4.6 C 2.73 g/m*3 -4.6 C 0 km/h
Sensor: Nr:Datum:Temp:Abs-Feuchte:Windchill:Wind:
Aussen-T/F 776 03-01-2009 11:09:49 -4.5 C 2.75 g/m*3 -4.5 C 0 km/h
777 03-01-2009 11:21:50 -4.4 C 2.77 g/m*3 -4.4 C 0 km/h
778 03-01-2009 11:33:49 -4.4 C 2.77 g/m*3 -4.4 C 0 km/h
779 03-01-2009 11:45:49 -4.3 C 2.79 g/m*3 -4.3 C 0 km/h
780 03-01-2009 11:57:50 -4.2 C 2.81 g/m*3 -4.2 C 0 km/h
781 03-01-2009 12:09:48 -4.2 C 2.81 g/m*3 -4.2 C 0 km/h
782 03-01-2009 12:21:49 -4.1 C 2.8 g/m*3 -4.1 C 0 km/h
783 03-01-2009 12:33:49 -4.1 C 2.8 g/m*3 -4.1 C 0 km/h
784 03-01-2009 12:45:48 -3.9 C 2.84 g/m*3 -3.9 C 0 km/h
785 03-01-2009 12:57:48 -3.8 C 2.86 g/m*3 -3.8 C 0 km/h
786 03-01-2009 13:09:49 -3.8 C 2.86 g/m*3 -3.8 C 0 km/h
787 03-01-2009 13:21:48 -3.7 C 2.88 g/m*3 -3.7 C 0 km/h
788 03-01-2009 13:33:48 -3.6 C 2.9 g/m*3 -3.6 C 0 km/h
789 03-01-2009 13:45:48 -3.5 C 2.92 g/m*3 -3.5 C 0 km/h
790 03-01-2009 13:57:48 -3.4 C 2.9 g/m*3 -3.4 C 0 km/h
791 03-01-2009 14:09:48 -3.4 C 2.9 g/m*3 -3.4 C 0 km/h
792 03-01-2009 14:21:47 -3.4 C 2.9 g/m*3 -3.4 C 0 km/h
793 03-01-2009 14:33:47 -3.3 C 2.92 g/m*3 -3.3 C 0 km/h
794 03-01-2009 14:45:47 -3.3 C 2.92 g/m*3 -3.3 C 0 km/h
795 03-01-2009 14:57:47 -3.2 C 2.94 g/m*3 -3.2 C 0 km/h
796 03-01-2009 15:09:47 -3.3 C 2.92 g/m*3 -3.3 C 0 km/h
797 03-01-2009 15:21:47 -3.3 C 2.92 g/m*3 -3.3 C 0 km/h
798 03-01-2009 15:33:47 -3.3 C 2.92 g/m*3 -3.3 C 0 km/h
799 03-01-2009 15:45:47 -3.3 C 2.92 g/m*3 -3.3 C 0 km/h
800 03-01-2009 15:57:47 -3.4 C 2.86 g/m*3 -3.4 C 0 km/h
Sensor: Nr:Datum:Temp:Abs-Feuchte:Windchill:Wind:
Aussen-T/F 801 03-01-2009 16:09:46 -3.4 C 2.86 g/m*3 -3.4 C 0 km/h
802 03-01-2009 16:21:47 -3.5 C 2.84 g/m*3 -3.5 C 0 km/h
803 03-01-2009 16:33:46 -3.6 C 2.82 g/m*3 -3.6 C 0 km/h
804 03-01-2009 16:45:46 -3.6 C 2.86 g/m*3 -3.6 C 0 km/h
805 03-01-2009 16:57:46 -3.8 C 2.82 g/m*3 -3.8 C 0 km/h
806 03-01-2009 17:09:46 -4 C 2.78 g/m*3 -4 C 0 km/h
807 03-01-2009 17:21:46 -4.3 C 2.72 g/m*3 -4.3 C 0 km/h
808 03-01-2009 17:33:46 -4.3 C 2.79 g/m*3 -4.3 C 0 km/h
809 03-01-2009 17:45:46 -4.5 C 2.75 g/m*3 -4.5 C 0 km/h
810 03-01-2009 17:57:46 -4.4 C 2.81 g/m*3 -4.4 C 0 km/h
811 03-01-2009 18:09:46 -4.6 C 2.77 g/m*3 -4.6 C 0 km/h
812 03-01-2009 18:21:45 -4.7 C 2.75 g/m*3 -4.7 C 0 km/h
813 03-01-2009 18:33:45 -4.7 C 2.78 g/m*3 -4.7 C 0 km/h
814 03-01-2009 18:45:45 -4.8 C 2.8 g/m*3 -4.8 C 0 km/h
815 03-01-2009 18:57:45 -4.6 C 2.84 g/m*3 -4.6 C 0 km/h
816 03-01-2009 19:09:45 -4.6 C 2.87 g/m*3 -4.6 C 0 km/h
817 03-01-2009 19:21:44 -4.6 C 2.87 g/m*3 -4.6 C 0 km/h
818 03-01-2009 19:33:45 -4.9 C 2.78 g/m*3 -4.9 C 0 km/h
819 03-01-2009 19:45:45 -5.2 C 2.72 g/m*3 -5.2 C 0 km/h
820 03-01-2009 19:57:45 -5.1 C 2.77 g/m*3 -5.1 C 0 km/h
821 03-01-2009 20:09:44 -5 C 2.83 g/m*3 -5 C 0 km/h
822 03-01-2009 20:21:45 -5.2 C 2.79 g/m*3 -5.2 C 0 km/h
823 03-01-2009 20:33:44 -5.2 C 2.79 g/m*3 -5.2 C 0 km/h
824 03-01-2009 20:45:44 -5 C 2.86 g/m*3 -5 C 0 km/h
825 03-01-2009 20:57:44 -4.6 C 2.98 g/m*3 -4.6 C 0 km/h
Sensor: Nr:Datum:Temp:Abs-Feuchte:Windchill:Wind:
Aussen-T/F 826 03-01-2009 21:09:43 -4.3 C 3.01 g/m*3 -4.3 C 0 km/h
827 03-01-2009 21:21:44 -4.2 C 2.99 g/m*3 -4.2 C 0 km/h
828 03-01-2009 21:33:44 -4.2 C 2.92 g/m*3 -4.2 C 0 km/h
829 03-01-2009 21:45:43 -4.2 C 2.92 g/m*3 -4.2 C 0 km/h
830 03-01-2009 21:57:43 -4.1 C 2.91 g/m*3 -4.1 C 0 km/h
831 03-01-2009 22:09:44 -4.1 C 2.91 g/m*3 -4.1 C 0 km/h
832 03-01-2009 22:21:43 -4 C 2.89 g/m*3 -4 C 0 km/h
833 03-01-2009 22:33:43 -4 C 2.89 g/m*3 -4 C 0 km/h
834 03-01-2009 22:46:44 -4 C 2.89 g/m*3 -4 C 0 km/h
835 03-01-2009 22:58:44 -4 C 2.89 g/m*3 -4 C 0 km/h
836 03-01-2009 23:10:44 -3.9 C 2.91 g/m*3 -3.9 C 0 km/h
837 03-01-2009 23:22:44 -3.9 C 2.91 g/m*3 -3.9 C 0 km/h
838 03-01-2009 23:34:44 -3.8 C 2.89 g/m*3 -3.8 C 0 km/h
839 03-01-2009 23:46:44 -3.6 C 2.9 g/m*3 -3.6 C 0 km/h
840 03-01-2009 23:58:44 -3.5 C 2.88 g/m*3 -3.5 C 0 km/h
841 04-01-2009 00:10:44 -3.5 C 2.84 g/m*3 -3.5 C 0 km/h
842 04-01-2009 00:22:44 -3.4 C 2.86 g/m*3 -3.4 C 0 km/h
843 04-01-2009 00:34:45 -3.4 C 2.86 g/m*3 -3.4 C 0 km/h
844 04-01-2009 00:46:45 -3.4 C 2.86 g/m*3 -3.4 C 0 km/h
845 04-01-2009 00:58:45 -3.4 C 2.83 g/m*3 -3.4 C 0 km/h
846 04-01-2009 01:10:45 -3.4 C 2.83 g/m*3 -3.4 C 0 km/h
847 04-01-2009 01:22:45 -3.3 C 2.85 g/m*3 -3.3 C 0 km/h
848 04-01-2009 01:34:45 -3.3 C 2.81 g/m*3 -3.3 C 0 km/h
849 04-01-2009 01:46:45 -3.3 C 2.77 g/m*3 -3.3 C 0 km/h
850 04-01-2009 01:58:45 -3.3 C 2.77 g/m*3 -3.3 C 0 km/h
Sensor: Nr:Datum:Temp:Abs-Feuchte:Windchill:Wind:
Aussen-T/F 851 04-01-2009 02:10:45 -3.2 C 2.79 g/m*3 -3.2 C 0 km/h
852 04-01-2009 02:22:45 -3.1 C 2.77 g/m*3 -3.1 C 0 km/h
853 04-01-2009 02:34:45 -3.1 C 2.77 g/m*3 -3.1 C 0 km/h
854 04-01-2009 02:46:45 -3.1 C 2.77 g/m*3 -3.1 C 0 km/h
855 04-01-2009 02:58:45 -3.1 C 2.81 g/m*3 -3.1 C 0 km/h
856 04-01-2009 03:10:45 -3.1 C 2.81 g/m*3 -3.1 C 0 km/h
857 04-01-2009 03:22:45 -3 C 2.79 g/m*3 -3 C 0 km/h
858 04-01-2009 03:34:45 -3 C 2.79 g/m*3 -3 C 0 km/h
859 04-01-2009 03:46:45 -3 C 2.79 g/m*3 -3 C 0 km/h
860 04-01-2009 03:58:45 -3 C 2.79 g/m*3 -3 C 0 km/h
861 04-01-2009 04:10:45 -2.9 C 2.81 g/m*3 -2.9 C 0 km/h
862 04-01-2009 04:22:45 -2.8 C 2.83 g/m*3 -2.8 C 0 km/h
863 04-01-2009 04:34:46 -2.7 C 2.85 g/m*3 -2.7 C 0 km/h
864 04-01-2009 04:46:46 -2.8 C 2.83 g/m*3 -2.8 C 0 km/h
865 04-01-2009 04:58:46 -2.7 C 2.85 g/m*3 -2.7 C 0 km/h
866 04-01-2009 05:10:46 -2.6 C 2.83 g/m*3 -2.6 C 0 km/h
867 04-01-2009 05:22:46 -2.6 C 2.83 g/m*3 -2.6 C 0 km/h
868 04-01-2009 05:34:46 -2.5 C 2.85 g/m*3 -2.5 C 0 km/h
869 04-01-2009 05:46:46 -2.4 C 2.83 g/m*3 -2.4 C 0 km/h
870 04-01-2009 05:58:46 -2.4 C 2.83 g/m*3 -2.4 C 0 km/h
871 04-01-2009 06:10:46 -2.3 C 2.85 g/m*3 -2.3 C 0 km/h
872 04-01-2009 06:22:46 -2.3 C 2.85 g/m*3 -2.3 C 0 km/h
873 04-01-2009 06:34:46 -2.3 C 2.85 g/m*3 -2.3 C 0 km/h
874 04-01-2009 06:46:46 -2.3 C 2.89 g/m*3 -2.3 C 0 km/h
875 04-01-2009 06:58:46 -2.2 C 2.87 g/m*3 -2.2 C 0 km/h
Sensor: Nr:Datum:Temp:Abs-Feuchte:Windchill:Wind:
Aussen-T/F 876 04-01-2009 07:10:46 -2.2 C 2.87 g/m*3 -2.2 C 0 km/h
877 04-01-2009 07:22:46 -2.1 C 2.89 g/m*3 -2.1 C 0 km/h
878 04-01-2009 07:34:44 -2.1 C 2.89 g/m*3 -2.1 C 0 km/h
879 04-01-2009 07:46:44 -2 C 2.91 g/m*3 -2 C 0 km/h
880 04-01-2009 07:58:44 -1.9 C 2.89 g/m*3 -1.9 C 0 km/h
881 04-01-2009 08:10:44 -1.8 C 2.95 g/m*3 -1.8 C 0 km/h
882 04-01-2009 08:22:43 -1.7 C 2.97 g/m*3 -1.7 C 0 km/h
883 04-01-2009 08:34:44 -1.6 C 2.95 g/m*3 -1.6 C 0 km/h
884 04-01-2009 08:46:43 -1.5 C 2.92 g/m*3 -1.5 C 0 km/h
885 04-01-2009 08:58:43 -1.5 C 2.92 g/m*3 -1.5 C 0 km/h
886 04-01-2009 09:10:43 -1.4 C 2.95 g/m*3 -1.4 C 0 km/h
887 04-01-2009 09:22:43 -1.4 C 2.95 g/m*3 -1.4 C 0 km/h
888 04-01-2009 09:34:43 -1.3 C 2.97 g/m*3 -1.3 C 0 km/h
889 04-01-2009 09:46:43 -1.2 C 2.99 g/m*3 -1.2 C 0 km/h
890 04-01-2009 09:58:43 -1.1 C 2.96 g/m*3 -1.1 C 0 km/h
891 04-01-2009 10:10:43 -1 C 2.98 g/m*3 -1 C 0 km/h
892 04-01-2009 10:22:42 -1 C 2.98 g/m*3 -1 C 0 km/h
893 04-01-2009 10:34:42 -0.9 C 3 g/m*3 -0.9 C 0 km/h
894 04-01-2009 10:46:42 -0.4 C 3.11 g/m*3 -0.4 C 0 km/h
895 04-01-2009 10:58:42 -0.4 C 3.06 g/m*3 -0.4 C 0 km/h
896 04-01-2009 11:10:42 -0.3 C 3.08 g/m*3 -0.3 C 0 km/h
897 04-01-2009 11:22:41 -0.2 C 3.11 g/m*3 -0.2 C 0 km/h
898 04-01-2009 11:34:42 -0.2 C 3.06 g/m*3 -0.2 C 0 km/h
899 04-01-2009 11:46:42 -0.2 C 3.06 g/m*3 -0.2 C 0 km/h
900 04-01-2009 11:58:42 -0.1 C 3.08 g/m*3 -0.1 C 0 km/h
Sensor: Nr:Datum:Temp:Abs-Feuchte:Windchill:Wind:
Aussen-T/F 901 04-01-2009 12:10:41 -0.1 C 3.08 g/m*3 -0.1 C 0 km/h
902 04-01-2009 12:22:42 -0.1 C 3.13 g/m*3 -0.1 C 0 km/h
903 04-01-2009 12:34:41 0 C 3.1 g/m*3 0 C 0 km/h
904 04-01-2009 12:46:41 0 C 3.1 g/m*3 0 C 0 km/h
905 04-01-2009 12:58:41 0.1 C 3.12 g/m*3 0.1 C 0 km/h
906 04-01-2009 13:10:41 0.3 C 3.12 g/m*3 0.3 C 0 km/h
907 04-01-2009 13:22:41 0.5 C 3.11 g/m*3 0.5 C 0 km/h
908 04-01-2009 13:34:41 0.8 C 3.02 g/m*3 0.8 C 0 km/h
909 04-01-2009 13:46:41 0.9 C 2.94 g/m*3 0.9 C 0 km/h
910 04-01-2009 13:58:41 0.9 C 2.99 g/m*3 0.9 C 0 km/h
911 04-01-2009 14:10:41 0.8 C 2.92 g/m*3 0.8 C 0 km/h
912 04-01-2009 14:22:40 0.6 C 2.93 g/m*3 0.6 C 0 km/h
913 04-01-2009 14:34:40 0.6 C 2.98 g/m*3 0.6 C 0 km/h
914 04-01-2009 14:46:40 0.5 C 2.96 g/m*3 0.5 C 0 km/h
915 04-01-2009 14:58:40 0.5 C 2.91 g/m*3 0.5 C 0 km/h
916 04-01-2009 15:10:40 0.5 C 2.91 g/m*3 0.5 C 0 km/h
917 04-01-2009 15:22:39 0.4 C 2.89 g/m*3 0.4 C 0 km/h
918 04-01-2009 15:34:40 0.4 C 2.89 g/m*3 0.4 C 0 km/h
919 04-01-2009 15:46:39 0.3 C 2.92 g/m*3 0.3 C 0 km/h
920 04-01-2009 15:58:39 0.3 C 2.87 g/m*3 0.3 C 0 km/h
921 04-01-2009 16:10:39 0.2 C 2.9 g/m*3 0.2 C 0 km/h
922 04-01-2009 16:22:39 0.2 C 2.95 g/m*3 0.2 C 0 km/h
923 04-01-2009 16:34:39 0.1 C 2.93 g/m*3 0.1 C 0 km/h
924 04-01-2009 16:46:39 0 C 2.96 g/m*3 0 C 0 km/h
925 04-01-2009 16:58:39 0 C 2.96 g/m*3 0 C 0 km/h
Sensor: Nr:Datum:Temp:Abs-Feuchte:Windchill:Wind:
Aussen-T/F 926 04-01-2009 17:10:39 0 C 2.91 g/m*3 0 C 0 km/h
927 04-01-2009 17:22:39 0.1 C 2.93 g/m*3 0.1 C 0 km/h
928 04-01-2009 17:34:38 0 C 2.91 g/m*3 0 C 0 km/h
929 04-01-2009 17:46:39 0 C 2.96 g/m*3 0 C 0 km/h
930 04-01-2009 17:58:39 -0.1 C 2.98 g/m*3 -0.1 C 0 km/h
931 04-01-2009 18:10:38 -0.2 C 3.01 g/m*3 -0.2 C 0 km/h
932 04-01-2009 18:22:38 -0.2 C 3.01 g/m*3 -0.2 C 0 km/h
933 04-01-2009 18:34:38 -0.2 C 3.01 g/m*3 -0.2 C 0 km/h
934 04-01-2009 18:46:37 -0.2 C 3.01 g/m*3 -0.2 C 0 km/h
935 04-01-2009 18:58:37 -0.1 C 3.03 g/m*3 -0.1 C 0 km/h
936 04-01-2009 19:10:38 0.1 C 3.02 g/m*3 0.1 C 0 km/h
937 04-01-2009 19:22:37 0.1 C 3.02 g/m*3 0.1 C 0 km/h
938 04-01-2009 19:34:37 0.1 C 3.02 g/m*3 0.1 C 0 km/h
939 04-01-2009 19:46:37 0 C 3.05 g/m*3 0 C 0 km/h
940 04-01-2009 19:58:37 0 C 3.05 g/m*3 0 C 0 km/h
941 04-01-2009 20:10:37 0 C 3.05 g/m*3 0 C 0 km/h
942 04-01-2009 20:22:37 0 C 3.05 g/m*3 0 C 0 km/h
943 04-01-2009 20:34:36 0 C 3.05 g/m*3 0 C 0 km/h
944 04-01-2009 20:46:37 -0.1 C 3.03 g/m*3 -0.1 C 0 km/h
945 04-01-2009 20:58:37 -0.1 C 3.03 g/m*3 -0.1 C 0 km/h
946 04-01-2009 21:10:37 -0.1 C 3.08 g/m*3 -0.1 C 0 km/h
947 04-01-2009 21:22:36 -0.1 C 3.03 g/m*3 -0.1 C 0 km/h
948 04-01-2009 21:34:36 -0.1 C 3.08 g/m*3 -0.1 C 0 km/h
949 04-01-2009 21:46:36 -0.2 C 3.01 g/m*3 -0.2 C 0 km/h
950 04-01-2009 21:58:36 -0.2 C 3.01 g/m*3 -0.2 C 0 km/h
Sensor: Nr:Datum:Temp:Abs-Feuchte:Windchill:Wind:
Aussen-T/F 951 04-01-2009 22:10:36 -0.2 C 3.01 g/m*3 -0.2 C 0 km/h
952 04-01-2009 22:22:35 -0.2 C 3.01 g/m*3 -0.2 C 0 km/h
953 04-01-2009 22:34:36 -0.2 C 3.06 g/m*3 -0.2 C 0 km/h
954 04-01-2009 22:46:35 -0.2 C 3.06 g/m*3 -0.2 C 0 km/h
955 04-01-2009 22:58:35 -0.2 C 3.06 g/m*3 -0.2 C 0 km/h
956 04-01-2009 23:10:35 -0.3 C 3.18 g/m*3 -0.3 C 0 km/h
957 04-01-2009 23:22:36 -0.4 C 3.25 g/m*3 -0.4 C 0 km/h
958 04-01-2009 23:34:35 -0.5 C 3.28 g/m*3 -0.5 C 0 km/h
959 04-01-2009 23:46:35 -0.7 C 3.28 g/m*3 -0.7 C 0 km/h
960 04-01-2009 23:58:35 -0.8 C 3.3 g/m*3 -0.8 C 0 km/h
961 05-01-2009 00:10:34 -0.8 C 3.3 g/m*3 -0.8 C 0 km/h
962 05-01-2009 00:22:35 -0.9 C 3.37 g/m*3 -0.9 C 0 km/h
963 05-01-2009 00:34:35 -0.9 C 3.41 g/m*3 -0.9 C 0 km/h
964 05-01-2009 00:46:34 -1 C 3.39 g/m*3 -1 C 0 km/h
965 05-01-2009 00:58:34 -1.1 C 3.41 g/m*3 -1.1 C 0 km/h
966 05-01-2009 01:10:35 -1.1 C 3.46 g/m*3 -1.1 C 0 km/h
967 05-01-2009 01:22:34 -1.1 C 3.46 g/m*3 -1.1 C 0 km/h
968 05-01-2009 01:34:34 -1.2 C 3.48 g/m*3 -1.2 C 0 km/h
969 05-01-2009 01:46:33 -1.2 C 3.52 g/m*3 -1.2 C 0 km/h
970 05-01-2009 01:58:33 -1.3 C 3.54 g/m*3 -1.3 C 0 km/h
971 05-01-2009 02:10:34 -1.3 C 3.54 g/m*3 -1.3 C 0 km/h
972 05-01-2009 02:22:33 -1.2 C 3.57 g/m*3 -1.2 C 0 km/h
973 05-01-2009 02:34:33 -1.3 C 3.54 g/m*3 -1.3 C 0 km/h
974 05-01-2009 02:47:34 -1.2 C 3.57 g/m*3 -1.2 C 0 km/h
975 05-01-2009 02:59:34 -1.2 C 3.52 g/m*3 -1.2 C 0 km/h
Sensor: Nr:Datum:Temp:Abs-Feuchte:Windchill:Wind:
Aussen-T/F 976 05-01-2009 03:11:34 -1.2 C 3.57 g/m*3 -1.2 C 0 km/h
977 05-01-2009 03:23:34 -1.3 C 3.63 g/m*3 -1.3 C 0 km/h
978 05-01-2009 03:35:34 -1.3 C 3.63 g/m*3 -1.3 C 0 km/h
979 05-01-2009 03:47:34 -1.4 C 3.65 g/m*3 -1.4 C 0 km/h
980 05-01-2009 03:59:34 -1.5 C 3.67 g/m*3 -1.5 C 0 km/h
981 05-01-2009 04:11:34 -1.5 C 3.67 g/m*3 -1.5 C 0 km/h
982 05-01-2009 04:23:33 -1.6 C 3.68 g/m*3 -1.6 C 0 km/h
983 05-01-2009 04:35:34 -1.6 C 3.68 g/m*3 -1.6 C 0 km/h
984 05-01-2009 04:47:34 -1.6 C 3.73 g/m*3 -1.6 C 0 km/h
985 05-01-2009 04:59:34 -1.6 C 3.73 g/m*3 -1.6 C 0 km/h
986 05-01-2009 05:11:33 -1.6 C 3.73 g/m*3 -1.6 C 0 km/h
987 05-01-2009 05:23:33 -1.6 C 3.73 g/m*3 -1.6 C 0 km/h
988 05-01-2009 05:35:34 -1.6 C 3.77 g/m*3 -1.6 C 0 km/h
989 05-01-2009 05:47:33 -1.7 C 3.75 g/m*3 -1.7 C 0 km/h
990 05-01-2009 05:59:33 -1.7 C 3.75 g/m*3 -1.7 C 0 km/h
991 05-01-2009 06:11:33 -1.7 C 3.75 g/m*3 -1.7 C 0 km/h
992 05-01-2009 06:23:33 -1.6 C 3.77 g/m*3 -1.6 C 0 km/h
993 05-01-2009 06:35:32 -1.7 C 3.75 g/m*3 -1.7 C 0 km/h
994 05-01-2009 06:47:33 -1.6 C 3.77 g/m*3 -1.6 C 0 km/h
995 05-01-2009 06:59:34 -1.6 C 3.77 g/m*3 -1.6 C 0 km/h
996 05-01-2009 07:11:32 -1.7 C 3.75 g/m*3 -1.7 C 0 km/h
997 05-01-2009 07:23:32 -1.6 C 3.77 g/m*3 -1.6 C 0 km/h
998 05-01-2009 07:35:32 -1.7 C 3.75 g/m*3 -1.7 C 0 km/h
999 05-01-2009 07:47:32 -1.7 C 3.75 g/m*3 -1.7 C 0 km/h
1000 05-01-2009 07:59:32 -1.7 C 3.79 g/m*3 -1.7 C 0 km/h
Sensor: Nr:Datum:Temp:Abs-Feuchte:Windchill:Wind:
Aussen-T/F 1001 05-01-2009 08:11:32 -1.7 C 3.79 g/m*3 -1.7 C 0 km/h
1002 05-01-2009 08:23:31 -1.7 C 3.79 g/m*3 -1.7 C 0 km/h
1003 05-01-2009 08:35:32 -1.7 C 3.75 g/m*3 -1.7 C 0 km/h
1004 05-01-2009 08:47:31 -1.7 C 3.79 g/m*3 -1.7 C 0 km/h
1005 05-01-2009 08:59:31 -1.7 C 3.79 g/m*3 -1.7 C 0 km/h
1006 05-01-2009 09:11:32 -1.6 C 3.81 g/m*3 -1.6 C 0 km/h
1007 05-01-2009 09:23:31 -1.6 C 3.81 g/m*3 -1.6 C 0 km/h
1008 05-01-2009 09:35:31 -1.5 C 3.84 g/m*3 -1.5 C 0 km/h
1009 05-01-2009 09:47:31 -1.4 C 3.87 g/m*3 -1.4 C 0 km/h
1010 05-01-2009 09:59:31 -1.3 C 3.85 g/m*3 -1.3 C 0 km/h
1011 05-01-2009 10:11:31 -1.2 C 3.83 g/m*3 -1.2 C 0 km/h
1012 05-01-2009 10:23:30 -1 C 3.89 g/m*3 -1 C 0 km/h
1013 05-01-2009 10:35:31 -1 C 3.84 g/m*3 -1 C 0 km/h
1014 05-01-2009 10:47:30 -1 C 3.8 g/m*3 -1 C 0 km/h
1015 05-01-2009 10:59:30 -0.9 C 3.78 g/m*3 -0.9 C 0 km/h
1016 05-01-2009 11:11:30 -0.8 C 3.8 g/m*3 -0.8 C 0 km/h
1017 05-01-2009 11:23:30 -0.9 C 3.73 g/m*3 -0.9 C 0 km/h
1018 05-01-2009 11:35:30 -0.9 C 3.69 g/m*3 -0.9 C 0 km/h
1019 05-01-2009 11:47:29 -0.6 C 3.76 g/m*3 -0.6 C 0 km/h
1020 05-01-2009 11:59:29 -0.3 C 3.84 g/m*3 -0.3 C 0 km/h
1021 05-01-2009 12:11:29 -0.3 C 3.8 g/m*3 -0.3 C 0 km/h
1022 05-01-2009 12:23:30 -0.2 C 3.82 g/m*3 -0.2 C 0 km/h
1023 05-01-2009 12:35:29 -0.1 C 3.85 g/m*3 -0.1 C 0 km/h
1024 05-01-2009 12:47:29 0.2 C 3.93 g/m*3 0.2 C 0 km/h
1025 05-01-2009 12:59:29 0.3 C 3.96 g/m*3 0.3 C 0 km/h
Sensor: Nr:Datum:Temp:Abs-Feuchte:Windchill:Wind:
Aussen-T/F 1026 05-01-2009 13:11:29 0.4 C 3.98 g/m*3 0.4 C 0 km/h
1027 05-01-2009 13:23:29 0.5 C 4.01 g/m*3 0.5 C 0 km/h
1028 05-01-2009 13:35:28 0.3 C 3.91 g/m*3 0.3 C 0 km/h
1029 05-01-2009 13:47:29 0.1 C 3.66 g/m*3 0.1 C 0 km/h
1030 05-01-2009 13:59:30 0 C 3.44 g/m*3 0 C 0 km/h
1031 05-01-2009 14:11:28 0 C 3.39 g/m*3 0 C 0 km/h
1032 05-01-2009 14:23:28 0.1 C 3.32 g/m*3 0.1 C 0 km/h
1033 05-01-2009 14:35:28 0.1 C 3.22 g/m*3 0.1 C 0 km/h
1034 05-01-2009 14:47:28 0.2 C 3.19 g/m*3 0.2 C 0 km/h
1035 05-01-2009 14:59:28 0.2 C 3.19 g/m*3 0.2 C 0 km/h
1036 05-01-2009 15:11:28 0.1 C 3.07 g/m*3 0.1 C 0 km/h
1037 05-01-2009 15:23:27 -0.1 C 2.94 g/m*3 -0.1 C 0 km/h
1038 05-01-2009 15:35:28 -0.2 C 2.91 g/m*3 -0.2 C 0 km/h
1039 05-01-2009 15:47:27 -0.3 C 2.94 g/m*3 -0.3 C 0 km/h
1040 05-01-2009 15:59:27 -0.5 C 2.95 g/m*3 -0.5 C 0 km/h
1041 05-01-2009 16:11:27 -0.8 C 2.75 g/m*3 -0.8 C 0 km/h
1042 05-01-2009 16:23:27 -1 C 2.76 g/m*3 -1 C 0 km/h
1043 05-01-2009 16:35:27 -1.2 C 2.76 g/m*3 -1.2 C 0 km/h
1044 05-01-2009 16:47:26 -1.3 C 2.79 g/m*3 -1.3 C 0 km/h
1045 05-01-2009 16:59:26 -1.3 C 2.83 g/m*3 -1.3 C 0 km/h
1046 05-01-2009 17:11:27 -1.2 C 2.9 g/m*3 -1.2 C 0 km/h
1047 05-01-2009 17:23:27 -1.2 C 2.9 g/m*3 -1.2 C 0 km/h
1048 05-01-2009 17:35:26 -1.2 C 2.85 g/m*3 -1.2 C 0 km/h
1049 05-01-2009 17:47:27 -1.3 C 2.83 g/m*3 -1.3 C 0 km/h
1050 05-01-2009 17:59:27 -1.3 C 2.79 g/m*3 -1.3 C 0 km/h
Sensor: Nr:Datum:Temp:Abs-Feuchte:Windchill:Wind:
Aussen-T/F 1051 05-01-2009 18:11:26 -1.4 C 2.77 g/m*3 -1.4 C 0 km/h
1052 05-01-2009 18:23:26 -1.5 C 2.75 g/m*3 -1.5 C 0 km/h
1053 05-01-2009 18:35:25 -1.5 C 2.71 g/m*3 -1.5 C 0 km/h
1054 05-01-2009 18:47:26 -1.5 C 2.66 g/m*3 -1.5 C 0 km/h
1055 05-01-2009 18:59:26 -1.5 C 2.58 g/m*3 -1.5 C 0 km/h
1056 05-01-2009 19:11:25 -1.5 C 2.49 g/m*3 -1.5 C 0 km/h
1057 05-01-2009 19:23:25 -1.6 C 2.47 g/m*3 -1.6 C 0 km/h
1058 05-01-2009 19:35:26 -1.5 C 2.44 g/m*3 -1.5 C 0 km/h
1059 05-01-2009 19:47:25 -1.5 C 2.44 g/m*3 -1.5 C 0 km/h
1060 05-01-2009 19:59:25 -1.6 C 2.47 g/m*3 -1.6 C 0 km/h
1061 05-01-2009 20:11:25 -1.6 C 2.51 g/m*3 -1.6 C 0 km/h
1062 05-01-2009 20:23:25 -1.7 C 2.54 g/m*3 -1.7 C 0 km/h
1063 05-01-2009 20:35:25 -1.7 C 2.54 g/m*3 -1.7 C 0 km/h
1064 05-01-2009 20:47:24 -1.7 C 2.45 g/m*3 -1.7 C 0 km/h
1065 05-01-2009 20:59:24 -1.8 C 2.44 g/m*3 -1.8 C 0 km/h
1066 05-01-2009 21:11:24 -1.9 C 2.46 g/m*3 -1.9 C 0 km/h
1067 05-01-2009 21:23:24 -1.9 C 2.5 g/m*3 -1.9 C 0 km/h
1068 05-01-2009 21:35:24 -2 C 2.49 g/m*3 -2 C 0 km/h
1069 05-01-2009 21:47:24 -2.1 C 2.43 g/m*3 -2.1 C 0 km/h
1070 05-01-2009 21:59:24 -2.1 C 2.43 g/m*3 -2.1 C 0 km/h
1071 05-01-2009 22:11:24 -2.2 C 2.41 g/m*3 -2.2 C 0 km/h
1072 05-01-2009 22:24:25 -2.3 C 2.39 g/m*3 -2.3 C 0 km/h
1073 05-01-2009 22:36:25 -2.3 C 2.39 g/m*3 -2.3 C 0 km/h
1074 05-01-2009 22:48:25 -2.4 C 2.34 g/m*3 -2.4 C 0 km/h
1075 05-01-2009 23:00:25 -2.5 C 2.32 g/m*3 -2.5 C 0 km/h
Sensor: Nr:Datum:Temp:Abs-Feuchte:Windchill:Wind:
Aussen-T/F 1076 05-01-2009 23:12:25 -2.5 C 2.36 g/m*3 -2.5 C 0 km/h
1077 05-01-2009 23:24:25 -2.6 C 2.34 g/m*3 -2.6 C 0 km/h
1078 05-01-2009 23:36:25 -2.6 C 2.34 g/m*3 -2.6 C 0 km/h
1079 05-01-2009 23:48:26 -2.7 C 2.33 g/m*3 -2.7 C 0 km/h
1080 06-01-2009 00:00:26 -2.8 C 2.31 g/m*3 -2.8 C 0 km/h
1081 06-01-2009 00:12:26 -2.8 C 2.39 g/m*3 -2.8 C 0 km/h
1082 06-01-2009 00:24:26 -2.9 C 2.33 g/m*3 -2.9 C 0 km/h
1083 06-01-2009 00:36:26 -3 C 2.32 g/m*3 -3 C 0 km/h
1084 06-01-2009 00:48:26 -3.3 C 2.23 g/m*3 -3.3 C 0 km/h
1085 06-01-2009 01:00:26 -3.6 C 2.18 g/m*3 -3.6 C 0 km/h
1086 06-01-2009 01:12:26 -4.1 C 2.11 g/m*3 -4.1 C 0 km/h
1087 06-01-2009 01:24:26 -4.5 C 2.05 g/m*3 -4.5 C 0 km/h
1088 06-01-2009 01:36:26 -4.9 C 2.02 g/m*3 -4.9 C 0 km/h
1089 06-01-2009 01:48:26 -4.8 C 2.07 g/m*3 -4.8 C 0 km/h
1090 06-01-2009 02:00:26 -4.7 C 1.84 g/m*3 -4.7 C 0 km/h
1091 06-01-2009 02:12:26 -4.6 C 1.72 g/m*3 -4.6 C 0 km/h
1092 06-01-2009 02:24:26 -4.7 C 1.57 g/m*3 -4.7 C 0 km/h
1093 06-01-2009 02:36:26 -4.8 C 1.42 g/m*3 -4.8 C 0 km/h
1094 06-01-2009 02:48:26 -5 C 1.29 g/m*3 -5 C 0 km/h
1095 06-01-2009 03:00:26 -5.1 C 1.32 g/m*3 -5.1 C 0 km/h
1096 06-01-2009 03:12:26 -5.2 C 1.28 g/m*3 -5.2 C 0 km/h
1097 06-01-2009 03:24:26 -5.2 C 1.28 g/m*3 -5.2 C 0 km/h
1098 06-01-2009 03:36:26 -5.3 C 1.23 g/m*3 -5.3 C 0 km/h
1099 06-01-2009 03:48:26 -5.6 C 1.21 g/m*3 -5.6 C 0 km/h
1100 06-01-2009 04:00:27 -6 C 1.27 g/m*3 -6 C 0 km/h
Sensor: Nr:Datum:Temp:Abs-Feuchte:Windchill:Wind:
Aussen-T/F 1101 06-01-2009 04:12:27 -6.3 C 1.21 g/m*3 -6.3 C 0 km/h
1102 06-01-2009 04:24:27 -6.5 C 1.16 g/m*3 -6.5 C 0 km/h
1103 06-01-2009 04:36:27 -6.5 C 1.1 g/m*3 -6.5 C 0 km/h
1104 06-01-2009 04:48:27 -6.4 C 1.11 g/m*3 -6.4 C 0 km/h
1105 06-01-2009 05:00:27 -6.7 C 1.02 g/m*3 -6.7 C 0 km/h
1106 06-01-2009 05:12:27 -6.6 C 1.06 g/m*3 -6.6 C 0 km/h
1107 06-01-2009 05:24:27 -6.3 C 1.12 g/m*3 -6.3 C 0 km/h
1108 06-01-2009 05:36:27 -6.2 C 1.09 g/m*3 -6.2 C 0 km/h
1109 06-01-2009 05:48:27 -6 C 1.14 g/m*3 -6 C 0 km/h
1110 06-01-2009 06:00:27 -6 C 1.14 g/m*3 -6 C 0 km/h
1111 06-01-2009 06:12:27 -6 C 1.08 g/m*3 -6 C 0 km/h
1112 06-01-2009 06:24:27 -6 C 0.98 g/m*3 -6 C 0 km/h
1113 06-01-2009 06:36:27 -6.1 C 0.85 g/m*3 -6.1 C 0 km/h
1114 06-01-2009 06:48:25 -6.2 C 0.87 g/m*3 -6.2 C 0 km/h
1115 06-01-2009 07:00:25 -6.2 C 0.97 g/m*3 -6.2 C 0 km/h
1116 06-01-2009 07:12:25 -6.3 C 0.9 g/m*3 -6.3 C 0 km/h
1117 06-01-2009 07:24:25 -6.2 C 0.97 g/m*3 -6.2 C 0 km/h
1118 06-01-2009 07:36:24 -6.3 C 0.87 g/m*3 -6.3 C 0 km/h
1119 06-01-2009 07:48:25 -6.5 C 0.76 g/m*3 -6.5 C 0 km/h
1120 06-01-2009 08:00:24 -6.5 C 0.89 g/m*3 -6.5 C 0 km/h
1121 06-01-2009 08:12:24 -6.4 C 0.92 g/m*3 -6.4 C 0 km/h
1122 06-01-2009 08:24:24 -6.4 C 0.77 g/m*3 -6.4 C 0 km/h
1123 06-01-2009 08:36:24 -6.4 C 0.86 g/m*3 -6.4 C 0 km/h
1124 06-01-2009 08:48:24 -6.7 C 0.9 g/m*3 -6.7 C 0 km/h
1125 06-01-2009 09:00:24 -6.7 C 0.9 g/m*3 -6.7 C 0 km/h
Sensor: Nr:Datum:Temp:Abs-Feuchte:Windchill:Wind:
Aussen-T/F 1126 06-01-2009 09:12:24 -6.7 C 0.96 g/m*3 -6.7 C 0 km/h
1127 06-01-2009 09:24:24 -6.4 C 1.08 g/m*3 -6.4 C 0 km/h
1128 06-01-2009 09:36:24 -6.2 C 0.97 g/m*3 -6.2 C 0 km/h
1129 06-01-2009 09:48:23 -6 C 0.95 g/m*3 -6 C 0 km/h
1130 06-01-2009 10:00:23 -5.8 C 0.93 g/m*3 -5.8 C 0 km/h
1131 06-01-2009 10:12:23 -5.7 C 0.81 g/m*3 -5.7 C 0 km/h
1132 06-01-2009 10:24:23 -5.7 C 0.65 g/m*3 -5.7 C 0 km/h
1133 06-01-2009 10:36:23 -5.6 C 0.68 g/m*3 -5.6 C 0 km/h
1134 06-01-2009 10:48:22 -5.6 C 0.65 g/m*3 -5.6 C 0 km/h
1135 06-01-2009 11:00:23 -5.6 C 0.65 g/m*3 -5.6 C 0 km/h
1136 06-01-2009 11:12:23 -5.6 C 0.65 g/m*3 -5.6 C 0 km/h
1137 06-01-2009 11:24:22 -5.6 C 0.68 g/m*3 -5.6 C 0 km/h
1138 06-01-2009 11:36:22 -5.6 C 0.68 g/m*3 -5.6 C 0 km/h
1139 06-01-2009 11:48:22 -5.6 C 1.04 g/m*3 -5.6 C 0 km/h
1140 06-01-2009 12:00:22 -5.5 C 1.15 g/m*3 -5.5 C 0 km/h
1141 06-01-2009 12:12:22 -5.3 C 1.17 g/m*3 -5.3 C 0 km/h
1142 06-01-2009 12:24:22 -5 C 1.19 g/m*3 -5 C 0 km/h
1143 06-01-2009 12:36:21 -4.6 C 1.23 g/m*3 -4.6 C 0 km/h
1144 06-01-2009 12:48:22 -4.1 C 1.23 g/m*3 -4.1 C 0 km/h
1145 06-01-2009 13:00:21 -4 C 1.21 g/m*3 -4 C 0 km/h
1146 06-01-2009 13:12:21 -3.9 C 1.18 g/m*3 -3.9 C 0 km/h
1147 06-01-2009 13:24:21 -3.7 C 1.16 g/m*3 -3.7 C 0 km/h
1148 06-01-2009 13:36:22 -3.9 C 1.07 g/m*3 -3.9 C 0 km/h
1149 06-01-2009 13:48:21 -4.6 C 1.05 g/m*3 -4.6 C 0 km/h
1150 06-01-2009 14:00:21 -5.2 C 1.04 g/m*3 -5.2 C 0 km/h
Sensor: Nr:Datum:Temp:Abs-Feuchte:Windchill:Wind:
Aussen-T/F 1151 06-01-2009 14:12:21 -5.4 C 1.16 g/m*3 -5.4 C 0 km/h
1152 06-01-2009 14:24:21 -5.6 C 1.24 g/m*3 -5.6 C 0 km/h
1153 06-01-2009 14:36:21 -5.7 C 1.04 g/m*3 -5.7 C 0 km/h
1154 06-01-2009 14:48:20 -6 C 1.14 g/m*3 -6 C 0 km/h
1155 06-01-2009 15:00:21 -6.2 C 1.25 g/m*3 -6.2 C 0 km/h
1156 06-01-2009 15:12:22 -6.3 C 1.33 g/m*3 -6.3 C 0 km/h
1157 06-01-2009 15:24:20 -6.4 C 1.32 g/m*3 -6.4 C 0 km/h
1158 06-01-2009 15:36:20 -6.7 C 1.35 g/m*3 -6.7 C 0 km/h
1159 06-01-2009 15:48:19 -6.8 C 1.28 g/m*3 -6.8 C 0 km/h
1160 06-01-2009 16:00:20 -7 C 1.32 g/m*3 -7 C 0 km/h
1161 06-01-2009 16:12:20 -7.2 C 1.31 g/m*3 -7.2 C 0 km/h
1162 06-01-2009 16:24:20 -7.3 C 1.3 g/m*3 -7.3 C 0 km/h
1163 06-01-2009 16:36:19 -7.4 C 1.29 g/m*3 -7.4 C 0 km/h
1164 06-01-2009 16:48:20 -7.8 C 1.28 g/m*3 -7.8 C 0 km/h
1165 06-01-2009 17:00:19 -7.9 C 1.32 g/m*3 -7.9 C 0 km/h
1166 06-01-2009 17:12:19 -8 C 1.34 g/m*3 -8 C 0 km/h
1167 06-01-2009 17:24:19 -8.2 C 1.35 g/m*3 -8.2 C 0 km/h
1168 06-01-2009 17:36:19 -8.4 C 1.35 g/m*3 -8.4 C 0 km/h
1169 06-01-2009 17:48:19 -8.6 C 1.36 g/m*3 -8.6 C 0 km/h
1170 06-01-2009 18:00:19 -8.9 C 1.33 g/m*3 -8.9 C 0 km/h
1171 06-01-2009 18:12:19 -9.1 C 1.34 g/m*3 -9.1 C 0 km/h
1172 06-01-2009 18:24:18 -9.2 C 1.38 g/m*3 -9.2 C 0 km/h
1173 06-01-2009 18:36:18 -9.4 C 1.36 g/m*3 -9.4 C 0 km/h
1174 06-01-2009 18:48:18 -9.5 C 1.37 g/m*3 -9.5 C 0 km/h
1175 06-01-2009 19:00:18 -9.2 C 1.4 g/m*3 -9.2 C 0 km/h
Sensor: Nr:Datum:Temp:Abs-Feuchte:Windchill:Wind:
Aussen-T/F 1176 06-01-2009 19:12:18 -9.2 C 1.35 g/m*3 -9.2 C 0 km/h
1177 06-01-2009 19:24:18 -9.5 C 1.32 g/m*3 -9.5 C 0 km/h
1178 06-01-2009 19:36:18 -9.9 C 1.28 g/m*3 -9.9 C 0 km/h
1179 06-01-2009 19:48:18 -9.9 C 1.33 g/m*3 -9.9 C 0 km/h
1180 06-01-2009 20:00:17 -10.2 C 1.3 g/m*3 -10.2 C 0 km/h
1181 06-01-2009 20:12:17 -10.4 C 1.3 g/m*3 -10.4 C 0 km/h
1182 06-01-2009 20:24:18 -10.7 C 1.27 g/m*3 -10.7 C 0 km/h
1183 06-01-2009 20:36:17 -10.8 C 1.29 g/m*3 -10.8 C 0 km/h
1184 06-01-2009 20:48:17 -10.9 C 1.28 g/m*3 -10.9 C 0 km/h
1185 06-01-2009 21:00:17 -11 C 1.29 g/m*3 -11 C 0 km/h
1186 06-01-2009 21:12:17 -11.1 C 1.3 g/m*3 -11.1 C 0 km/h
1187 06-01-2009 21:24:16 -10.9 C 1.32 g/m*3 -10.9 C 0 km/h
1188 06-01-2009 21:36:17 -10.9 C 1.32 g/m*3 -10.9 C 0 km/h
1189 06-01-2009 21:48:16 -10.8 C 1.35 g/m*3 -10.8 C 0 km/h
1190 06-01-2009 22:00:16 -11 C 1.31 g/m*3 -11 C 0 km/h
1191 06-01-2009 22:12:16 -11.3 C 1.28 g/m*3 -11.3 C 0 km/h
1192 06-01-2009 22:24:17 -11.5 C 1.28 g/m*3 -11.5 C 0 km/h
1193 06-01-2009 22:36:16 -11.7 C 1.28 g/m*3 -11.7 C 0 km/h
1194 06-01-2009 22:48:16 -12 C 1.25 g/m*3 -12 C 0 km/h
1195 06-01-2009 23:00:16 -12 C 1.27 g/m*3 -12 C 0 km/h
1196 06-01-2009 23:12:16 -12.1 C 1.28 g/m*3 -12.1 C 0 km/h
1197 06-01-2009 23:24:16 -12.3 C 1.27 g/m*3 -12.3 C 0 km/h
1198 06-01-2009 23:36:15 -12.6 C 1.24 g/m*3 -12.6 C 0 km/h
1199 06-01-2009 23:48:15 -12.7 C 1.25 g/m*3 -12.7 C 0 km/h
1200 07-01-2009 00:00:16 -12.8 C 1.26 g/m*3 -12.8 C 0 km/h
Sensor: Nr:Datum:Temp:Abs-Feuchte:Windchill:Wind:
Aussen-T/F 1201 07-01-2009 00:12:16 -12.9 C 1.25 g/m*3 -12.9 C 0 km/h
1202 07-01-2009 00:24:15 -13 C 1.24 g/m*3 -13 C 0 km/h
1203 07-01-2009 00:36:15 -13.3 C 1.21 g/m*3 -13.3 C 0 km/h
1204 07-01-2009 00:48:15 -13.2 C 1.22 g/m*3 -13.2 C 0 km/h
1205 07-01-2009 01:00:14 -13.4 C 1.22 g/m*3 -13.4 C 0 km/h
1206 07-01-2009 01:12:14 -13.6 C 1.18 g/m*3 -13.6 C 0 km/h
1207 07-01-2009 01:24:15 -13.7 C 1.17 g/m*3 -13.7 C 0 km/h
1208 07-01-2009 01:36:15 -13.7 C 1.19 g/m*3 -13.7 C 0 km/h
1209 07-01-2009 01:48:14 -13.8 C 1.18 g/m*3 -13.8 C 0 km/h
1210 07-01-2009 02:00:15 -13.9 C 1.17 g/m*3 -13.9 C 0 km/h
1211 07-01-2009 02:12:15 -13.9 C 1.17 g/m*3 -13.9 C 0 km/h
1212 07-01-2009 02:24:14 -14.1 C 1.15 g/m*3 -14.1 C 0 km/h
1213 07-01-2009 02:36:14 -14.3 C 1.13 g/m*3 -14.3 C 0 km/h
1214 07-01-2009 02:49:15 -14.3 C 1.13 g/m*3 -14.3 C 0 km/h
1215 07-01-2009 03:01:15 -14.2 C 1.14 g/m*3 -14.2 C 0 km/h
1216 07-01-2009 03:13:15 -14.6 C 1.11 g/m*3 -14.6 C 0 km/h
1217 07-01-2009 03:25:15 -14.6 C 1.11 g/m*3 -14.6 C 0 km/h
1218 07-01-2009 03:37:15 -14.7 C 1.1 g/m*3 -14.7 C 0 km/h
1219 07-01-2009 03:49:15 -14.8 C 1.09 g/m*3 -14.8 C 0 km/h
1220 07-01-2009 04:01:15 -15 C 1.06 g/m*3 -15 C 0 km/h
1221 07-01-2009 04:13:15 -15 C 1.07 g/m*3 -15 C 0 km/h
1222 07-01-2009 04:25:14 -15.2 C 1.04 g/m*3 -15.2 C 0 km/h
1223 07-01-2009 04:37:14 -15.4 C 1.02 g/m*3 -15.4 C 0 km/h
1224 07-01-2009 04:49:14 -15.4 C 1.02 g/m*3 -15.4 C 0 km/h
1225 07-01-2009 05:01:14 -15.4 C 1.02 g/m*3 -15.4 C 0 km/h
Sensor: Nr:Datum:Temp:Abs-Feuchte:Windchill:Wind:
Aussen-T/F 1226 07-01-2009 05:13:14 -15.6 C 1.01 g/m*3 -15.6 C 0 km/h
1227 07-01-2009 05:25:13 -15.7 C 0.99 g/m*3 -15.7 C 0 km/h
1228 07-01-2009 05:37:14 -15.7 C 1 g/m*3 -15.7 C 0 km/h
1229 07-01-2009 05:49:13 -15.7 C 1 g/m*3 -15.7 C 0 km/h
1230 07-01-2009 06:01:14 -15.9 C 0.97 g/m*3 -15.9 C 0 km/h
1231 07-01-2009 06:13:14 -15.9 C 0.97 g/m*3 -15.9 C 0 km/h
1232 07-01-2009 06:25:13 -16 C 0.96 g/m*3 -16 C 0 km/h
1233 07-01-2009 06:37:13 -15.9 C 0.97 g/m*3 -15.9 C 0 km/h
1234 07-01-2009 06:49:13 -15.7 C 0.99 g/m*3 -15.7 C 0 km/h
1235 07-01-2009 07:01:13 -15.4 C 1.01 g/m*3 -15.4 C 0 km/h
1236 07-01-2009 07:13:13 -15.4 C 1.01 g/m*3 -15.4 C 0 km/h
1237 07-01-2009 07:25:12 -15.5 C 0.99 g/m*3 -15.5 C 0 km/h
1238 07-01-2009 07:37:12 -15.5 C 0.99 g/m*3 -15.5 C 0 km/h
1239 07-01-2009 07:49:13 -15.4 C 0.99 g/m*3 -15.4 C 0 km/h
1240 07-01-2009 08:01:12 -15.5 C 0.97 g/m*3 -15.5 C 0 km/h
1241 07-01-2009 08:13:12 -15.6 C 0.96 g/m*3 -15.6 C 0 km/h
1242 07-01-2009 08:25:12 -15.7 C 0.96 g/m*3 -15.7 C 0 km/h
1243 07-01-2009 08:37:12 -16 C 0.92 g/m*3 -16 C 0 km/h
1244 07-01-2009 08:49:12 -16.1 C 0.91 g/m*3 -16.1 C 0 km/h
1245 07-01-2009 09:01:11 -15.9 C 0.93 g/m*3 -15.9 C 0 km/h
1246 07-01-2009 09:13:11 -15.8 C 0.95 g/m*3 -15.8 C 0 km/h
1247 07-01-2009 09:25:12 -15.7 C 0.96 g/m*3 -15.7 C 0 km/h
1248 07-01-2009 09:37:11 -15.6 C 0.96 g/m*3 -15.6 C 0 km/h
1249 07-01-2009 09:49:11 -15 C 1.01 g/m*3 -15 C 0 km/h
1250 07-01-2009 10:01:12 -14.1 C 1.08 g/m*3 -14.1 C 0 km/h
Sensor: Nr:Datum:Temp:Abs-Feuchte:Windchill:Wind:
Aussen-T/F 1251 07-01-2009 10:13:12 -13.9 C 1.08 g/m*3 -13.9 C 0 km/h
1252 07-01-2009 10:25:11 -12.9 C 1.13 g/m*3 -12.9 C 0 km/h
1253 07-01-2009 10:37:11 -12.8 C 1.1 g/m*3 -12.8 C 0 km/h
1254 07-01-2009 10:49:11 -12.6 C 1.1 g/m*3 -12.6 C 0 km/h
1255 07-01-2009 11:01:11 -12.2 C 1.14 g/m*3 -12.2 C 0 km/h
1256 07-01-2009 11:13:11 -11.7 C 1.18 g/m*3 -11.7 C 0 km/h
1257 07-01-2009 11:25:10 -11.6 C 1.17 g/m*3 -11.6 C 0 km/h
1258 07-01-2009 11:37:10 -11.6 C 1.17 g/m*3 -11.6 C 0 km/h
1259 07-01-2009 11:49:10 -10.8 C 1.24 g/m*3 -10.8 C 0 km/h
1260 07-01-2009 12:01:10 -10.4 C 1.28 g/m*3 -10.4 C 0 km/h
1261 07-01-2009 12:13:10 -9.9 C 1.31 g/m*3 -9.9 C 0 km/h
1262 07-01-2009 12:25:09 -9.5 C 1.32 g/m*3 -9.5 C 0 km/h
1263 07-01-2009 12:37:10 -9 C 1.37 g/m*3 -9 C 0 km/h
1264 07-01-2009 12:49:10 -8.7 C 1.38 g/m*3 -8.7 C 0 km/h
1265 07-01-2009 13:01:09 -9 C 1.35 g/m*3 -9 C 0 km/h
1266 07-01-2009 13:13:09 -9 C 1.35 g/m*3 -9 C 0 km/h
1267 07-01-2009 13:25:10 -8.7 C 1.43 g/m*3 -8.7 C 0 km/h
1268 07-01-2009 13:37:09 -8.6 C 1.46 g/m*3 -8.6 C 0 km/h
1269 07-01-2009 13:49:09 -8.3 C 1.5 g/m*3 -8.3 C 0 km/h
1270 07-01-2009 14:01:09 -8.2 C 1.54 g/m*3 -8.2 C 0 km/h
1271 07-01-2009 14:13:09 -8.3 C 1.52 g/m*3 -8.3 C 0 km/h
1272 07-01-2009 14:25:09 -8.2 C 1.56 g/m*3 -8.2 C 0 km/h
1273 07-01-2009 14:37:08 -8.1 C 1.6 g/m*3 -8.1 C 0 km/h
1274 07-01-2009 14:49:09 -7.8 C 1.64 g/m*3 -7.8 C 0 km/h
1275 07-01-2009 15:01:08 -7.7 C 1.65 g/m*3 -7.7 C 0 km/h
Sensor: Nr:Datum:Temp:Abs-Feuchte:Windchill:Wind:
Aussen-T/F 1276 07-01-2009 15:13:08 -7.6 C 1.63 g/m*3 -7.6 C 0 km/h
1277 07-01-2009 15:25:08 -7.5 C 1.65 g/m*3 -7.5 C 0 km/h
1278 07-01-2009 15:37:08 -7.5 C 1.67 g/m*3 -7.5 C 0 km/h
1279 07-01-2009 15:49:08 -7.6 C 1.66 g/m*3 -7.6 C 0 km/h
1280 07-01-2009 16:01:07 -7.6 C 1.69 g/m*3 -7.6 C 0 km/h
1281 07-01-2009 16:13:07 -7.5 C 1.7 g/m*3 -7.5 C 0 km/h
1282 07-01-2009 16:25:08 -7.5 C 1.73 g/m*3 -7.5 C 0 km/h
1283 07-01-2009 16:37:08 -7.6 C 1.72 g/m*3 -7.6 C 0 km/h
1284 07-01-2009 16:49:07 -7.6 C 1.75 g/m*3 -7.6 C 0 km/h
1285 07-01-2009 17:01:08 -7.7 C 1.73 g/m*3 -7.7 C 0 km/h
1286 07-01-2009 17:13:08 -7.6 C 1.8 g/m*3 -7.6 C 0 km/h
1287 07-01-2009 17:25:07 -7.5 C 1.82 g/m*3 -7.5 C 0 km/h
1288 07-01-2009 17:37:07 -7.6 C 1.8 g/m*3 -7.6 C 0 km/h
1289 07-01-2009 17:49:07 -7.6 C 1.8 g/m*3 -7.6 C 0 km/h
1290 07-01-2009 18:01:07 -7.5 C 1.82 g/m*3 -7.5 C 0 km/h
1291 07-01-2009 18:13:08 -7.4 C 1.8 g/m*3 -7.4 C 0 km/h
1292 07-01-2009 18:25:06 -7.3 C 1.84 g/m*3 -7.3 C 0 km/h
1293 07-01-2009 18:37:06 -7.3 C 1.84 g/m*3 -7.3 C 0 km/h
1294 07-01-2009 18:49:06 -7.2 C 1.86 g/m*3 -7.2 C 0 km/h
1295 07-01-2009 19:01:06 -7.1 C 1.87 g/m*3 -7.1 C 0 km/h
1296 07-01-2009 19:13:06 -7.1 C 1.87 g/m*3 -7.1 C 0 km/h
1297 07-01-2009 19:25:06 -7 C 1.88 g/m*3 -7 C 0 km/h
1298 07-01-2009 19:37:06 -7.2 C 1.86 g/m*3 -7.2 C 0 km/h
1299 07-01-2009 19:49:06 -7.3 C 1.87 g/m*3 -7.3 C 0 km/h
1300 07-01-2009 20:01:05 -7.3 C 1.87 g/m*3 -7.3 C 0 km/h
Sensor: Nr:Datum:Temp:Abs-Feuchte:Windchill:Wind:
Aussen-T/F 1301 07-01-2009 20:13:05 -7.4 C 1.89 g/m*3 -7.4 C 0 km/h
1302 07-01-2009 20:25:06 -7.5 C 1.87 g/m*3 -7.5 C 0 km/h
1303 07-01-2009 20:37:05 -7.4 C 1.92 g/m*3 -7.4 C 0 km/h
1304 07-01-2009 20:49:05 -7.2 C 1.97 g/m*3 -7.2 C 0 km/h
1305 07-01-2009 21:01:04 -6.9 C 2.05 g/m*3 -6.9 C 0 km/h
1306 07-01-2009 21:13:04 -6.8 C 2.06 g/m*3 -6.8 C 0 km/h
1307 07-01-2009 21:25:05 -6.6 C 2.09 g/m*3 -6.6 C 0 km/h
1308 07-01-2009 21:37:05 -6.5 C 2.14 g/m*3 -6.5 C 0 km/h
1309 07-01-2009 21:49:04 -6.5 C 2.14 g/m*3 -6.5 C 0 km/h
1310 07-01-2009 22:01:05 -6.4 C 2.15 g/m*3 -6.4 C 0 km/h
1311 07-01-2009 22:13:05 -6.4 C 2.18 g/m*3 -6.4 C 0 km/h
1312 07-01-2009 22:26:09 -6.2 C 2.22 g/m*3 -6.2 C 0 km/h
1313 07-01-2009 22:38:09 -6.2 C 2.25 g/m*3 -6.2 C 0 km/h
1314 07-01-2009 22:50:09 -6.2 C 2.25 g/m*3 -6.2 C 0 km/h
1315 07-01-2009 23:02:09 -6.2 C 2.25 g/m*3 -6.2 C 0 km/h
1316 07-01-2009 23:14:09 -6.2 C 2.25 g/m*3 -6.2 C 0 km/h
1317 07-01-2009 23:26:09 -6.3 C 2.23 g/m*3 -6.3 C 0 km/h
1318 07-01-2009 23:38:09 -6.2 C 2.25 g/m*3 -6.2 C 0 km/h
1319 07-01-2009 23:50:09 -6.2 C 2.25 g/m*3 -6.2 C 0 km/h
1320 08-01-2009 00:02:09 -6.2 C 2.22 g/m*3 -6.2 C 0 km/h
1321 08-01-2009 00:14:09 -6.1 C 2.23 g/m*3 -6.1 C 0 km/h
1322 08-01-2009 00:26:09 -6.1 C 2.23 g/m*3 -6.1 C 0 km/h
1323 08-01-2009 00:38:09 -6.1 C 2.2 g/m*3 -6.1 C 0 km/h
1324 08-01-2009 00:50:09 -6.1 C 2.2 g/m*3 -6.1 C 0 km/h
1325 08-01-2009 01:02:09 -6.1 C 2.2 g/m*3 -6.1 C 0 km/h
Sensor: Nr:Datum:Temp:Abs-Feuchte:Windchill:Wind:
Aussen-T/F 1326 08-01-2009 01:14:09 -6 C 2.22 g/m*3 -6 C 0 km/h
1327 08-01-2009 01:26:09 -5.9 C 2.23 g/m*3 -5.9 C 0 km/h
1328 08-01-2009 01:38:10 -5.9 C 2.23 g/m*3 -5.9 C 0 km/h
1329 08-01-2009 01:50:10 -5.8 C 2.25 g/m*3 -5.8 C 0 km/h
1330 08-01-2009 02:02:10 -5.8 C 2.25 g/m*3 -5.8 C 0 km/h
1331 08-01-2009 02:14:10 -5.7 C 2.27 g/m*3 -5.7 C 0 km/h
1332 08-01-2009 02:26:10 -5.7 C 2.27 g/m*3 -5.7 C 0 km/h
1333 08-01-2009 02:38:10 -5.7 C 2.27 g/m*3 -5.7 C 0 km/h
1334 08-01-2009 02:50:10 -5.6 C 2.31 g/m*3 -5.6 C 0 km/h
1335 08-01-2009 03:02:10 -5.6 C 2.31 g/m*3 -5.6 C 0 km/h
1336 08-01-2009 03:14:10 -5.5 C 2.33 g/m*3 -5.5 C 0 km/h
1337 08-01-2009 03:26:10 -5.4 C 2.35 g/m*3 -5.4 C 0 km/h
1338 08-01-2009 03:38:10 -5.4 C 2.35 g/m*3 -5.4 C 0 km/h
1339 08-01-2009 03:50:10 -5.3 C 2.37 g/m*3 -5.3 C 0 km/h
1340 08-01-2009 04:02:10 -5.3 C 2.37 g/m*3 -5.3 C 0 km/h
1341 08-01-2009 04:14:10 -5.3 C 2.37 g/m*3 -5.3 C 0 km/h
1342 08-01-2009 04:26:10 -5.3 C 2.37 g/m*3 -5.3 C 0 km/h
1343 08-01-2009 04:38:10 -5.3 C 2.37 g/m*3 -5.3 C 0 km/h
1344 08-01-2009 04:50:10 -5.3 C 2.4 g/m*3 -5.3 C 0 km/h
1345 08-01-2009 05:02:10 -5.2 C 2.42 g/m*3 -5.2 C 0 km/h
1346 08-01-2009 05:14:10 -5.1 C 2.47 g/m*3 -5.1 C 0 km/h
1347 08-01-2009 05:26:11 -5 C 2.49 g/m*3 -5 C 0 km/h
1348 08-01-2009 05:38:11 -5 C 2.49 g/m*3 -5 C 0 km/h
1349 08-01-2009 05:50:11 -5 C 2.49 g/m*3 -5 C 0 km/h
1350 08-01-2009 06:02:11 -5 C 2.49 g/m*3 -5 C 0 km/h
Sensor: Nr:Datum:Temp:Abs-Feuchte:Windchill:Wind:
Aussen-T/F 1351 08-01-2009 06:14:11 -5 C 2.49 g/m*3 -5 C 0 km/h
1352 08-01-2009 06:26:11 -5 C 2.52 g/m*3 -5 C 0 km/h
1353 08-01-2009 06:38:11 -5 C 2.52 g/m*3 -5 C 0 km/h
1354 08-01-2009 06:50:11 -5 C 2.52 g/m*3 -5 C 0 km/h
1355 08-01-2009 07:02:06 -5 C 2.52 g/m*3 -5 C 0 km/h
1356 08-01-2009 07:14:05 -4.9 C 2.54 g/m*3 -4.9 C 0 km/h
1357 08-01-2009 07:26:05 -4.9 C 2.54 g/m*3 -4.9 C 0 km/h
1358 08-01-2009 07:38:05 -4.9 C 2.54 g/m*3 -4.9 C 0 km/h
1359 08-01-2009 07:50:05 -4.9 C 2.54 g/m*3 -4.9 C 0 km/h
1360 08-01-2009 08:02:05 -4.8 C 2.59 g/m*3 -4.8 C 0 km/h
1361 08-01-2009 08:14:04 -4.8 C 2.59 g/m*3 -4.8 C 0 km/h
1362 08-01-2009 08:26:04 -4.9 C 2.57 g/m*3 -4.9 C 0 km/h
1363 08-01-2009 08:38:04 -4.8 C 2.63 g/m*3 -4.8 C 0 km/h
1364 08-01-2009 08:50:04 -4.8 C 2.63 g/m*3 -4.8 C 0 km/h
1365 08-01-2009 09:02:04 -4.7 C 2.61 g/m*3 -4.7 C 0 km/h
1366 08-01-2009 09:14:04 -4.6 C 2.63 g/m*3 -4.6 C 0 km/h
1367 08-01-2009 09:26:04 -4.7 C 2.57 g/m*3 -4.7 C 0 km/h
1368 08-01-2009 09:38:04 -4.6 C 2.56 g/m*3 -4.6 C 0 km/h
1369 08-01-2009 09:50:04 -4.5 C 2.58 g/m*3 -4.5 C 0 km/h
1370 08-01-2009 10:02:03 -4.4 C 2.6 g/m*3 -4.4 C 0 km/h
1371 08-01-2009 10:14:04 -4.2 C 2.6 g/m*3 -4.2 C 0 km/h
1372 08-01-2009 10:26:04 -4 C 2.63 g/m*3 -4 C 0 km/h
1373 08-01-2009 10:38:03 -3.8 C 2.63 g/m*3 -3.8 C 0 km/h
1374 08-01-2009 10:50:03 -3.7 C 2.62 g/m*3 -3.7 C 0 km/h
1375 08-01-2009 11:02:03 -3.5 C 2.62 g/m*3 -3.5 C 0 km/h
Sensor: Nr:Datum:Temp:Abs-Feuchte:Windchill:Wind:
Aussen-T/F 1376 08-01-2009 11:14:03 -3.7 C 2.5 g/m*3 -3.7 C 0 km/h
1377 08-01-2009 11:26:03 -3.8 C 2.49 g/m*3 -3.8 C 0 km/h
1378 08-01-2009 11:38:02 -3.8 C 2.49 g/m*3 -3.8 C 0 km/h
1379 08-01-2009 11:50:03 -3.8 C 2.49 g/m*3 -3.8 C 0 km/h
1380 08-01-2009 12:02:03 -3.5 C 2.5 g/m*3 -3.5 C 0 km/h
1381 08-01-2009 12:14:02 -3.3 C 2.5 g/m*3 -3.3 C 0 km/h
1382 08-01-2009 12:26:02 -3.5 C 2.43 g/m*3 -3.5 C 0 km/h
1383 08-01-2009 12:38:02 -3.2 C 2.48 g/m*3 -3.2 C 0 km/h
1384 08-01-2009 12:50:02 -3.4 C 2.41 g/m*3 -3.4 C 0 km/h
1385 08-01-2009 13:02:02 -3.8 C 2.34 g/m*3 -3.8 C 0 km/h
1386 08-01-2009 13:14:01 -3.7 C 2.39 g/m*3 -3.7 C 0 km/h
1387 08-01-2009 13:26:01 -3.7 C 2.39 g/m*3 -3.7 C 0 km/h
1388 08-01-2009 13:38:02 -3.9 C 2.36 g/m*3 -3.9 C 0 km/h
1389 08-01-2009 13:50:01 -4 C 2.34 g/m*3 -4 C 0 km/h
1390 08-01-2009 14:02:01 -4 C 2.38 g/m*3 -4 C 0 km/h
1391 08-01-2009 14:14:02 -4.1 C 2.32 g/m*3 -4.1 C 0 km/h
1392 08-01-2009 14:26:02 -4.3 C 2.33 g/m*3 -4.3 C 0 km/h
1393 08-01-2009 14:38:01 -4.5 C 2.29 g/m*3 -4.5 C 0 km/h
1394 08-01-2009 14:50:01 -4.6 C 2.31 g/m*3 -4.6 C 0 km/h
1395 08-01-2009 15:02:01 -4.6 C 2.31 g/m*3 -4.6 C 0 km/h
1396 08-01-2009 15:14:01 -4.6 C 2.35 g/m*3 -4.6 C 0 km/h
1397 08-01-2009 15:26:01 -4.7 C 2.33 g/m*3 -4.7 C 0 km/h
1398 08-01-2009 15:38:00 -4.8 C 2.31 g/m*3 -4.8 C 0 km/h
1399 08-01-2009 15:50:01 -4.9 C 2.33 g/m*3 -4.9 C 0 km/h
1400 08-01-2009 16:02:00 -5 C 2.32 g/m*3 -5 C 0 km/h
Sensor: Nr:Datum:Temp:Abs-Feuchte:Windchill:Wind:
Aussen-T/F 1401 08-01-2009 16:14:00 -5.1 C 2.33 g/m*3 -5.1 C 0 km/h
1402 08-01-2009 16:26:00 -5.5 C 2.27 g/m*3 -5.5 C 0 km/h
1403 08-01-2009 16:38:59 -6 C 2.22 g/m*3 -6 C 0 km/h
1404 08-01-2009 16:50:00 -6.2 C 2.18 g/m*3 -6.2 C 0 km/h
1405 08-01-2009 17:02:00 -6.5 C 2.17 g/m*3 -6.5 C 0 km/h
1406 08-01-2009 17:14:59 -6.5 C 2.23 g/m*3 -6.5 C 0 km/h
1407 08-01-2009 17:26:59 -6.6 C 2.21 g/m*3 -6.6 C 0 km/h
1408 08-01-2009 17:38:00 -6.7 C 2.23 g/m*3 -6.7 C 0 km/h
1409 08-01-2009 17:50:59 -7 C 2.18 g/m*3 -7 C 0 km/h
1410 08-01-2009 18:01:59 -7 C 2.21 g/m*3 -7 C 0 km/h
1411 08-01-2009 18:14:59 -7.3 C 2.19 g/m*3 -7.3 C 0 km/h
1412 08-01-2009 18:26:59 -7.5 C 2.16 g/m*3 -7.5 C 0 km/h
1413 08-01-2009 18:38:59 -7.8 C 2.11 g/m*3 -7.8 C 0 km/h
1414 08-01-2009 18:50:59 -7.9 C 2.09 g/m*3 -7.9 C 0 km/h
1415 08-01-2009 19:02:59 -8.2 C 2.05 g/m*3 -8.2 C 0 km/h
1416 08-01-2009 19:14:58 -8.4 C 2.02 g/m*3 -8.4 C 0 km/h
1417 08-01-2009 19:26:58 -8.4 C 2.04 g/m*3 -8.4 C 0 km/h
1418 08-01-2009 19:38:58 -8.3 C 2.09 g/m*3 -8.3 C 0 km/h
1419 08-01-2009 19:50:58 -8.4 C 2.07 g/m*3 -8.4 C 0 km/h
1420 08-01-2009 20:02:58 -8.7 C 2.03 g/m*3 -8.7 C 0 km/h
1421 08-01-2009 20:14:57 -8.8 C 2.01 g/m*3 -8.8 C 0 km/h
1422 08-01-2009 20:26:57 -8.8 C 2.04 g/m*3 -8.8 C 0 km/h
1423 08-01-2009 20:38:58 -8.9 C 2.02 g/m*3 -8.9 C 0 km/h
1424 08-01-2009 20:50:57 -9.2 C 1.95 g/m*3 -9.2 C 0 km/h
1425 08-01-2009 21:02:57 -9.2 C 1.98 g/m*3 -9.2 C 0 km/h
Sensor: Nr:Datum:Temp:Abs-Feuchte:Windchill:Wind:
Aussen-T/F 1426 08-01-2009 21:14:58 -9.5 C 1.93 g/m*3 -9.5 C 0 km/h
1427 08-01-2009 21:26:58 -9.9 C 1.85 g/m*3 -9.9 C 0 km/h
1428 08-01-2009 21:38:57 -9.8 C 1.84 g/m*3 -9.8 C 0 km/h
1429 08-01-2009 21:50:57 -9.8 C 1.84 g/m*3 -9.8 C 0 km/h
1430 08-01-2009 22:02:56 -9.9 C 1.83 g/m*3 -9.9 C 0 km/h
1431 08-01-2009 22:14:57 -10 C 1.79 g/m*3 -10 C 0 km/h
1432 08-01-2009 22:26:57 -10.4 C 1.71 g/m*3 -10.4 C 0 km/h
1433 08-01-2009 22:38:56 -10.7 C 1.65 g/m*3 -10.7 C 0 km/h
1434 08-01-2009 22:51:11 -10.6 C 1.67 g/m*3 -10.6 C 0 km/h
1435 08-01-2009 23:03:11 -10.8 C 1.64 g/m*3 -10.8 C 0 km/h
1436 08-01-2009 23:15:11 -10.7 C 1.65 g/m*3 -10.7 C 0 km/h
1437 08-01-2009 23:27:11 -10.8 C 1.64 g/m*3 -10.8 C 0 km/h
1438 08-01-2009 23:39:11 -10.6 C 1.67 g/m*3 -10.6 C 0 km/h
1439 08-01-2009 23:51:12 -10.7 C 1.65 g/m*3 -10.7 C 0 km/h
1440 09-01-2009 00:03:12 -10.9 C 1.61 g/m*3 -10.9 C 0 km/h
1441 09-01-2009 00:15:12 -11.1 C 1.58 g/m*3 -11.1 C 0 km/h
1442 09-01-2009 00:27:12 -11.1 C 1.58 g/m*3 -11.1 C 0 km/h
1443 09-01-2009 00:39:12 -11.1 C 1.58 g/m*3 -11.1 C 0 km/h
1444 09-01-2009 00:51:12 -11.3 C 1.54 g/m*3 -11.3 C 0 km/h
1445 09-01-2009 01:03:12 -11.5 C 1.51 g/m*3 -11.5 C 0 km/h
1446 09-01-2009 01:15:12 -11.7 C 1.47 g/m*3 -11.7 C 0 km/h
1447 09-01-2009 01:27:12 -11.7 C 1.47 g/m*3 -11.7 C 0 km/h
1448 09-01-2009 01:39:12 -11.7 C 1.47 g/m*3 -11.7 C 0 km/h
1449 09-01-2009 01:51:12 -11.7 C 1.47 g/m*3 -11.7 C 0 km/h
1450 09-01-2009 02:03:12 -11.8 C 1.46 g/m*3 -11.8 C 0 km/h
Sensor: Nr:Datum:Temp:Abs-Feuchte:Windchill:Wind:
Aussen-T/F 1451 09-01-2009 02:15:12 -11.9 C 1.45 g/m*3 -11.9 C 0 km/h
1452 09-01-2009 02:27:12 -12.1 C 1.41 g/m*3 -12.1 C 0 km/h
1453 09-01-2009 02:39:12 -12.1 C 1.43 g/m*3 -12.1 C 0 km/h
1454 09-01-2009 02:51:12 -12.2 C 1.39 g/m*3 -12.2 C 0 km/h
1455 09-01-2009 03:03:12 -12.3 C 1.38 g/m*3 -12.3 C 0 km/h
1456 09-01-2009 03:15:12 -12.4 C 1.37 g/m*3 -12.4 C 0 km/h
1457 09-01-2009 03:27:12 -12.5 C 1.36 g/m*3 -12.5 C 0 km/h
1458 09-01-2009 03:39:13 -12.6 C 1.33 g/m*3 -12.6 C 0 km/h
1459 09-01-2009 03:51:13 -12.6 C 1.33 g/m*3 -12.6 C 0 km/h
1460 09-01-2009 04:03:13 -12.6 C 1.33 g/m*3 -12.6 C 0 km/h
1461 09-01-2009 04:15:13 -12.8 C 1.31 g/m*3 -12.8 C 0 km/h
1462 09-01-2009 04:27:13 -12.8 C 1.31 g/m*3 -12.8 C 0 km/h
1463 09-01-2009 04:39:13 -12.9 C 1.3 g/m*3 -12.9 C 0 km/h
1464 09-01-2009 04:51:13 -13.2 C 1.25 g/m*3 -13.2 C 0 km/h
1465 09-01-2009 05:03:13 -13.2 C 1.25 g/m*3 -13.2 C 0 km/h
1466 09-01-2009 05:15:13 -13.1 C 1.26 g/m*3 -13.1 C 0 km/h
1467 09-01-2009 05:27:13 -13.2 C 1.25 g/m*3 -13.2 C 0 km/h
1468 09-01-2009 05:39:13 -13.3 C 1.24 g/m*3 -13.3 C 0 km/h
1469 09-01-2009 05:51:13 -13.2 C 1.25 g/m*3 -13.2 C 0 km/h
1470 09-01-2009 06:03:13 -13.3 C 1.24 g/m*3 -13.3 C 0 km/h
1471 09-01-2009 06:15:13 -13.4 C 1.22 g/m*3 -13.4 C 0 km/h
1472 09-01-2009 06:27:13 -13.5 C 1.21 g/m*3 -13.5 C 0 km/h
1473 09-01-2009 06:39:58 -13.5 C 1.21 g/m*3 -13.5 C 0 km/h
1474 09-01-2009 06:51:57 -13.6 C 1.2 g/m*3 -13.6 C 0 km/h
1475 09-01-2009 07:03:58 -13.7 C 1.19 g/m*3 -13.7 C 0 km/h
Sensor: Nr:Datum:Temp:Abs-Feuchte:Windchill:Wind:
Aussen-T/F 1476 09-01-2009 07:15:57 -13.7 C 1.19 g/m*3 -13.7 C 0 km/h
1477 09-01-2009 07:27:57 -13.6 C 1.2 g/m*3 -13.6 C 0 km/h
1478 09-01-2009 07:39:57 -13.7 C 1.19 g/m*3 -13.7 C 0 km/h
1479 09-01-2009 07:51:57 -13.9 C 1.17 g/m*3 -13.9 C 0 km/h
1480 09-01-2009 08:03:57 -13.9 C 1.15 g/m*3 -13.9 C 0 km/h
1481 09-01-2009 08:15:56 -13.9 C 1.15 g/m*3 -13.9 C 0 km/h
1482 09-01-2009 08:27:56 -13.9 C 1.15 g/m*3 -13.9 C 0 km/h
1483 09-01-2009 08:39:56 -13.9 C 1.15 g/m*3 -13.9 C 0 km/h
1484 09-01-2009 08:51:56 -13.7 C 1.19 g/m*3 -13.7 C 0 km/h
1485 09-01-2009 09:03:56 -13.6 C 1.2 g/m*3 -13.6 C 0 km/h
1486 09-01-2009 09:15:56 -13.7 C 1.19 g/m*3 -13.7 C 0 km/h
1487 09-01-2009 09:27:56 -13.6 C 1.2 g/m*3 -13.6 C 0 km/h
1488 09-01-2009 09:39:56 -13.6 C 1.2 g/m*3 -13.6 C 0 km/h
1489 09-01-2009 09:51:56 -13.4 C 1.22 g/m*3 -13.4 C 0 km/h
1490 09-01-2009 10:03:55 -13.4 C 1.22 g/m*3 -13.4 C 0 km/h
1491 09-01-2009 10:15:55 -13.2 C 1.24 g/m*3 -13.2 C 0 km/h
1492 09-01-2009 10:27:55 -13.2 C 1.24 g/m*3 -13.2 C 0 km/h
1493 09-01-2009 10:39:55 -13 C 1.26 g/m*3 -13 C 0 km/h
1494 09-01-2009 10:51:55 -12.7 C 1.28 g/m*3 -12.7 C 0 km/h
1495 09-01-2009 11:03:55 -12.6 C 1.31 g/m*3 -12.6 C 0 km/h
1496 09-01-2009 11:15:55 -12.3 C 1.34 g/m*3 -12.3 C 0 km/h
1497 09-01-2009 11:27:55 -12 C 1.4 g/m*3 -12 C 0 km/h
1498 09-01-2009 11:39:55 -11.8 C 1.42 g/m*3 -11.8 C 0 km/h
1499 09-01-2009 11:51:54 -11.5 C 1.47 g/m*3 -11.5 C 0 km/h
1500 09-01-2009 12:03:55 -11.1 C 1.52 g/m*3 -11.1 C 0 km/h
Sensor: Nr:Datum:Temp:Abs-Feuchte:Windchill:Wind:
Aussen-T/F 1501 09-01-2009 12:15:54 -10.8 C 1.57 g/m*3 -10.8 C 0 km/h
1502 09-01-2009 12:27:54 -10.5 C 1.61 g/m*3 -10.5 C 0 km/h
1503 09-01-2009 12:39:54 -10 C 1.7 g/m*3 -10 C 0 km/h
1504 09-01-2009 12:51:54 -9.6 C 1.77 g/m*3 -9.6 C 0 km/h
1505 09-01-2009 13:03:54 -9 C 1.85 g/m*3 -9 C 0 km/h
1506 09-01-2009 13:15:54 -8.2 C 1.99 g/m*3 -8.2 C 0 km/h
1507 09-01-2009 13:27:54 -8.1 C 1.98 g/m*3 -8.1 C 0 km/h
1508 09-01-2009 13:39:53 -7.7 C 2.04 g/m*3 -7.7 C 0 km/h
1509 09-01-2009 13:51:54 -7 C 2.15 g/m*3 -7 C 0 km/h
1510 09-01-2009 14:03:53 -7.3 C 2.07 g/m*3 -7.3 C 0 km/h
1511 09-01-2009 14:15:53 -7.7 C 1.99 g/m*3 -7.7 C 0 km/h
1512 09-01-2009 14:27:53 -7.8 C 2 g/m*3 -7.8 C 0 km/h
1513 09-01-2009 14:39:53 -7.8 C 2 g/m*3 -7.8 C 0 km/h
1514 09-01-2009 14:51:01 -7.8 C 2.03 g/m*3 -7.8 C 0 km/h
1515 09-01-2009 15:03:02 -7.8 C 2.03 g/m*3 -7.8 C 0 km/h
1516 09-01-2009 15:15:01 -7.9 C 2.04 g/m*3 -7.9 C 0 km/h
1517 09-01-2009 15:27:01 -7.9 C 2.04 g/m*3 -7.9 C 0 km/h
1518 09-01-2009 15:39:01 -7.8 C 2.08 g/m*3 -7.8 C 0 km/h
1519 09-01-2009 15:51:01 -7.8 C 2.08 g/m*3 -7.8 C 0 km/h
1520 09-01-2009 16:03:01 -7.9 C 2.07 g/m*3 -7.9 C 0 km/h
1521 09-01-2009 16:15:00 -8.1 C 2.04 g/m*3 -8.1 C 0 km/h
1522 09-01-2009 16:27:00 -8 C 2.05 g/m*3 -8 C 0 km/h
1523 09-01-2009 16:39:01 -8.1 C 2.06 g/m*3 -8.1 C 0 km/h
1524 09-01-2009 16:51:00 -8.2 C 2.05 g/m*3 -8.2 C 0 km/h
1525 09-01-2009 17:03:00 -8.3 C 2.03 g/m*3 -8.3 C 0 km/h
Sensor: Nr:Datum:Temp:Abs-Feuchte:Windchill:Wind:
Aussen-T/F 1526 09-01-2009 17:15:01 -8.6 C 1.99 g/m*3 -8.6 C 0 km/h
1527 09-01-2009 17:27:01 -8.6 C 1.99 g/m*3 -8.6 C 0 km/h
1528 09-01-2009 17:39:00 -8.7 C 1.97 g/m*3 -8.7 C 0 km/h
1529 09-01-2009 17:51:59 -8.7 C 1.97 g/m*3 -8.7 C 0 km/h
1530 09-01-2009 18:03:00 -9 C 1.93 g/m*3 -9 C 0 km/h
1531 09-01-2009 18:15:00 -9 C 1.93 g/m*3 -9 C 0 km/h
1532 09-01-2009 18:27:00 -9.2 C 1.9 g/m*3 -9.2 C 0 km/h
1533 09-01-2009 18:39:59 -9.3 C 1.89 g/m*3 -9.3 C 0 km/h
1534 09-01-2009 18:51:00 -9.4 C 1.87 g/m*3 -9.4 C 0 km/h
1535 09-01-2009 19:03:59 -9.6 C 1.84 g/m*3 -9.6 C 0 km/h
1536 09-01-2009 19:15:59 -9.7 C 1.83 g/m*3 -9.7 C 0 km/h
1537 09-01-2009 19:28:00 -9.9 C 1.8 g/m*3 -9.9 C 0 km/h
1538 09-01-2009 19:39:58 -10 C 1.77 g/m*3 -10 C 0 km/h
1539 09-01-2009 19:51:59 -10.1 C 1.75 g/m*3 -10.1 C 0 km/h
1540 09-01-2009 20:03:59 -10.3 C 1.73 g/m*3 -10.3 C 0 km/h
1541 09-01-2009 20:15:58 -10.4 C 1.71 g/m*3 -10.4 C 0 km/h
1542 09-01-2009 20:27:58 -10.6 C 1.69 g/m*3 -10.6 C 0 km/h
1543 09-01-2009 20:39:59 -10.7 C 1.68 g/m*3 -10.7 C 0 km/h
1544 09-01-2009 20:51:58 -10.9 C 1.63 g/m*3 -10.9 C 0 km/h
1545 09-01-2009 21:03:58 -11 C 1.62 g/m*3 -11 C 0 km/h
1546 09-01-2009 21:15:58 -11 C 1.62 g/m*3 -11 C 0 km/h
1547 09-01-2009 21:27:58 -11.3 C 1.58 g/m*3 -11.3 C 0 km/h
1548 09-01-2009 21:39:57 -11.3 C 1.56 g/m*3 -11.3 C 0 km/h
1549 09-01-2009 21:51:58 -11.3 C 1.58 g/m*3 -11.3 C 0 km/h
1550 09-01-2009 22:03:58 -11.4 C 1.57 g/m*3 -11.4 C 0 km/h
Sensor: Nr:Datum:Temp:Abs-Feuchte:Windchill:Wind:
Aussen-T/F 1551 09-01-2009 22:15:57 -11.6 C 1.54 g/m*3 -11.6 C 0 km/h
1552 09-01-2009 22:27:57 -11.5 C 1.56 g/m*3 -11.5 C 0 km/h
1553 09-01-2009 22:39:57 -11.5 C 1.56 g/m*3 -11.5 C 0 km/h
1554 09-01-2009 22:51:57 -11.8 C 1.52 g/m*3 -11.8 C 0 km/h
1555 09-01-2009 23:03:57 -11.8 C 1.5 g/m*3 -11.8 C 0 km/h
1556 09-01-2009 23:15:56 -11.9 C 1.49 g/m*3 -11.9 C 0 km/h
1557 09-01-2009 23:27:56 -12 C 1.48 g/m*3 -12 C 0 km/h
1558 09-01-2009 23:39:57 -12.1 C 1.47 g/m*3 -12.1 C 0 km/h
1559 09-01-2009 23:51:56 -12 C 1.48 g/m*3 -12 C 0 km/h
1560 10-01-2009 00:03:56 -12.2 C 1.45 g/m*3 -12.2 C 0 km/h
1561 10-01-2009 00:15:56 -12.4 C 1.41 g/m*3 -12.4 C 0 km/h
1562 10-01-2009 00:27:56 -12.5 C 1.4 g/m*3 -12.5 C 0 km/h
1563 10-01-2009 00:39:56 -12.5 C 1.38 g/m*3 -12.5 C 0 km/h
1564 10-01-2009 00:51:56 -12.6 C 1.37 g/m*3 -12.6 C 0 km/h
1565 10-01-2009 01:03:56 -12.7 C 1.36 g/m*3 -12.7 C 0 km/h
1566 10-01-2009 01:15:56 -12.6 C 1.37 g/m*3 -12.6 C 0 km/h
1567 10-01-2009 01:27:56 -12.6 C 1.37 g/m*3 -12.6 C 0 km/h
1568 10-01-2009 01:39:55 -12.8 C 1.35 g/m*3 -12.8 C 0 km/h
1569 10-01-2009 01:51:56 -12.8 C 1.35 g/m*3 -12.8 C 0 km/h
1570 10-01-2009 02:03:55 -13 C 1.33 g/m*3 -13 C 0 km/h
1571 10-01-2009 02:15:55 -13 C 1.33 g/m*3 -13 C 0 km/h
1572 10-01-2009 02:27:55 -13 C 1.31 g/m*3 -13 C 0 km/h
1573 10-01-2009 02:39:55 -13 C 1.31 g/m*3 -13 C 0 km/h
1574 10-01-2009 02:52:02 -13.1 C 1.3 g/m*3 -13.1 C 0 km/h
1575 10-01-2009 03:04:02 -13.2 C 1.29 g/m*3 -13.2 C 0 km/h
Sensor: Nr:Datum:Temp:Abs-Feuchte:Windchill:Wind:
Aussen-T/F 1576 10-01-2009 03:16:01 -13.4 C 1.27 g/m*3 -13.4 C 0 km/h
1577 10-01-2009 03:28:01 -13.3 C 1.28 g/m*3 -13.3 C 0 km/h
1578 10-01-2009 03:40:02 -13.4 C 1.27 g/m*3 -13.4 C 0 km/h
1579 10-01-2009 03:52:02 -13.5 C 1.26 g/m*3 -13.5 C 0 km/h
1580 10-01-2009 04:04:01 -13.5 C 1.26 g/m*3 -13.5 C 0 km/h
1581 10-01-2009 04:16:01 -13.6 C 1.23 g/m*3 -13.6 C 0 km/h
1582 10-01-2009 04:28:02 -13.8 C 1.21 g/m*3 -13.8 C 0 km/h
1583 10-01-2009 04:40:01 -13.7 C 1.22 g/m*3 -13.7 C 0 km/h
1584 10-01-2009 04:52:01 -13.8 C 1.21 g/m*3 -13.8 C 0 km/h
1585 10-01-2009 05:04:01 -13.9 C 1.19 g/m*3 -13.9 C 0 km/h
1586 10-01-2009 05:16:02 -14 C 1.18 g/m*3 -14 C 0 km/h
1587 10-01-2009 05:28:02 -14 C 1.18 g/m*3 -14 C 0 km/h
1588 10-01-2009 05:40:01 -14 C 1.18 g/m*3 -14 C 0 km/h
1589 10-01-2009 05:52:01 -14 C 1.18 g/m*3 -14 C 0 km/h
1590 10-01-2009 06:04:02 -14.1 C 1.17 g/m*3 -14.1 C 0 km/h
1591 10-01-2009 06:16:01 -14.3 C 1.13 g/m*3 -14.3 C 0 km/h
1592 10-01-2009 06:28:01 -14.3 C 1.13 g/m*3 -14.3 C 0 km/h
1593 10-01-2009 06:40:01 -14.1 C 1.17 g/m*3 -14.1 C 0 km/h
1594 10-01-2009 06:52:01 -14.2 C 1.16 g/m*3 -14.2 C 0 km/h
1595 10-01-2009 07:04:01 -14.4 C 1.13 g/m*3 -14.4 C 0 km/h
1596 10-01-2009 07:16:01 -14.4 C 1.13 g/m*3 -14.4 C 0 km/h
1597 10-01-2009 07:28:01 -14.4 C 1.13 g/m*3 -14.4 C 0 km/h
1598 10-01-2009 07:40:02 -14.5 C 1.12 g/m*3 -14.5 C 0 km/h
1599 10-01-2009 07:52:01 -14.5 C 1.12 g/m*3 -14.5 C 0 km/h
1600 10-01-2009 08:04:02 -14.3 C 1.13 g/m*3 -14.3 C 0 km/h
Sensor: Nr:Datum:Temp:Abs-Feuchte:Windchill:Wind:
Aussen-T/F 1601 10-01-2009 08:16:01 -14.3 C 1.13 g/m*3 -14.3 C 0 km/h
1602 10-01-2009 08:28:01 -14.4 C 1.11 g/m*3 -14.4 C 0 km/h
1603 10-01-2009 08:40:01 -14.5 C 1.1 g/m*3 -14.5 C 0 km/h
1604 10-01-2009 08:52:01 -14.5 C 1.1 g/m*3 -14.5 C 0 km/h
1605 10-01-2009 09:04:02 -14.3 C 1.12 g/m*3 -14.3 C 0 km/h
1606 10-01-2009 09:16:01 -14.3 C 1.12 g/m*3 -14.3 C 0 km/h
1607 10-01-2009 09:28:01 -14.4 C 1.11 g/m*3 -14.4 C 0 km/h
1608 10-01-2009 09:40:01 -14.1 C 1.13 g/m*3 -14.1 C 0 km/h
1609 10-01-2009 09:52:01 -13.8 C 1.18 g/m*3 -13.8 C 0 km/h
1610 10-01-2009 10:04:01 -13.8 C 1.18 g/m*3 -13.8 C 0 km/h
1611 10-01-2009 10:16:01 -13.7 C 1.19 g/m*3 -13.7 C 0 km/h
1612 10-01-2009 10:28:01 -13.4 C 1.22 g/m*3 -13.4 C 0 km/h
1613 10-01-2009 10:40:02 -13.4 C 1.22 g/m*3 -13.4 C 0 km/h
1614 10-01-2009 10:52:01 -13.2 C 1.24 g/m*3 -13.2 C 0 km/h
1615 10-01-2009 11:04:02 -12.9 C 1.28 g/m*3 -12.9 C 0 km/h
1616 10-01-2009 11:16:01 -12.6 C 1.31 g/m*3 -12.6 C 0 km/h
1617 10-01-2009 11:28:01 -12.4 C 1.35 g/m*3 -12.4 C 0 km/h
1618 10-01-2009 11:40:01 -12.1 C 1.39 g/m*3 -12.1 C 0 km/h
1619 10-01-2009 11:52:01 -11.8 C 1.44 g/m*3 -11.8 C 0 km/h
1620 10-01-2009 12:04:01 -11.5 C 1.47 g/m*3 -11.5 C 0 km/h
1621 10-01-2009 12:16:02 -11.2 C 1.53 g/m*3 -11.2 C 0 km/h
1622 10-01-2009 12:28:02 -10.9 C 1.56 g/m*3 -10.9 C 0 km/h
1623 10-01-2009 12:40:01 -10.3 C 1.66 g/m*3 -10.3 C 0 km/h
1624 10-01-2009 12:52:02 -9.6 C 1.77 g/m*3 -9.6 C 0 km/h
1625 10-01-2009 13:04:01 -9 C 1.85 g/m*3 -9 C 0 km/h
Sensor: Nr:Datum:Temp:Abs-Feuchte:Windchill:Wind:
Aussen-T/F 1626 10-01-2009 13:16:02 -8.2 C 1.99 g/m*3 -8.2 C 0 km/h
1627 10-01-2009 13:28:02 -7.6 C 2.08 g/m*3 -7.6 C 0 km/h
1628 10-01-2009 13:40:01 -7 C 2.18 g/m*3 -7 C 0 km/h
1629 10-01-2009 13:52:01 -6.4 C 2.28 g/m*3 -6.4 C 0 km/h
1630 10-01-2009 14:04:01 -6.6 C 2.21 g/m*3 -6.6 C 0 km/h
1631 10-01-2009 14:16:01 -7.1 C 2.1 g/m*3 -7.1 C 0 km/h
1632 10-01-2009 14:28:01 -7.4 C 2.06 g/m*3 -7.4 C 0 km/h
1633 10-01-2009 14:40:02 -7.5 C 2.04 g/m*3 -7.5 C 0 km/h
1634 10-01-2009 14:52:01 -7.5 C 2.07 g/m*3 -7.5 C 0 km/h
1635 10-01-2009 15:04:02 -7.5 C 2.1 g/m*3 -7.5 C 0 km/h
1636 10-01-2009 15:16:01 -7.5 C 2.1 g/m*3 -7.5 C 0 km/h
1637 10-01-2009 15:28:01 -7.4 C 2.14 g/m*3 -7.4 C 0 km/h
1638 10-01-2009 15:40:02 -7.4 C 2.14 g/m*3 -7.4 C 0 km/h
1639 10-01-2009 15:52:01 -7.4 C 2.14 g/m*3 -7.4 C 0 km/h
1640 10-01-2009 16:04:01 -7.3 C 2.19 g/m*3 -7.3 C 0 km/h
1641 10-01-2009 16:16:01 -7.3 C 2.19 g/m*3 -7.3 C 0 km/h
1642 10-01-2009 16:28:01 -7.4 C 2.17 g/m*3 -7.4 C 0 km/h
1643 10-01-2009 16:40:01 -7.7 C 2.1 g/m*3 -7.7 C 0 km/h
1644 10-01-2009 16:52:02 -7.8 C 2.08 g/m*3 -7.8 C 0 km/h
1645 10-01-2009 17:04:01 -8 C 2.08 g/m*3 -8 C 0 km/h
1646 10-01-2009 17:16:01 -8.3 C 2.01 g/m*3 -8.3 C 0 km/h
1647 10-01-2009 17:28:01 -8.5 C 2 g/m*3 -8.5 C 0 km/h
1648 10-01-2009 17:40:01 -8.6 C 1.99 g/m*3 -8.6 C 0 km/h
1649 10-01-2009 17:52:01 -8.8 C 1.96 g/m*3 -8.8 C 0 km/h
1650 10-01-2009 18:04:01 -8.8 C 1.96 g/m*3 -8.8 C 0 km/h
Sensor: Nr:Datum:Temp:Abs-Feuchte:Windchill:Wind:
Aussen-T/F 1651 10-01-2009 18:16:01 -9 C 1.93 g/m*3 -9 C 0 km/h
1652 10-01-2009 18:28:01 -9.2 C 1.9 g/m*3 -9.2 C 0 km/h
1653 10-01-2009 18:40:02 -9.4 C 1.87 g/m*3 -9.4 C 0 km/h
1654 10-01-2009 18:52:01 -9.7 C 1.81 g/m*3 -9.7 C 0 km/h
1655 10-01-2009 19:04:02 -9.6 C 1.84 g/m*3 -9.6 C 0 km/h
1656 10-01-2009 19:16:01 -9.5 C 1.88 g/m*3 -9.5 C 0 km/h
1657 10-01-2009 19:28:01 -9.8 C 1.82 g/m*3 -9.8 C 0 km/h
1658 10-01-2009 19:40:02 -9.9 C 1.8 g/m*3 -9.9 C 0 km/h
1659 10-01-2009 19:52:01 -9.9 C 1.8 g/m*3 -9.9 C 0 km/h
1660 10-01-2009 20:04:02 -10.2 C 1.76 g/m*3 -10.2 C 0 km/h
1661 10-01-2009 20:16:01 -10 C 1.79 g/m*3 -10 C 0 km/h
1662 10-01-2009 20:28:01 -10.2 C 1.76 g/m*3 -10.2 C 0 km/h
1663 10-01-2009 20:40:01 -10.3 C 1.73 g/m*3 -10.3 C 0 km/h
1664 10-01-2009 20:52:01 -10.2 C 1.76 g/m*3 -10.2 C 0 km/h
1665 10-01-2009 21:04:01 -10.1 C 1.78 g/m*3 -10.1 C 0 km/h
1666 10-01-2009 21:16:02 -10 C 1.81 g/m*3 -10 C 0 km/h
1667 10-01-2009 21:28:02 -10.2 C 1.76 g/m*3 -10.2 C 0 km/h
1668 10-01-2009 21:40:01 -9.9 C 1.83 g/m*3 -9.9 C 0 km/h
1669 10-01-2009 21:52:01 -10 C 1.81 g/m*3 -10 C 0 km/h
1670 10-01-2009 22:04:01 -10.4 C 1.74 g/m*3 -10.4 C 0 km/h
1671 10-01-2009 22:16:02 -10.6 C 1.71 g/m*3 -10.6 C 0 km/h
1672 10-01-2009 22:28:02 -10.4 C 1.74 g/m*3 -10.4 C 0 km/h
1673 10-01-2009 22:40:01 -10.7 C 1.7 g/m*3 -10.7 C 0 km/h
1674 10-01-2009 22:52:02 -10.6 C 1.71 g/m*3 -10.6 C 0 km/h
1675 10-01-2009 23:04:47 -10.6 C 1.71 g/m*3 -10.6 C 0 km/h
Sensor: Nr:Datum:Temp:Abs-Feuchte:Windchill:Wind:
Aussen-T/F 1676 10-01-2009 23:16:48 -10.6 C 1.71 g/m*3 -10.6 C 0 km/h
1677 10-01-2009 23:28:48 -10.6 C 1.71 g/m*3 -10.6 C 0 km/h
1678 10-01-2009 23:40:48 -10.9 C 1.65 g/m*3 -10.9 C 0 km/h
1679 10-01-2009 23:52:48 -10.8 C 1.69 g/m*3 -10.8 C 0 km/h
1680 11-01-2009 00:04:48 -10.7 C 1.7 g/m*3 -10.7 C 0 km/h
1681 11-01-2009 00:16:48 -10.6 C 1.73 g/m*3 -10.6 C 0 km/h
1682 11-01-2009 00:28:48 -10.7 C 1.7 g/m*3 -10.7 C 0 km/h
1683 11-01-2009 00:40:48 -11 C 1.66 g/m*3 -11 C 0 km/h
1684 11-01-2009 00:52:48 -11 C 1.64 g/m*3 -11 C 0 km/h
1685 11-01-2009 01:04:48 -11 C 1.64 g/m*3 -11 C 0 km/h
1686 11-01-2009 01:16:48 -11.1 C 1.63 g/m*3 -11.1 C 0 km/h
1687 11-01-2009 01:28:48 -11 C 1.64 g/m*3 -11 C 0 km/h
1688 11-01-2009 01:40:48 -11.1 C 1.63 g/m*3 -11.1 C 0 km/h
1689 11-01-2009 01:52:48 -11.5 C 1.56 g/m*3 -11.5 C 0 km/h
1690 11-01-2009 02:04:48 -11.5 C 1.56 g/m*3 -11.5 C 0 km/h
1691 11-01-2009 02:16:48 -11.5 C 1.56 g/m*3 -11.5 C 0 km/h
1692 11-01-2009 02:28:48 -11.6 C 1.54 g/m*3 -11.6 C 0 km/h
1693 11-01-2009 02:40:48 -11.3 C 1.6 g/m*3 -11.3 C 0 km/h
1694 11-01-2009 02:52:48 -11.3 C 1.6 g/m*3 -11.3 C 0 km/h
1695 11-01-2009 03:04:49 -11.2 C 1.61 g/m*3 -11.2 C 0 km/h
1696 11-01-2009 03:16:49 -11.5 C 1.58 g/m*3 -11.5 C 0 km/h
1697 11-01-2009 03:28:49 -11.5 C 1.58 g/m*3 -11.5 C 0 km/h
1698 11-01-2009 03:40:49 -11.4 C 1.59 g/m*3 -11.4 C 0 km/h
1699 11-01-2009 03:52:49 -11.5 C 1.58 g/m*3 -11.5 C 0 km/h
1700 11-01-2009 04:04:49 -11.7 C 1.55 g/m*3 -11.7 C 0 km/h
Sensor: Nr:Datum:Temp:Abs-Feuchte:Windchill:Wind:
Aussen-T/F 1701 11-01-2009 04:16:49 -11.7 C 1.53 g/m*3 -11.7 C 0 km/h
1702 11-01-2009 04:28:49 -11.7 C 1.53 g/m*3 -11.7 C 0 km/h
1703 11-01-2009 04:40:49 -11.7 C 1.53 g/m*3 -11.7 C 0 km/h
1704 11-01-2009 04:52:49 -11.9 C 1.51 g/m*3 -11.9 C 0 km/h
1705 11-01-2009 05:04:49 -12 C 1.5 g/m*3 -12 C 0 km/h
1706 11-01-2009 05:16:49 -11.9 C 1.49 g/m*3 -11.9 C 0 km/h
1707 11-01-2009 05:28:49 -12 C 1.48 g/m*3 -12 C 0 km/h
1708 11-01-2009 05:40:49 -12.2 C 1.45 g/m*3 -12.2 C 0 km/h
1709 11-01-2009 05:52:49 -12.1 C 1.47 g/m*3 -12.1 C 0 km/h
1710 11-01-2009 06:04:49 -12.1 C 1.47 g/m*3 -12.1 C 0 km/h
1711 11-01-2009 06:16:49 -12.2 C 1.45 g/m*3 -12.2 C 0 km/h
1712 11-01-2009 06:28:49 -12.3 C 1.44 g/m*3 -12.3 C 0 km/h
1713 11-01-2009 06:40:49 -12.3 C 1.44 g/m*3 -12.3 C 0 km/h
1714 11-01-2009 06:52:50 -12.1 C 1.49 g/m*3 -12.1 C 0 km/h
1715 11-01-2009 07:04:50 -12.1 C 1.49 g/m*3 -12.1 C 0 km/h
1716 11-01-2009 07:16:50 -12.2 C 1.47 g/m*3 -12.2 C 0 km/h
1717 11-01-2009 07:28:50 -12.3 C 1.44 g/m*3 -12.3 C 0 km/h
1718 11-01-2009 07:40:50 -12.3 C 1.44 g/m*3 -12.3 C 0 km/h
1719 11-01-2009 07:52:50 -12.1 C 1.49 g/m*3 -12.1 C 0 km/h
1720 11-01-2009 08:04:50 -12.3 C 1.46 g/m*3 -12.3 C 0 km/h
1721 11-01-2009 08:16:50 -12.3 C 1.44 g/m*3 -12.3 C 0 km/h
1722 11-01-2009 08:28:50 -12.4 C 1.43 g/m*3 -12.4 C 0 km/h
1723 11-01-2009 08:40:50 -12.5 C 1.42 g/m*3 -12.5 C 0 km/h
1724 11-01-2009 08:52:46 -12.3 C 1.44 g/m*3 -12.3 C 0 km/h
1725 11-01-2009 09:04:46 -12.2 C 1.45 g/m*3 -12.2 C 0 km/h
Sensor: Nr:Datum:Temp:Abs-Feuchte:Windchill:Wind:
Aussen-T/F 1726 11-01-2009 09:16:47 -12.1 C 1.47 g/m*3 -12.1 C 0 km/h
1727 11-01-2009 09:28:47 -11.7 C 1.53 g/m*3 -11.7 C 0 km/h
1728 11-01-2009 09:40:46 -11.3 C 1.58 g/m*3 -11.3 C 0 km/h
1729 11-01-2009 09:52:46 -11.2 C 1.59 g/m*3 -11.2 C 0 km/h
1730 11-01-2009 10:04:45 -10.9 C 1.63 g/m*3 -10.9 C 0 km/h
1731 11-01-2009 10:16:45 -10.9 C 1.63 g/m*3 -10.9 C 0 km/h
1732 11-01-2009 10:28:45 -10.6 C 1.67 g/m*3 -10.6 C 0 km/h
1733 11-01-2009 10:40:46 -10.2 C 1.72 g/m*3 -10.2 C 0 km/h
1734 11-01-2009 10:52:45 -10.1 C 1.73 g/m*3 -10.1 C 0 km/h
1735 11-01-2009 11:04:45 -10.1 C 1.73 g/m*3 -10.1 C 0 km/h
1736 11-01-2009 11:16:45 -10 C 1.77 g/m*3 -10 C 0 km/h
1737 11-01-2009 11:28:45 -9.8 C 1.79 g/m*3 -9.8 C 0 km/h
1738 11-01-2009 11:40:45 -9.4 C 1.87 g/m*3 -9.4 C 0 km/h
1739 11-01-2009 11:52:45 -9.1 C 1.92 g/m*3 -9.1 C 0 km/h
1740 11-01-2009 12:04:44 -8.6 C 2.01 g/m*3 -8.6 C 0 km/h
1741 11-01-2009 12:16:45 -8.2 C 2.1 g/m*3 -8.2 C 0 km/h
1742 11-01-2009 12:28:45 -7.8 C 2.19 g/m*3 -7.8 C 0 km/h
1743 11-01-2009 12:40:44 -7 C 2.36 g/m*3 -7 C 0 km/h
1744 11-01-2009 12:52:44 -6.4 C 2.49 g/m*3 -6.4 C 0 km/h
1745 11-01-2009 13:04:44 -5.8 C 2.57 g/m*3 -5.8 C 0 km/h
1746 11-01-2009 13:16:44 -5.1 C 2.7 g/m*3 -5.1 C 0 km/h
1747 11-01-2009 13:28:44 -4.7 C 2.75 g/m*3 -4.7 C 0 km/h
1748 11-01-2009 13:40:44 -4.1 C 2.8 g/m*3 -4.1 C 0 km/h
1749 11-01-2009 13:52:44 -3.4 C 2.9 g/m*3 -3.4 C 0 km/h
1750 11-01-2009 14:04:44 -3.4 C 2.79 g/m*3 -3.4 C 0 km/h
Sensor: Nr:Datum:Temp:Abs-Feuchte:Windchill:Wind:
Aussen-T/F 1751 11-01-2009 14:16:43 -4 C 2.63 g/m*3 -4 C 0 km/h
1752 11-01-2009 14:28:43 -4.2 C 2.63 g/m*3 -4.2 C 0 km/h
1753 11-01-2009 14:40:43 -4.3 C 2.65 g/m*3 -4.3 C 0 km/h
1754 11-01-2009 14:52:43 -4.4 C 2.67 g/m*3 -4.4 C 0 km/h
1755 11-01-2009 15:04:43 -4.4 C 2.67 g/m*3 -4.4 C 0 km/h
1756 11-01-2009 15:16:42 -4.4 C 2.67 g/m*3 -4.4 C 0 km/h
1757 11-01-2009 15:28:42 -4.4 C 2.7 g/m*3 -4.4 C 0 km/h
1758 11-01-2009 15:40:42 -4.4 C 2.67 g/m*3 -4.4 C 0 km/h
1759 11-01-2009 15:52:43 -4.2 C 2.7 g/m*3 -4.2 C 0 km/h
1760 11-01-2009 16:04:42 -4.1 C 2.72 g/m*3 -4.1 C 0 km/h
1761 11-01-2009 16:16:42 -4.2 C 2.74 g/m*3 -4.2 C 0 km/h
1762 11-01-2009 16:28:42 -4.5 C 2.68 g/m*3 -4.5 C 0 km/h
1763 11-01-2009 16:40:42 -4.6 C 2.66 g/m*3 -4.6 C 0 km/h
1764 11-01-2009 16:52:42 -4.6 C 2.66 g/m*3 -4.6 C 0 km/h
1765 11-01-2009 17:04:02 -4.7 C 2.64 g/m*3 -4.7 C 0 km/h
1766 11-01-2009 17:16:02 -4.8 C 2.63 g/m*3 -4.8 C 0 km/h
1767 11-01-2009 17:28:02 -5.2 C 2.58 g/m*3 -5.2 C 0 km/h
1768 11-01-2009 17:40:01 -5.2 C 2.58 g/m*3 -5.2 C 0 km/h
1769 11-01-2009 17:52:02 -5.3 C 2.57 g/m*3 -5.3 C 0 km/h
1770 11-01-2009 18:04:01 -5.8 C 2.47 g/m*3 -5.8 C 0 km/h
1771 11-01-2009 18:16:01 -6.2 C 2.4 g/m*3 -6.2 C 0 km/h
1772 11-01-2009 18:28:01 -6.2 C 2.4 g/m*3 -6.2 C 0 km/h
1773 11-01-2009 18:40:01 -6.4 C 2.37 g/m*3 -6.4 C 0 km/h
1774 11-01-2009 18:52:01 -6.5 C 2.38 g/m*3 -6.5 C 0 km/h
1775 11-01-2009 19:04:01 -6.5 C 2.38 g/m*3 -6.5 C 0 km/h
Sensor: Nr:Datum:Temp:Abs-Feuchte:Windchill:Wind:
Aussen-T/F 1776 11-01-2009 19:16:01 -6.9 C 2.31 g/m*3 -6.9 C 0 km/h
1777 11-01-2009 19:28:01 -7.2 C 2.23 g/m*3 -7.2 C 0 km/h
1778 11-01-2009 19:40:01 -7.4 C 2.23 g/m*3 -7.4 C 0 km/h
1779 11-01-2009 19:52:00 -7.6 C 2.2 g/m*3 -7.6 C 0 km/h
1780 11-01-2009 20:04:01 -7.8 C 2.16 g/m*3 -7.8 C 0 km/h
1781 11-01-2009 20:16:00 -7.9 C 2.15 g/m*3 -7.9 C 0 km/h
1782 11-01-2009 20:28:00 -7.9 C 2.15 g/m*3 -7.9 C 0 km/h
1783 11-01-2009 20:40:00 -8 C 2.13 g/m*3 -8 C 0 km/h
1784 11-01-2009 20:52:00 -8.1 C 2.12 g/m*3 -8.1 C 0 km/h
1785 11-01-2009 21:04:00 -8.2 C 2.1 g/m*3 -8.2 C 0 km/h
1786 11-01-2009 21:16:59 -8.3 C 2.09 g/m*3 -8.3 C 0 km/h
1787 11-01-2009 21:27:59 -8.3 C 2.09 g/m*3 -8.3 C 0 km/h
1788 11-01-2009 21:40:00 -8.6 C 2.04 g/m*3 -8.6 C 0 km/h
1789 11-01-2009 21:52:00 -8.7 C 2.03 g/m*3 -8.7 C 0 km/h
1790 11-01-2009 22:04:59 -9 C 1.98 g/m*3 -9 C 0 km/h
1791 11-01-2009 22:16:59 -9.2 C 1.93 g/m*3 -9.2 C 0 km/h
1792 11-01-2009 22:29:00 -9.2 C 1.95 g/m*3 -9.2 C 0 km/h
1793 11-01-2009 22:40:58 -9.3 C 1.91 g/m*3 -9.3 C 0 km/h
1794 11-01-2009 22:52:59 -9.5 C 1.88 g/m*3 -9.5 C 0 km/h
1795 11-01-2009 23:04:59 -9.5 C 1.91 g/m*3 -9.5 C 0 km/h
1796 11-01-2009 23:16:58 -9.5 C 1.91 g/m*3 -9.5 C 0 km/h
1797 11-01-2009 23:28:58 -9.7 C 1.88 g/m*3 -9.7 C 0 km/h
1798 11-01-2009 23:40:59 -9.7 C 1.88 g/m*3 -9.7 C 0 km/h
1799 11-01-2009 23:53:00 -9.9 C 1.83 g/m*3 -9.9 C 0 km/h
1800 12-01-2009 00:05:00 -9.7 C 1.88 g/m*3 -9.7 C 0 km/h
Sensor: Nr:Datum:Temp:Abs-Feuchte:Windchill:Wind:
Aussen-T/F 1801 12-01-2009 00:17:00 -10 C 1.84 g/m*3 -10 C 0 km/h
1802 12-01-2009 00:29:00 -10.2 C 1.79 g/m*3 -10.2 C 0 km/h
1803 12-01-2009 00:41:00 -10.3 C 1.77 g/m*3 -10.3 C 0 km/h
1804 12-01-2009 00:53:00 -10.5 C 1.75 g/m*3 -10.5 C 0 km/h
1805 12-01-2009 01:05:01 -10.6 C 1.73 g/m*3 -10.6 C 0 km/h
1806 12-01-2009 01:17:01 -10.7 C 1.7 g/m*3 -10.7 C 0 km/h
1807 12-01-2009 01:29:01 -10.7 C 1.7 g/m*3 -10.7 C 0 km/h
1808 12-01-2009 01:41:01 -10.6 C 1.73 g/m*3 -10.6 C 0 km/h
1809 12-01-2009 01:53:01 -10.6 C 1.71 g/m*3 -10.6 C 0 km/h
1810 12-01-2009 02:05:01 -10.8 C 1.69 g/m*3 -10.8 C 0 km/h
1811 12-01-2009 02:17:01 -10.8 C 1.69 g/m*3 -10.8 C 0 km/h
1812 12-01-2009 02:29:01 -11 C 1.66 g/m*3 -11 C 0 km/h
1813 12-01-2009 02:41:01 -11 C 1.66 g/m*3 -11 C 0 km/h
1814 12-01-2009 02:53:01 -11.1 C 1.65 g/m*3 -11.1 C 0 km/h
1815 12-01-2009 03:05:01 -11.2 C 1.61 g/m*3 -11.2 C 0 km/h
1816 12-01-2009 03:17:01 -11.1 C 1.63 g/m*3 -11.1 C 0 km/h
1817 12-01-2009 03:29:01 -11.1 C 1.63 g/m*3 -11.1 C 0 km/h
1818 12-01-2009 03:41:01 -11.1 C 1.63 g/m*3 -11.1 C 0 km/h
1819 12-01-2009 03:53:01 -11.2 C 1.61 g/m*3 -11.2 C 0 km/h
1820 12-01-2009 04:05:01 -11.3 C 1.6 g/m*3 -11.3 C 0 km/h
1821 12-01-2009 04:17:01 -11.3 C 1.6 g/m*3 -11.3 C 0 km/h
1822 12-01-2009 04:29:01 -11.2 C 1.61 g/m*3 -11.2 C 0 km/h
1823 12-01-2009 04:41:01 -11.2 C 1.61 g/m*3 -11.2 C 0 km/h
1824 12-01-2009 04:53:01 -11.4 C 1.57 g/m*3 -11.4 C 0 km/h
1825 12-01-2009 05:05:02 -11.4 C 1.57 g/m*3 -11.4 C 0 km/h
Sensor: Nr:Datum:Temp:Abs-Feuchte:Windchill:Wind:
Aussen-T/F 1826 12-01-2009 05:17:02 -11.5 C 1.56 g/m*3 -11.5 C 0 km/h
1827 12-01-2009 05:29:02 -11.5 C 1.56 g/m*3 -11.5 C 0 km/h
1828 12-01-2009 05:41:02 -11.5 C 1.56 g/m*3 -11.5 C 0 km/h
1829 12-01-2009 05:53:02 -11.4 C 1.57 g/m*3 -11.4 C 0 km/h
1830 12-01-2009 06:05:02 -11.3 C 1.58 g/m*3 -11.3 C 0 km/h
1831 12-01-2009 06:17:02 -11.2 C 1.61 g/m*3 -11.2 C 0 km/h
1832 12-01-2009 06:29:02 -11.4 C 1.59 g/m*3 -11.4 C 0 km/h
1833 12-01-2009 06:41:02 -11.5 C 1.56 g/m*3 -11.5 C 0 km/h
1834 12-01-2009 06:53:02 -11.5 C 1.58 g/m*3 -11.5 C 0 km/h
1835 12-01-2009 07:05:00 -11.6 C 1.54 g/m*3 -11.6 C 0 km/h
1836 12-01-2009 07:17:00 -11.7 C 1.53 g/m*3 -11.7 C 0 km/h
1837 12-01-2009 07:29:00 -11.8 C 1.52 g/m*3 -11.8 C 0 km/h
1838 12-01-2009 07:41:59 -11.8 C 1.5 g/m*3 -11.8 C 0 km/h
1839 12-01-2009 07:53:00 -11.9 C 1.49 g/m*3 -11.9 C 0 km/h
1840 12-01-2009 08:05:59 -11.7 C 1.51 g/m*3 -11.7 C 0 km/h
1841 12-01-2009 08:17:59 -11.7 C 1.53 g/m*3 -11.7 C 0 km/h
1842 12-01-2009 08:29:59 -11.7 C 1.53 g/m*3 -11.7 C 0 km/h
1843 12-01-2009 08:41:58 -11.7 C 1.53 g/m*3 -11.7 C 0 km/h
1844 12-01-2009 08:53:59 -11.7 C 1.53 g/m*3 -11.7 C 0 km/h
1845 12-01-2009 09:05:58 -11.7 C 1.53 g/m*3 -11.7 C 0 km/h
1846 12-01-2009 09:17:58 -11.5 C 1.56 g/m*3 -11.5 C 0 km/h
1847 12-01-2009 09:29:59 -11.3 C 1.58 g/m*3 -11.3 C 0 km/h
1848 12-01-2009 09:41:58 -11.3 C 1.56 g/m*3 -11.3 C 0 km/h
1849 12-01-2009 09:53:58 -11.1 C 1.58 g/m*3 -11.1 C 0 km/h
1850 12-01-2009 10:05:57 -10.9 C 1.63 g/m*3 -10.9 C 0 km/h
Sensor: Nr:Datum:Temp:Abs-Feuchte:Windchill:Wind:
Aussen-T/F 1851 12-01-2009 10:17:58 -10.6 C 1.67 g/m*3 -10.6 C 0 km/h
1852 12-01-2009 10:29:58 -10.4 C 1.69 g/m*3 -10.4 C 0 km/h
1853 12-01-2009 10:41:58 -10.2 C 1.72 g/m*3 -10.2 C 0 km/h
1854 12-01-2009 10:53:57 -9.8 C 1.79 g/m*3 -9.8 C 0 km/h
1855 12-01-2009 11:05:58 -9.7 C 1.81 g/m*3 -9.7 C 0 km/h
1856 12-01-2009 11:17:57 -9.4 C 1.85 g/m*3 -9.4 C 0 km/h
1857 12-01-2009 11:29:57 -8.9 C 1.97 g/m*3 -8.9 C 0 km/h
1858 12-01-2009 11:41:57 -8.6 C 2.01 g/m*3 -8.6 C 0 km/h
1859 12-01-2009 11:53:56 -8.1 C 2.12 g/m*3 -8.1 C 0 km/h
1860 12-01-2009 12:05:57 -7.7 C 2.21 g/m*3 -7.7 C 0 km/h
1861 12-01-2009 12:17:57 -7.3 C 2.3 g/m*3 -7.3 C 0 km/h
1862 12-01-2009 12:29:57 -7.2 C 2.32 g/m*3 -7.2 C 0 km/h
1863 12-01-2009 12:41:56 -6.6 C 2.46 g/m*3 -6.6 C 0 km/h
1864 12-01-2009 12:53:57 -5.9 C 2.58 g/m*3 -5.9 C 0 km/h
1865 12-01-2009 13:05:56 -4.9 C 2.78 g/m*3 -4.9 C 0 km/h
1866 12-01-2009 13:17:56 -4.1 C 2.87 g/m*3 -4.1 C 0 km/h
1867 12-01-2009 13:29:56 -3.3 C 3 g/m*3 -3.3 C 0 km/h
1868 12-01-2009 13:41:55 -3.2 C 2.9 g/m*3 -3.2 C 0 km/h
1869 12-01-2009 13:53:56 -2.8 C 2.91 g/m*3 -2.8 C 0 km/h
1870 12-01-2009 14:05:55 -2.6 C 2.87 g/m*3 -2.6 C 0 km/h
1871 12-01-2009 14:17:55 -3 C 2.75 g/m*3 -3 C 0 km/h
1872 12-01-2009 14:29:55 -3.1 C 2.77 g/m*3 -3.1 C 0 km/h
1873 12-01-2009 14:41:56 -3 C 2.83 g/m*3 -3 C 0 km/h
1874 12-01-2009 14:53:55 -2.9 C 2.85 g/m*3 -2.9 C 0 km/h
1875 12-01-2009 15:05:55 -2.8 C 2.91 g/m*3 -2.8 C 0 km/h
Sensor: Nr:Datum:Temp:Abs-Feuchte:Windchill:Wind:
Aussen-T/F 1876 12-01-2009 15:17:55 -2.7 C 2.93 g/m*3 -2.7 C 0 km/h
1877 12-01-2009 15:29:55 -2.6 C 2.87 g/m*3 -2.6 C 0 km/h
1878 12-01-2009 15:41:55 -2.7 C 2.89 g/m*3 -2.7 C 0 km/h
1879 12-01-2009 15:53:54 -2.7 C 2.89 g/m*3 -2.7 C 0 km/h
1880 12-01-2009 16:05:55 -2.8 C 2.87 g/m*3 -2.8 C 0 km/h
1881 12-01-2009 16:17:54 -2.8 C 2.87 g/m*3 -2.8 C 0 km/h
1882 12-01-2009 16:29:54 -2.9 C 2.89 g/m*3 -2.9 C 0 km/h
1883 12-01-2009 16:41:54 -2.9 C 2.89 g/m*3 -2.9 C 0 km/h
1884 12-01-2009 16:53:53 -2.8 C 2.91 g/m*3 -2.8 C 0 km/h
1885 12-01-2009 17:05:54 -2.8 C 2.95 g/m*3 -2.8 C 0 km/h
1886 12-01-2009 17:17:54 -2.8 C 2.99 g/m*3 -2.8 C 0 km/h
1887 12-01-2009 17:29:54 -3 C 2.95 g/m*3 -3 C 0 km/h
1888 12-01-2009 17:41:53 -3 C 2.99 g/m*3 -3 C 0 km/h
1889 12-01-2009 17:53:54 -3 C 2.95 g/m*3 -3 C 0 km/h
1890 12-01-2009 18:05:53 -3 C 2.91 g/m*3 -3 C 0 km/h
1891 12-01-2009 18:17:53 -3.1 C 2.81 g/m*3 -3.1 C 0 km/h
1892 12-01-2009 18:29:54 -3.3 C 2.81 g/m*3 -3.3 C 0 km/h
1893 12-01-2009 18:41:52 -3.4 C 2.79 g/m*3 -3.4 C 0 km/h
1894 12-01-2009 18:53:53 -3.3 C 2.81 g/m*3 -3.3 C 0 km/h
1895 12-01-2009 19:05:52 -3.5 C 2.77 g/m*3 -3.5 C 0 km/h
1896 12-01-2009 19:17:52 -3.6 C 2.75 g/m*3 -3.6 C 0 km/h
1897 12-01-2009 19:29:52 -3.7 C 2.77 g/m*3 -3.7 C 0 km/h
1898 12-01-2009 19:41:53 -3.6 C 2.82 g/m*3 -3.6 C 0 km/h
1899 12-01-2009 19:53:52 -3.5 C 2.77 g/m*3 -3.5 C 0 km/h
1900 12-01-2009 20:05:52 -3.6 C 2.75 g/m*3 -3.6 C 0 km/h
Sensor: Nr:Datum:Temp:Abs-Feuchte:Windchill:Wind:
Aussen-T/F 1901 12-01-2009 20:17:52 -3.6 C 2.71 g/m*3 -3.6 C 0 km/h
1902 12-01-2009 20:29:52 -3.7 C 2.65 g/m*3 -3.7 C 0 km/h
1903 12-01-2009 20:41:52 -3.8 C 2.71 g/m*3 -3.8 C 0 km/h
1904 12-01-2009 20:53:51 -3.8 C 2.75 g/m*3 -3.8 C 0 km/h
1905 12-01-2009 21:05:52 -3.7 C 2.77 g/m*3 -3.7 C 0 km/h
1906 12-01-2009 21:17:51 -3.6 C 2.82 g/m*3 -3.6 C 0 km/h
1907 12-01-2009 21:29:51 -3.5 C 2.84 g/m*3 -3.5 C 0 km/h
1908 12-01-2009 21:41:51 -3.6 C 2.79 g/m*3 -3.6 C 0 km/h
1909 12-01-2009 21:53:51 -3.8 C 2.75 g/m*3 -3.8 C 0 km/h
1910 12-01-2009 22:06:06 -3.8 C 2.75 g/m*3 -3.8 C 0 km/h
1911 12-01-2009 22:18:06 -4 C 2.67 g/m*3 -4 C 0 km/h
1912 12-01-2009 22:30:06 -4 C 2.67 g/m*3 -4 C 0 km/h
1913 12-01-2009 22:42:06 -4.1 C 2.65 g/m*3 -4.1 C 0 km/h
1914 12-01-2009 22:54:06 -4.2 C 2.63 g/m*3 -4.2 C 0 km/h
1915 12-01-2009 23:06:06 -4.3 C 2.61 g/m*3 -4.3 C 0 km/h
1916 12-01-2009 23:18:06 -4.2 C 2.63 g/m*3 -4.2 C 0 km/h
1917 12-01-2009 23:30:06 -4 C 2.74 g/m*3 -4 C 0 km/h
1918 12-01-2009 23:42:06 -3.9 C 2.8 g/m*3 -3.9 C 0 km/h
1919 12-01-2009 23:54:06 -3.7 C 2.84 g/m*3 -3.7 C 0 km/h
1920 13-01-2009 00:06:06 -3.6 C 2.86 g/m*3 -3.6 C 0 km/h
1921 13-01-2009 00:18:06 -3.5 C 2.88 g/m*3 -3.5 C 0 km/h
1922 13-01-2009 00:30:06 -3.4 C 2.9 g/m*3 -3.4 C 0 km/h
1923 13-01-2009 00:42:06 -3.4 C 2.9 g/m*3 -3.4 C 0 km/h
1924 13-01-2009 00:54:06 -3.3 C 2.92 g/m*3 -3.3 C 0 km/h
1925 13-01-2009 01:06:06 -3.1 C 2.96 g/m*3 -3.1 C 0 km/h
Sensor: Nr:Datum:Temp:Abs-Feuchte:Windchill:Wind:
Aussen-T/F 1926 13-01-2009 01:18:07 -3 C 2.95 g/m*3 -3 C 0 km/h
1927 13-01-2009 01:30:07 -2.9 C 3.01 g/m*3 -2.9 C 0 km/h
1928 13-01-2009 01:42:07 -2.9 C 2.97 g/m*3 -2.9 C 0 km/h
1929 13-01-2009 01:54:07 -2.8 C 2.99 g/m*3 -2.8 C 0 km/h
1930 13-01-2009 02:06:07 -2.8 C 2.99 g/m*3 -2.8 C 0 km/h
1931 13-01-2009 02:18:07 -2.8 C 3.03 g/m*3 -2.8 C 0 km/h
1932 13-01-2009 02:30:07 -2.6 C 3.07 g/m*3 -2.6 C 0 km/h
1933 13-01-2009 02:42:07 -2.4 C 3.11 g/m*3 -2.4 C 0 km/h
1934 13-01-2009 02:54:07 -2.2 C 3.16 g/m*3 -2.2 C 0 km/h
1935 13-01-2009 03:06:07 -2.1 C 3.18 g/m*3 -2.1 C 0 km/h
1936 13-01-2009 03:18:07 -2 C 3.16 g/m*3 -2 C 0 km/h
1937 13-01-2009 03:30:07 -1.8 C 3.16 g/m*3 -1.8 C 0 km/h
1938 13-01-2009 03:42:07 -1.5 C 3.19 g/m*3 -1.5 C 0 km/h
1939 13-01-2009 03:54:07 -1.3 C 3.14 g/m*3 -1.3 C 0 km/h
1940 13-01-2009 04:06:07 -1.4 C 3.12 g/m*3 -1.4 C 0 km/h
1941 13-01-2009 04:18:07 -1.6 C 3.12 g/m*3 -1.6 C 0 km/h
1942 13-01-2009 04:30:07 -1.6 C 3.12 g/m*3 -1.6 C 0 km/h
1943 13-01-2009 04:42:07 -1.4 C 3.21 g/m*3 -1.4 C 0 km/h
1944 13-01-2009 04:54:07 -1.2 C 3.21 g/m*3 -1.2 C 0 km/h
1945 13-01-2009 05:06:07 -1.4 C 3.17 g/m*3 -1.4 C 0 km/h
1946 13-01-2009 05:18:08 -1.3 C 3.23 g/m*3 -1.3 C 0 km/h
1947 13-01-2009 05:30:08 -1.2 C 3.3 g/m*3 -1.2 C 0 km/h
1948 13-01-2009 05:42:08 -1.2 C 3.34 g/m*3 -1.2 C 0 km/h
1949 13-01-2009 05:54:08 -1.3 C 3.32 g/m*3 -1.3 C 0 km/h
1950 13-01-2009 06:06:08 -1.2 C 3.34 g/m*3 -1.2 C 0 km/h
Sensor: Nr:Datum:Temp:Abs-Feuchte:Windchill:Wind:
Aussen-T/F 1951 13-01-2009 06:18:08 -1.2 C 3.34 g/m*3 -1.2 C 0 km/h
1952 13-01-2009 06:30:08 -0.9 C 3.28 g/m*3 -0.9 C 0 km/h
1953 13-01-2009 06:42:08 -0.9 C 3.23 g/m*3 -0.9 C 0 km/h
1954 13-01-2009 06:54:08 -0.9 C 3.28 g/m*3 -0.9 C 0 km/h
1955 13-01-2009 07:06:08 -0.9 C 3.28 g/m*3 -0.9 C 0 km/h
1956 13-01-2009 07:18:52 -0.9 C 3.28 g/m*3 -0.9 C 0 km/h
1957 13-01-2009 07:30:52 -0.9 C 3.28 g/m*3 -0.9 C 0 km/h
1958 13-01-2009 07:42:52 -0.6 C 3.39 g/m*3 -0.6 C 0 km/h
1959 13-01-2009 07:54:51 -0.6 C 3.39 g/m*3 -0.6 C 0 km/h
1960 13-01-2009 08:06:51 -0.5 C 3.42 g/m*3 -0.5 C 0 km/h
1961 13-01-2009 08:18:51 -0.4 C 3.49 g/m*3 -0.4 C 0 km/h
1962 13-01-2009 08:30:51 -0.3 C 3.51 g/m*3 -0.3 C 0 km/h
1963 13-01-2009 08:42:51 -0.3 C 3.46 g/m*3 -0.3 C 0 km/h
1964 13-01-2009 08:54:51 -0.1 C 3.42 g/m*3 -0.1 C 0 km/h
1965 13-01-2009 09:06:50 0.2 C 3.44 g/m*3 0.2 C 0 km/h
1966 13-01-2009 09:18:50 0.4 C 3.44 g/m*3 0.4 C 0 km/h
1967 13-01-2009 09:30:51 0.6 C 3.43 g/m*3 0.6 C 0 km/h
1968 13-01-2009 09:42:51 0.7 C 3.41 g/m*3 0.7 C 0 km/h
1969 13-01-2009 09:54:50 0.8 C 3.43 g/m*3 0.8 C 0 km/h
1970 13-01-2009 10:06:50 1 C 3.43 g/m*3 1 C 0 km/h
1971 13-01-2009 10:18:50 1.2 C 3.42 g/m*3 1.2 C 0 km/h
1972 13-01-2009 10:30:50 1.4 C 3.41 g/m*3 1.4 C 0 km/h
1973 13-01-2009 10:42:50 1.5 C 3.38 g/m*3 1.5 C 0 km/h
1974 13-01-2009 10:54:49 2.1 C 3.36 g/m*3 2.1 C 0 km/h
1975 13-01-2009 11:06:50 2.4 C 3.43 g/m*3 2.4 C 0 km/h
Sensor: Nr:Datum:Temp:Abs-Feuchte:Windchill:Wind:
Aussen-T/F 1976 13-01-2009 11:18:49 2.7 C 3.32 g/m*3 2.7 C 0 km/h
1977 13-01-2009 11:30:49 3.1 C 3.29 g/m*3 3.1 C 0 km/h
1978 13-01-2009 11:42:49 3.3 C 3.15 g/m*3 3.3 C 0 km/h
1979 13-01-2009 11:54:49 3.3 C 3.09 g/m*3 3.3 C 0 km/h
1980 13-01-2009 12:06:49 3.6 C 3.16 g/m*3 3.6 C 0 km/h
1981 13-01-2009 12:18:49 3.7 C 3.3 g/m*3 3.7 C 0 km/h
1982 13-01-2009 12:30:48 3.8 C 3.39 g/m*3 3.8 C 0 km/h
1983 13-01-2009 12:42:48 3.7 C 3.37 g/m*3 3.7 C 0 km/h
1984 13-01-2009 12:54:48 3.7 C 3.3 g/m*3 3.7 C 0 km/h
1985 13-01-2009 13:06:48 3.8 C 3.45 g/m*3 3.8 C 0 km/h
1986 13-01-2009 13:18:49 3.8 C 3.45 g/m*3 3.8 C 0 km/h
1987 13-01-2009 13:30:48 3.9 C 3.47 g/m*3 3.9 C 0 km/h
1988 13-01-2009 13:42:48 3.9 C 3.47 g/m*3 3.9 C 0 km/h
1989 13-01-2009 13:54:48 3.9 C 3.47 g/m*3 3.9 C 0 km/h
1990 13-01-2009 14:06:47 3.8 C 3.45 g/m*3 3.8 C 0 km/h
1991 13-01-2009 14:18:48 3.7 C 3.43 g/m*3 3.7 C 0 km/h
1992 13-01-2009 14:30:47 3.7 C 3.43 g/m*3 3.7 C 0 km/h
1993 13-01-2009 14:42:47 3.5 C 3.44 g/m*3 3.5 C 0 km/h
1994 13-01-2009 14:54:47 3.4 C 3.48 g/m*3 3.4 C 0 km/h
1995 13-01-2009 15:06:47 3.4 C 3.42 g/m*3 3.4 C 0 km/h
1996 13-01-2009 15:18:47 3.3 C 3.46 g/m*3 3.3 C 0 km/h
1997 13-01-2009 15:30:47 3.2 C 3.43 g/m*3 3.2 C 0 km/h
1998 13-01-2009 15:42:47 3 C 3.45 g/m*3 3 C 0 km/h
1999 13-01-2009 15:54:47 2.8 C 3.52 g/m*3 2.8 C 0 km/h
2000 13-01-2009 16:06:47 2.7 C 3.55 g/m*3 2.7 C 0 km/h
Sensor: Nr:Datum:Temp:Abs-Feuchte:Windchill:Wind:
Aussen-T/F 2001 13-01-2009 16:18:46 2.4 C 3.48 g/m*3 2.4 C 0 km/h
2002 13-01-2009 16:30:46 2.2 C 3.49 g/m*3 2.2 C 0 km/h
2003 13-01-2009 16:42:47 1.9 C 3.48 g/m*3 1.9 C 0 km/h
2004 13-01-2009 16:54:46 1.5 C 3.44 g/m*3 1.5 C 0 km/h
2005 13-01-2009 17:06:46 1.3 C 3.44 g/m*3 1.3 C 0 km/h
2006 13-01-2009 17:18:46 1.1 C 3.4 g/m*3 1.1 C 0 km/h
2007 13-01-2009 17:30:46 0.8 C 3.43 g/m*3 0.8 C 0 km/h
2008 13-01-2009 17:42:46 0.7 C 3.46 g/m*3 0.7 C 0 km/h
2009 13-01-2009 17:54:45 0.4 C 3.49 g/m*3 0.4 C 0 km/h
2010 13-01-2009 18:06:45 0.1 C 3.37 g/m*3 0.1 C 0 km/h
2011 13-01-2009 18:18:46 0 C 3.39 g/m*3 0 C 0 km/h
2012 13-01-2009 18:30:45 -0.2 C 3.35 g/m*3 -0.2 C 0 km/h
2013 13-01-2009 18:42:45 -0.4 C 3.3 g/m*3 -0.4 C 0 km/h
2014 13-01-2009 18:54:45 -0.6 C 3.3 g/m*3 -0.6 C 0 km/h
2015 13-01-2009 19:06:44 -0.9 C 3.28 g/m*3 -0.9 C 0 km/h
2016 13-01-2009 19:18:45 -1.1 C 3.23 g/m*3 -1.1 C 0 km/h
2017 13-01-2009 19:30:45 -1.2 C 3.25 g/m*3 -1.2 C 0 km/h
2018 13-01-2009 19:42:45 -1.5 C 3.19 g/m*3 -1.5 C 0 km/h
2019 13-01-2009 19:54:44 -1.7 C 3.14 g/m*3 -1.7 C 0 km/h
2020 13-01-2009 20:06:45 -1.9 C 3.06 g/m*3 -1.9 C 0 km/h
2021 13-01-2009 20:18:44 -1.9 C 3.1 g/m*3 -1.9 C 0 km/h
2022 13-01-2009 20:30:44 -1.9 C 3.14 g/m*3 -1.9 C 0 km/h
2023 13-01-2009 20:42:44 -1.9 C 3.1 g/m*3 -1.9 C 0 km/h
2024 13-01-2009 20:54:44 -1.9 C 3.14 g/m*3 -1.9 C 0 km/h
2025 13-01-2009 21:06:44 -2 C 3.12 g/m*3 -2 C 0 km/h
Sensor: Nr:Datum:Temp:Abs-Feuchte:Windchill:Wind:
Aussen-T/F 2026 13-01-2009 21:18:44 -2.2 C 3.08 g/m*3 -2.2 C 0 km/h
2027 13-01-2009 21:30:43 -2.2 C 3.12 g/m*3 -2.2 C 0 km/h
2028 13-01-2009 21:42:43 -2.3 C 3.1 g/m*3 -2.3 C 0 km/h
2029 13-01-2009 21:54:44 -2.2 C 3.16 g/m*3 -2.2 C 0 km/h
2030 13-01-2009 22:06:43 -2.1 C 3.18 g/m*3 -2.1 C 0 km/h
2031 13-01-2009 22:18:43 -2.2 C 3.16 g/m*3 -2.2 C 0 km/h
2032 13-01-2009 22:30:43 -2.3 C 3.14 g/m*3 -2.3 C 0 km/h
2033 13-01-2009 22:42:43 -2.5 C 3.09 g/m*3 -2.5 C 0 km/h
2034 13-01-2009 22:54:43 -2.8 C 3.07 g/m*3 -2.8 C 0 km/h
2035 13-01-2009 23:06:43 -2.9 C 3.05 g/m*3 -2.9 C 0 km/h
2036 13-01-2009 23:18:42 -3 C 3.06 g/m*3 -3 C 0 km/h
2037 13-01-2009 23:30:42 -3 C 3.1 g/m*3 -3 C 0 km/h
2038 13-01-2009 23:42:42 -3.1 C 3.08 g/m*3 -3.1 C 0 km/h
2039 13-01-2009 23:54:42 -3.3 C 3.08 g/m*3 -3.3 C 0 km/h
2040 14-01-2009 00:06:42 -3.4 C 3.05 g/m*3 -3.4 C 0 km/h
2041 14-01-2009 00:18:42 -3.4 C 3.05 g/m*3 -3.4 C 0 km/h
2042 14-01-2009 00:30:41 -3.6 C 3.01 g/m*3 -3.6 C 0 km/h
2043 14-01-2009 00:42:41 -3.7 C 2.99 g/m*3 -3.7 C 0 km/h
2044 14-01-2009 00:54:42 -3.5 C 3.07 g/m*3 -3.5 C 0 km/h
2045 14-01-2009 01:06:41 -3.4 C 3.13 g/m*3 -3.4 C 0 km/h
2046 14-01-2009 01:18:41 -3.1 C 3.2 g/m*3 -3.1 C 0 km/h
2047 14-01-2009 01:30:41 -3 C 3.22 g/m*3 -3 C 0 km/h
2048 14-01-2009 01:42:41 -3 C 3.18 g/m*3 -3 C 0 km/h
2049 14-01-2009 01:54:41 -3.2 C 3.14 g/m*3 -3.2 C 0 km/h
2050 14-01-2009 02:06:41 -3.4 C 3.05 g/m*3 -3.4 C 0 km/h
Sensor: Nr:Datum:Temp:Abs-Feuchte:Windchill:Wind:
Aussen-T/F 2051 14-01-2009 02:18:40 -3.5 C 3.03 g/m*3 -3.5 C 0 km/h
2052 14-01-2009 02:30:41 -3.1 C 3.16 g/m*3 -3.1 C 0 km/h
2053 14-01-2009 02:42:42 -3.1 C 3.16 g/m*3 -3.1 C 0 km/h
2054 14-01-2009 02:55:41 -3 C 3.18 g/m*3 -3 C 0 km/h
2055 14-01-2009 03:07:41 -3 C 3.18 g/m*3 -3 C 0 km/h
2056 14-01-2009 03:19:42 -2.8 C 3.23 g/m*3 -2.8 C 0 km/h
2057 14-01-2009 03:31:41 -2.7 C 3.25 g/m*3 -2.7 C 0 km/h
2058 14-01-2009 03:43:41 -2.6 C 3.23 g/m*3 -2.6 C 0 km/h
2059 14-01-2009 03:55:41 -2.6 C 3.23 g/m*3 -2.6 C 0 km/h
2060 14-01-2009 04:07:41 -2.9 C 3.16 g/m*3 -2.9 C 0 km/h
2061 14-01-2009 04:19:41 -3 C 3.14 g/m*3 -3 C 0 km/h
2062 14-01-2009 04:31:41 -3 C 3.14 g/m*3 -3 C 0 km/h
2063 14-01-2009 04:43:42 -2.6 C 3.27 g/m*3 -2.6 C 0 km/h
2064 14-01-2009 04:55:41 -2.5 C 3.3 g/m*3 -2.5 C 0 km/h
2065 14-01-2009 05:07:40 -2.3 C 3.34 g/m*3 -2.3 C 0 km/h
2066 14-01-2009 05:19:41 -2.1 C 3.35 g/m*3 -2.1 C 0 km/h
2067 14-01-2009 05:31:40 -1.9 C 3.4 g/m*3 -1.9 C 0 km/h
2068 14-01-2009 05:43:40 -1.8 C 3.38 g/m*3 -1.8 C 0 km/h
2069 14-01-2009 05:55:40 -1.7 C 3.4 g/m*3 -1.7 C 0 km/h
2070 14-01-2009 06:07:40 -1.6 C 3.38 g/m*3 -1.6 C 0 km/h
2071 14-01-2009 06:19:40 -1.6 C 3.38 g/m*3 -1.6 C 0 km/h
2072 14-01-2009 06:31:39 -1.4 C 3.43 g/m*3 -1.4 C 0 km/h
2073 14-01-2009 06:43:39 -1.4 C 3.39 g/m*3 -1.4 C 0 km/h
2074 14-01-2009 06:55:40 -1.4 C 3.43 g/m*3 -1.4 C 0 km/h
2075 14-01-2009 07:07:39 -1.1 C 3.5 g/m*3 -1.1 C 0 km/h
Sensor: Nr:Datum:Temp:Abs-Feuchte:Windchill:Wind:
Aussen-T/F 2076 14-01-2009 07:19:39 -0.9 C 3.6 g/m*3 -0.9 C 0 km/h
2077 14-01-2009 07:31:39 -0.7 C 3.69 g/m*3 -0.7 C 0 km/h
2078 14-01-2009 07:43:39 -0.7 C 3.69 g/m*3 -0.7 C 0 km/h
2079 14-01-2009 07:55:39 -0.7 C 3.69 g/m*3 -0.7 C 0 km/h
2080 14-01-2009 08:07:38 -0.8 C 3.67 g/m*3 -0.8 C 0 km/h
2081 14-01-2009 08:19:39 -1.1 C 3.59 g/m*3 -1.1 C 0 km/h
2082 14-01-2009 08:31:39 -1.1 C 3.64 g/m*3 -1.1 C 0 km/h
2083 14-01-2009 08:43:39 -1 C 3.71 g/m*3 -1 C 0 km/h
2084 14-01-2009 08:55:38 -1 C 3.71 g/m*3 -1 C 0 km/h
2085 14-01-2009 09:07:38 -0.9 C 3.78 g/m*3 -0.9 C 0 km/h
2086 14-01-2009 09:19:38 -0.8 C 3.85 g/m*3 -0.8 C 0 km/h
2087 14-01-2009 09:31:38 -0.5 C 3.98 g/m*3 -0.5 C 0 km/h
2088 14-01-2009 09:43:38 -0.2 C 4.06 g/m*3 -0.2 C 0 km/h
2089 14-01-2009 09:55:37 -0.3 C 4.03 g/m*3 -0.3 C 0 km/h
2090 14-01-2009 10:07:38 -0.2 C 4.11 g/m*3 -0.2 C 0 km/h
2091 14-01-2009 10:19:37 -0.1 C 4.14 g/m*3 -0.1 C 0 km/h
2092 14-01-2009 10:31:37 -0.1 C 4.14 g/m*3 -0.1 C 0 km/h
2093 14-01-2009 10:43:37 -0.1 C 4.14 g/m*3 -0.1 C 0 km/h
2094 14-01-2009 10:55:37 0 C 4.17 g/m*3 0 C 0 km/h
2095 14-01-2009 11:07:37 0 C 4.17 g/m*3 0 C 0 km/h
2096 14-01-2009 11:19:37 0 C 4.22 g/m*3 0 C 0 km/h
2097 14-01-2009 11:31:37 0.1 C 4.24 g/m*3 0.1 C 0 km/h
2098 14-01-2009 11:43:37 0.2 C 4.27 g/m*3 0.2 C 0 km/h
2099 14-01-2009 11:55:37 0.3 C 4.3 g/m*3 0.3 C 0 km/h
2100 14-01-2009 12:07:36 0.4 C 4.33 g/m*3 0.4 C 0 km/h
Sensor: Nr:Datum:Temp:Abs-Feuchte:Windchill:Wind:
Aussen-T/F 2101 14-01-2009 12:19:37 0.5 C 4.36 g/m*3 0.5 C 0 km/h
2102 14-01-2009 12:31:36 0.7 C 4.47 g/m*3 0.7 C 0 km/h
2103 14-01-2009 12:43:36 1 C 4.52 g/m*3 1 C 0 km/h
2104 14-01-2009 12:55:36 1.2 C 4.58 g/m*3 1.2 C 0 km/h
2105 14-01-2009 13:07:36 1.6 C 4.7 g/m*3 1.6 C 0 km/h
2106 14-01-2009 13:19:36 1.7 C 4.74 g/m*3 1.7 C 0 km/h
2107 14-01-2009 13:31:36 1.7 C 4.74 g/m*3 1.7 C 0 km/h
2108 14-01-2009 13:43:36 2 C 4.78 g/m*3 2 C 0 km/h
2109 14-01-2009 13:55:35 2.2 C 4.84 g/m*3 2.2 C 0 km/h
2110 14-01-2009 14:07:36 2.3 C 4.82 g/m*3 2.3 C 0 km/h
2111 14-01-2009 14:19:35 2.3 C 4.76 g/m*3 2.3 C 0 km/h
2112 14-01-2009 14:31:35 2.2 C 4.73 g/m*3 2.2 C 0 km/h
2113 14-01-2009 14:43:35 2.3 C 4.76 g/m*3 2.3 C 0 km/h
2114 14-01-2009 14:55:35 2.2 C 4.73 g/m*3 2.2 C 0 km/h
2115 14-01-2009 15:07:35 2.1 C 4.7 g/m*3 2.1 C 0 km/h
2116 14-01-2009 15:19:34 2.1 C 4.7 g/m*3 2.1 C 0 km/h
2117 14-01-2009 15:31:34 2.1 C 4.7 g/m*3 2.1 C 0 km/h
2118 14-01-2009 15:43:34 2 C 4.67 g/m*3 2 C 0 km/h
2119 14-01-2009 15:55:34 1.8 C 4.66 g/m*3 1.8 C 0 km/h
2120 14-01-2009 16:07:34 1.8 C 4.66 g/m*3 1.8 C 0 km/h
2121 14-01-2009 16:19:34 1.7 C 4.63 g/m*3 1.7 C 0 km/h
2122 14-01-2009 16:31:34 1.6 C 4.6 g/m*3 1.6 C 0 km/h
2123 14-01-2009 16:43:34 1.5 C 4.62 g/m*3 1.5 C 0 km/h
2124 14-01-2009 16:55:34 1.6 C 4.7 g/m*3 1.6 C 0 km/h
2125 14-01-2009 17:07:33 1.5 C 4.67 g/m*3 1.5 C 0 km/h
Sensor: Nr:Datum:Temp:Abs-Feuchte:Windchill:Wind:
Aussen-T/F 2126 14-01-2009 17:19:34 1.5 C 4.67 g/m*3 1.5 C 0 km/h
2127 14-01-2009 17:31:33 1.4 C 4.64 g/m*3 1.4 C 0 km/h
2128 14-01-2009 17:43:33 1.4 C 4.64 g/m*3 1.4 C 0 km/h
2129 14-01-2009 17:55:33 1.5 C 4.67 g/m*3 1.5 C 0 km/h
2130 14-01-2009 18:07:33 1.5 C 4.73 g/m*3 1.5 C 0 km/h
2131 14-01-2009 18:19:33 1.5 C 4.73 g/m*3 1.5 C 0 km/h
2132 14-01-2009 18:31:33 1.5 C 4.73 g/m*3 1.5 C 0 km/h
2133 14-01-2009 18:43:33 1.4 C 4.69 g/m*3 1.4 C 0 km/h
2134 14-01-2009 18:55:32 1.4 C 4.69 g/m*3 1.4 C 0 km/h
2135 14-01-2009 19:07:33 1.4 C 4.69 g/m*3 1.4 C 0 km/h
2136 14-01-2009 19:19:32 1.4 C 4.69 g/m*3 1.4 C 0 km/h
2137 14-01-2009 19:31:32 1.3 C 4.72 g/m*3 1.3 C 0 km/h
2138 14-01-2009 19:43:32 1.3 C 4.72 g/m*3 1.3 C 0 km/h
2139 14-01-2009 19:55:32 1.3 C 4.72 g/m*3 1.3 C 0 km/h
2140 14-01-2009 20:07:32 1.3 C 4.72 g/m*3 1.3 C 0 km/h
2141 14-01-2009 20:19:31 1.2 C 4.68 g/m*3 1.2 C 0 km/h
2142 14-01-2009 20:31:32 1.2 C 4.68 g/m*3 1.2 C 0 km/h
2143 14-01-2009 20:43:33 1.2 C 4.68 g/m*3 1.2 C 0 km/h
2144 14-01-2009 20:55:31 1.3 C 4.72 g/m*3 1.3 C 0 km/h
2145 14-01-2009 21:07:31 1.2 C 4.68 g/m*3 1.2 C 0 km/h
2146 14-01-2009 21:19:31 1.2 C 4.68 g/m*3 1.2 C 0 km/h
2147 14-01-2009 21:31:31 1.2 C 4.68 g/m*3 1.2 C 0 km/h
2148 14-01-2009 21:43:31 1.1 C 4.65 g/m*3 1.1 C 0 km/h
2149 14-01-2009 21:55:31 1.2 C 4.74 g/m*3 1.2 C 0 km/h
2150 14-01-2009 22:07:31 1.1 C 4.7 g/m*3 1.1 C 0 km/h
Sensor: Nr:Datum:Temp:Abs-Feuchte:Windchill:Wind:
Aussen-T/F 2151 14-01-2009 22:19:30 1.1 C 4.7 g/m*3 1.1 C 0 km/h
2152 14-01-2009 22:31:31 1.1 C 4.7 g/m*3 1.1 C 0 km/h
2153 14-01-2009 22:43:31 1.1 C 4.7 g/m*3 1.1 C 0 km/h
2154 14-01-2009 22:56:31 1.1 C 4.7 g/m*3 1.1 C 0 km/h
2155 14-01-2009 23:08:31 1.1 C 4.7 g/m*3 1.1 C 0 km/h
2156 14-01-2009 23:20:31 1.1 C 4.76 g/m*3 1.1 C 0 km/h
2157 14-01-2009 23:32:31 1.1 C 4.76 g/m*3 1.1 C 0 km/h
2158 14-01-2009 23:44:31 1.1 C 4.76 g/m*3 1.1 C 0 km/h
2159 14-01-2009 23:56:31 1 C 4.72 g/m*3 1 C 0 km/h
2160 15-01-2009 00:08:31 1 C 4.72 g/m*3 1 C 0 km/h
2161 15-01-2009 00:20:31 1 C 4.72 g/m*3 1 C 0 km/h
2162 15-01-2009 00:32:31 1 C 4.72 g/m*3 1 C 0 km/h
2163 15-01-2009 00:44:31 1 C 4.72 g/m*3 1 C 0 km/h
2164 15-01-2009 00:56:32 1 C 4.72 g/m*3 1 C 0 km/h
2165 15-01-2009 01:08:32 1 C 4.72 g/m*3 1 C 0 km/h
2166 15-01-2009 01:20:32 1 C 4.72 g/m*3 1 C 0 km/h
2167 15-01-2009 01:32:32 0.9 C 4.69 g/m*3 0.9 C 0 km/h
2168 15-01-2009 01:44:32 0.9 C 4.69 g/m*3 0.9 C 0 km/h
2169 15-01-2009 01:56:32 1 C 4.72 g/m*3 1 C 0 km/h
2170 15-01-2009 02:08:32 0.9 C 4.74 g/m*3 0.9 C 0 km/h
2171 15-01-2009 02:20:32 0.9 C 4.74 g/m*3 0.9 C 0 km/h
2172 15-01-2009 02:32:32 0.9 C 4.74 g/m*3 0.9 C 0 km/h
2173 15-01-2009 02:44:32 0.9 C 4.74 g/m*3 0.9 C 0 km/h
2174 15-01-2009 02:56:32 0.9 C 4.74 g/m*3 0.9 C 0 km/h
2175 15-01-2009 03:08:32 0.8 C 4.71 g/m*3 0.8 C 0 km/h
Sensor: Nr:Datum:Temp:Abs-Feuchte:Windchill:Wind:
Aussen-T/F 2176 15-01-2009 03:20:32 0.8 C 4.71 g/m*3 0.8 C 0 km/h
2177 15-01-2009 03:32:32 0.8 C 4.71 g/m*3 0.8 C 0 km/h
2178 15-01-2009 03:44:32 0.8 C 4.71 g/m*3 0.8 C 0 km/h
2179 15-01-2009 03:56:32 0.8 C 4.71 g/m*3 0.8 C 0 km/h
2180 15-01-2009 04:08:32 0.8 C 4.71 g/m*3 0.8 C 0 km/h
2181 15-01-2009 04:20:32 0.7 C 4.68 g/m*3 0.7 C 0 km/h
2182 15-01-2009 04:32:32 0.7 C 4.63 g/m*3 0.7 C 0 km/h
2183 15-01-2009 04:44:32 0.7 C 4.63 g/m*3 0.7 C 0 km/h
2184 15-01-2009 04:56:33 0.6 C 4.65 g/m*3 0.6 C 0 km/h
2185 15-01-2009 05:08:33 0.6 C 4.65 g/m*3 0.6 C 0 km/h
2186 15-01-2009 05:20:33 0.6 C 4.65 g/m*3 0.6 C 0 km/h
2187 15-01-2009 05:32:33 0.6 C 4.65 g/m*3 0.6 C 0 km/h
2188 15-01-2009 05:44:31 0.6 C 4.65 g/m*3 0.6 C 0 km/h
2189 15-01-2009 05:56:31 0.5 C 4.61 g/m*3 0.5 C 0 km/h
2190 15-01-2009 06:08:32 0.6 C 4.65 g/m*3 0.6 C 0 km/h
2191 15-01-2009 06:20:31 0.6 C 4.65 g/m*3 0.6 C 0 km/h
2192 15-01-2009 06:32:31 0.6 C 4.65 g/m*3 0.6 C 0 km/h
2193 15-01-2009 06:44:30 0.6 C 4.65 g/m*3 0.6 C 0 km/h
2194 15-01-2009 06:56:30 0.6 C 4.65 g/m*3 0.6 C 0 km/h
2195 15-01-2009 07:08:31 0.6 C 4.65 g/m*3 0.6 C 0 km/h
2196 15-01-2009 07:20:30 0.6 C 4.65 g/m*3 0.6 C 0 km/h
2197 15-01-2009 07:32:30 0.6 C 4.65 g/m*3 0.6 C 0 km/h
2198 15-01-2009 07:44:30 0.7 C 4.68 g/m*3 0.7 C 0 km/h
2199 15-01-2009 07:56:30 0.7 C 4.68 g/m*3 0.7 C 0 km/h
2200 15-01-2009 08:08:30 0.6 C 4.65 g/m*3 0.6 C 0 km/h
Sensor: Nr:Datum:Temp:Abs-Feuchte:Windchill:Wind:
Aussen-T/F 2201 15-01-2009 08:20:30 0.6 C 4.65 g/m*3 0.6 C 0 km/h
2202 15-01-2009 08:32:30 0.6 C 4.65 g/m*3 0.6 C 0 km/h
2203 15-01-2009 08:44:30 0.7 C 4.68 g/m*3 0.7 C 0 km/h
2204 15-01-2009 08:56:30 0.7 C 4.68 g/m*3 0.7 C 0 km/h
2205 15-01-2009 09:08:29 0.8 C 4.71 g/m*3 0.8 C 0 km/h
2206 15-01-2009 09:20:30 0.9 C 4.74 g/m*3 0.9 C 0 km/h
2207 15-01-2009 09:32:29 1 C 4.78 g/m*3 1 C 0 km/h
2208 15-01-2009 09:44:29 1.1 C 4.81 g/m*3 1.1 C 0 km/h
2209 15-01-2009 09:56:29 1.3 C 4.87 g/m*3 1.3 C 0 km/h
2210 15-01-2009 10:08:29 1.3 C 4.87 g/m*3 1.3 C 0 km/h
2211 15-01-2009 10:20:29 1.4 C 4.85 g/m*3 1.4 C 0 km/h
2212 15-01-2009 10:32:28 1.6 C 4.92 g/m*3 1.6 C 0 km/h
2213 15-01-2009 10:44:29 1.7 C 4.95 g/m*3 1.7 C 0 km/h
2214 15-01-2009 10:56:29 1.8 C 4.93 g/m*3 1.8 C 0 km/h
2215 15-01-2009 11:08:28 1.6 C 4.87 g/m*3 1.6 C 0 km/h
2216 15-01-2009 11:20:28 1.3 C 4.72 g/m*3 1.3 C 0 km/h
2217 15-01-2009 11:32:28 1.2 C 4.68 g/m*3 1.2 C 0 km/h
2218 15-01-2009 11:44:28 1.3 C 4.77 g/m*3 1.3 C 0 km/h
2219 15-01-2009 11:56:28 1.2 C 4.74 g/m*3 1.2 C 0 km/h
2220 15-01-2009 12:08:28 1.2 C 4.74 g/m*3 1.2 C 0 km/h
2221 15-01-2009 12:20:27 1.4 C 4.8 g/m*3 1.4 C 0 km/h
2222 15-01-2009 12:32:28 1.7 C 4.9 g/m*3 1.7 C 0 km/h
2223 15-01-2009 12:44:27 2.1 C 4.98 g/m*3 2.1 C 0 km/h
2224 15-01-2009 12:56:27 2.6 C 5.03 g/m*3 2.6 C 0 km/h
2225 15-01-2009 13:08:27 3.1 C 5.03 g/m*3 3.1 C 0 km/h
Sensor: Nr:Datum:Temp:Abs-Feuchte:Windchill:Wind:
Aussen-T/F 2226 15-01-2009 13:20:27 3.7 C 4.99 g/m*3 3.7 C 0 km/h
2227 15-01-2009 13:32:27 4 C 4.64 g/m*3 4 C 0 km/h
2228 15-01-2009 13:44:26 4.5 C 4.54 g/m*3 4.5 C 0 km/h
2229 15-01-2009 13:56:26 4.8 C 4.43 g/m*3 4.8 C 0 km/h
2230 15-01-2009 14:08:27 5 C 4.08 g/m*3 5 C 0 km/h
2231 15-01-2009 14:20:27 5 C 3.87 g/m*3 5 C 0 km/h
2232 15-01-2009 14:32:26 4.3 C 3.76 g/m*3 4.3 C 0 km/h
2233 15-01-2009 14:44:26 3.5 C 3.69 g/m*3 3.5 C 0 km/h
2234 15-01-2009 14:56:26 3.2 C 3.62 g/m*3 3.2 C 0 km/h
2235 15-01-2009 15:08:26 2.8 C 3.7 g/m*3 2.8 C 0 km/h
2236 15-01-2009 15:20:26 2.6 C 3.7 g/m*3 2.6 C 0 km/h
2237 15-01-2009 15:32:25 2.5 C 3.74 g/m*3 2.5 C 0 km/h
2238 15-01-2009 15:44:26 2.6 C 3.7 g/m*3 2.6 C 0 km/h
2239 15-01-2009 15:56:26 2.6 C 3.65 g/m*3 2.6 C 0 km/h
2240 15-01-2009 16:08:25 2.6 C 3.59 g/m*3 2.6 C 0 km/h
2241 15-01-2009 16:20:25 2.3 C 3.63 g/m*3 2.3 C 0 km/h
2242 15-01-2009 16:32:25 2.1 C 3.64 g/m*3 2.1 C 0 km/h
2243 15-01-2009 16:44:25 2.1 C 3.64 g/m*3 2.1 C 0 km/h
2244 15-01-2009 16:56:25 2 C 3.56 g/m*3 2 C 0 km/h
2245 15-01-2009 17:08:25 1.7 C 3.54 g/m*3 1.7 C 0 km/h
2246 15-01-2009 17:20:24 1.3 C 3.55 g/m*3 1.3 C 0 km/h
2247 15-01-2009 17:32:25 0.9 C 3.66 g/m*3 0.9 C 0 km/h
2248 15-01-2009 17:44:24 0.7 C 3.71 g/m*3 0.7 C 0 km/h
2249 15-01-2009 17:56:24 0.5 C 3.76 g/m*3 0.5 C 0 km/h
2250 15-01-2009 18:08:24 0.2 C 3.68 g/m*3 0.2 C 0 km/h
Sensor: Nr:Datum:Temp:Abs-Feuchte:Windchill:Wind:
Aussen-T/F 2251 15-01-2009 18:20:24 0.1 C 3.76 g/m*3 0.1 C 0 km/h
2252 15-01-2009 18:32:24 -0.2 C 3.68 g/m*3 -0.2 C 0 km/h
2253 15-01-2009 18:44:23 -0.4 C 3.68 g/m*3 -0.4 C 0 km/h
2254 15-01-2009 18:56:23 -0.5 C 3.7 g/m*3 -0.5 C 0 km/h
2255 15-01-2009 19:08:24 -0.7 C 3.69 g/m*3 -0.7 C 0 km/h
2256 15-01-2009 19:20:24 -0.8 C 3.67 g/m*3 -0.8 C 0 km/h
2257 15-01-2009 19:32:23 -1 C 3.66 g/m*3 -1 C 0 km/h
2258 15-01-2009 19:44:23 -0.9 C 3.69 g/m*3 -0.9 C 0 km/h
2259 15-01-2009 19:56:23 -0.6 C 3.81 g/m*3 -0.6 C 0 km/h
2260 15-01-2009 20:08:23 -0.5 C 3.84 g/m*3 -0.5 C 0 km/h
2261 15-01-2009 20:20:23 -0.5 C 3.74 g/m*3 -0.5 C 0 km/h
2262 15-01-2009 20:32:23 -0.7 C 3.69 g/m*3 -0.7 C 0 km/h
2263 15-01-2009 20:44:23 -0.9 C 3.64 g/m*3 -0.9 C 0 km/h
2264 15-01-2009 20:56:23 -1.2 C 3.61 g/m*3 -1.2 C 0 km/h
2265 15-01-2009 21:08:23 -1.3 C 3.59 g/m*3 -1.3 C 0 km/h
2266 15-01-2009 21:20:22 -1.5 C 3.58 g/m*3 -1.5 C 0 km/h
2267 15-01-2009 21:32:22 -1.7 C 3.53 g/m*3 -1.7 C 0 km/h
2268 15-01-2009 21:44:22 -2 C 3.46 g/m*3 -2 C 0 km/h
2269 15-01-2009 21:56:22 -2.1 C 3.47 g/m*3 -2.1 C 0 km/h
2270 15-01-2009 22:08:22 -2.1 C 3.47 g/m*3 -2.1 C 0 km/h
2271 15-01-2009 22:20:22 -2.1 C 3.52 g/m*3 -2.1 C 0 km/h
2272 15-01-2009 22:32:22 -2.3 C 3.47 g/m*3 -2.3 C 0 km/h
2273 15-01-2009 22:44:22 -2.4 C 3.44 g/m*3 -2.4 C 0 km/h
2274 15-01-2009 22:56:22 -2.4 C 3.44 g/m*3 -2.4 C 0 km/h
2275 15-01-2009 23:08:21 -2.4 C 3.48 g/m*3 -2.4 C 0 km/h
Sensor: Nr:Datum:Temp:Abs-Feuchte:Windchill:Wind:
Aussen-T/F 2276 15-01-2009 23:20:21 -2.6 C 3.43 g/m*3 -2.6 C 0 km/h
2277 15-01-2009 23:33:02 -2.7 C 3.45 g/m*3 -2.7 C 0 km/h
2278 15-01-2009 23:45:02 -2.3 C 3.59 g/m*3 -2.3 C 0 km/h
2279 15-01-2009 23:57:02 -1.6 C 3.81 g/m*3 -1.6 C 0 km/h
2280 16-01-2009 00:09:02 -1.3 C 3.94 g/m*3 -1.3 C 0 km/h
2281 16-01-2009 00:21:02 -1.2 C 3.97 g/m*3 -1.2 C 0 km/h
2282 16-01-2009 00:33:02 -1.1 C 3.95 g/m*3 -1.1 C 0 km/h
2283 16-01-2009 00:45:03 -0.9 C 4.01 g/m*3 -0.9 C 0 km/h
2284 16-01-2009 00:57:03 -0.7 C 4.06 g/m*3 -0.7 C 0 km/h
2285 16-01-2009 01:09:03 -0.6 C 4.04 g/m*3 -0.6 C 0 km/h
2286 16-01-2009 01:21:03 -0.5 C 4.07 g/m*3 -0.5 C 0 km/h
2287 16-01-2009 01:33:03 -0.4 C 4.1 g/m*3 -0.4 C 0 km/h
2288 16-01-2009 01:45:03 -0.3 C 4.13 g/m*3 -0.3 C 0 km/h
2289 16-01-2009 01:57:03 -0.3 C 4.13 g/m*3 -0.3 C 0 km/h
2290 16-01-2009 02:09:03 -0.2 C 4.11 g/m*3 -0.2 C 0 km/h
2291 16-01-2009 02:21:03 -0.2 C 4.11 g/m*3 -0.2 C 0 km/h
2292 16-01-2009 02:33:03 0 C 4.17 g/m*3 0 C 0 km/h
2293 16-01-2009 02:45:03 0 C 4.12 g/m*3 0 C 0 km/h
2294 16-01-2009 02:57:03 0 C 4.12 g/m*3 0 C 0 km/h
2295 16-01-2009 03:09:03 0 C 4.12 g/m*3 0 C 0 km/h
2296 16-01-2009 03:21:03 0 C 4.07 g/m*3 0 C 0 km/h
2297 16-01-2009 03:33:03 0.1 C 4.15 g/m*3 0.1 C 0 km/h
2298 16-01-2009 03:45:03 0.1 C 4.1 g/m*3 0.1 C 0 km/h
2299 16-01-2009 03:57:03 0.1 C 4.1 g/m*3 0.1 C 0 km/h
2300 16-01-2009 04:09:03 0.2 C 4.13 g/m*3 0.2 C 0 km/h
Sensor: Nr:Datum:Temp:Abs-Feuchte:Windchill:Wind:
Aussen-T/F 2301 16-01-2009 04:21:03 0.3 C 4.16 g/m*3 0.3 C 0 km/h
2302 16-01-2009 04:33:04 0.3 C 4.06 g/m*3 0.3 C 0 km/h
2303 16-01-2009 04:45:04 0.3 C 4.01 g/m*3 0.3 C 0 km/h
2304 16-01-2009 04:57:04 0.3 C 3.91 g/m*3 0.3 C 0 km/h
2305 16-01-2009 05:09:04 0.3 C 3.91 g/m*3 0.3 C 0 km/h
2306 16-01-2009 05:21:04 0.3 C 3.91 g/m*3 0.3 C 0 km/h
2307 16-01-2009 05:33:04 0.3 C 3.91 g/m*3 0.3 C 0 km/h
2308 16-01-2009 05:45:04 0.3 C 3.91 g/m*3 0.3 C 0 km/h
2309 16-01-2009 05:57:04 0.3 C 3.91 g/m*3 0.3 C 0 km/h
2310 16-01-2009 06:09:04 0.3 C 3.96 g/m*3 0.3 C 0 km/h
2311 16-01-2009 06:21:04 0.3 C 3.96 g/m*3 0.3 C 0 km/h
2312 16-01-2009 06:33:04 0.3 C 3.91 g/m*3 0.3 C 0 km/h
2313 16-01-2009 06:45:04 0.4 C 3.93 g/m*3 0.4 C 0 km/h
2314 16-01-2009 06:57:04 0.4 C 3.93 g/m*3 0.4 C 0 km/h
2315 16-01-2009 07:09:01 0.4 C 3.98 g/m*3 0.4 C 0 km/h
2316 16-01-2009 07:21:01 0.4 C 3.98 g/m*3 0.4 C 0 km/h
2317 16-01-2009 07:33:02 0.5 C 3.96 g/m*3 0.5 C 0 km/h
2318 16-01-2009 07:45:01 0.5 C 3.96 g/m*3 0.5 C 0 km/h
2319 16-01-2009 07:57:01 0.5 C 3.91 g/m*3 0.5 C 0 km/h
2320 16-01-2009 08:09:01 0.5 C 3.91 g/m*3 0.5 C 0 km/h
2321 16-01-2009 08:21:01 0.5 C 3.91 g/m*3 0.5 C 0 km/h
2322 16-01-2009 08:33:01 0.5 C 3.86 g/m*3 0.5 C 0 km/h
2323 16-01-2009 08:45:00 0.5 C 3.86 g/m*3 0.5 C 0 km/h
2324 16-01-2009 08:57:00 0.6 C 3.89 g/m*3 0.6 C 0 km/h
2325 16-01-2009 09:09:01 0.7 C 3.86 g/m*3 0.7 C 0 km/h
Sensor: Nr:Datum:Temp:Abs-Feuchte:Windchill:Wind:
Aussen-T/F 2326 16-01-2009 09:21:00 0.8 C 3.84 g/m*3 0.8 C 0 km/h
2327 16-01-2009 09:33:00 1 C 3.84 g/m*3 1 C 0 km/h
2328 16-01-2009 09:45:00 0.9 C 3.76 g/m*3 0.9 C 0 km/h
2329 16-01-2009 09:57:00 1 C 3.74 g/m*3 1 C 0 km/h
2330 16-01-2009 10:09:00 1.1 C 3.76 g/m*3 1.1 C 0 km/h
2331 16-01-2009 10:21:00 1.3 C 3.76 g/m*3 1.3 C 0 km/h
2332 16-01-2009 10:33:59 1.4 C 3.73 g/m*3 1.4 C 0 km/h
2333 16-01-2009 10:45:00 1.5 C 3.76 g/m*3 1.5 C 0 km/h
2334 16-01-2009 10:57:00 1.8 C 3.73 g/m*3 1.8 C 0 km/h
2335 16-01-2009 11:09:59 2.2 C 3.66 g/m*3 2.2 C 0 km/h
2336 16-01-2009 11:21:59 2.4 C 3.65 g/m*3 2.4 C 0 km/h
2337 16-01-2009 11:33:00 2.2 C 3.6 g/m*3 2.2 C 0 km/h
2338 16-01-2009 11:45:59 2.3 C 3.63 g/m*3 2.3 C 0 km/h
2339 16-01-2009 11:57:59 2.4 C 3.65 g/m*3 2.4 C 0 km/h
2340 16-01-2009 12:09:59 2.2 C 3.6 g/m*3 2.2 C 0 km/h
2341 16-01-2009 12:21:59 2.3 C 3.63 g/m*3 2.3 C 0 km/h
2342 16-01-2009 12:33:59 2.2 C 3.6 g/m*3 2.2 C 0 km/h
2343 16-01-2009 12:45:58 2.2 C 3.6 g/m*3 2.2 C 0 km/h
2344 16-01-2009 12:57:58 2.1 C 3.64 g/m*3 2.1 C 0 km/h
2345 16-01-2009 13:09:59 2.3 C 3.69 g/m*3 2.3 C 0 km/h
2346 16-01-2009 13:21:58 2.3 C 3.69 g/m*3 2.3 C 0 km/h
2347 16-01-2009 13:33:58 2.3 C 3.69 g/m*3 2.3 C 0 km/h
2348 16-01-2009 13:45:57 2.7 C 3.79 g/m*3 2.7 C 0 km/h
2349 16-01-2009 13:57:57 2.8 C 3.7 g/m*3 2.8 C 0 km/h
2350 16-01-2009 14:09:58 2.6 C 3.65 g/m*3 2.6 C 0 km/h
Sensor: Nr:Datum:Temp:Abs-Feuchte:Windchill:Wind:
Aussen-T/F 2351 16-01-2009 14:21:58 2.8 C 3.75 g/m*3 2.8 C 0 km/h
2352 16-01-2009 14:33:57 3.1 C 3.71 g/m*3 3.1 C 0 km/h
2353 16-01-2009 14:45:58 2.9 C 3.72 g/m*3 2.9 C 0 km/h
2354 16-01-2009 14:57:58 2.7 C 3.67 g/m*3 2.7 C 0 km/h
2355 16-01-2009 15:09:57 2.6 C 3.7 g/m*3 2.6 C 0 km/h
2356 16-01-2009 15:21:57 2.5 C 3.74 g/m*3 2.5 C 0 km/h
2357 16-01-2009 15:33:57 2.5 C 3.74 g/m*3 2.5 C 0 km/h
2358 16-01-2009 15:45:57 2.5 C 3.74 g/m*3 2.5 C 0 km/h
2359 16-01-2009 15:57:57 2.3 C 3.74 g/m*3 2.3 C 0 km/h
2360 16-01-2009 16:09:56 2 C 3.67 g/m*3 2 C 0 km/h
2361 16-01-2009 16:21:56 1.7 C 3.7 g/m*3 1.7 C 0 km/h
2362 16-01-2009 16:33:57 1.4 C 3.68 g/m*3 1.4 C 0 km/h
2363 16-01-2009 16:45:56 1.2 C 3.68 g/m*3 1.2 C 0 km/h
2364 16-01-2009 16:57:56 1 C 3.74 g/m*3 1 C 0 km/h
2365 16-01-2009 17:09:56 0.9 C 3.76 g/m*3 0.9 C 0 km/h
2366 16-01-2009 17:21:56 0.6 C 3.74 g/m*3 0.6 C 0 km/h
2367 16-01-2009 17:33:55 0.3 C 3.71 g/m*3 0.3 C 0 km/h
2368 16-01-2009 17:45:56 0.1 C 3.71 g/m*3 0.1 C 0 km/h
2369 16-01-2009 17:57:56 -0.2 C 3.73 g/m*3 -0.2 C 0 km/h
2370 16-01-2009 18:09:55 -0.3 C 3.75 g/m*3 -0.3 C 0 km/h
2371 16-01-2009 18:21:55 -0.5 C 3.74 g/m*3 -0.5 C 0 km/h
2372 16-01-2009 18:33:55 -0.6 C 3.72 g/m*3 -0.6 C 0 km/h
2373 16-01-2009 18:45:55 -0.6 C 3.76 g/m*3 -0.6 C 0 km/h
2374 16-01-2009 18:57:55 -0.6 C 3.81 g/m*3 -0.6 C 0 km/h
2375 16-01-2009 19:09:55 -0.7 C 3.78 g/m*3 -0.7 C 0 km/h
Sensor: Nr:Datum:Temp:Abs-Feuchte:Windchill:Wind:
Aussen-T/F 2376 16-01-2009 19:21:55 -0.7 C 3.78 g/m*3 -0.7 C 0 km/h
2377 16-01-2009 19:33:54 -0.7 C 3.83 g/m*3 -0.7 C 0 km/h
2378 16-01-2009 19:45:55 -0.8 C 3.8 g/m*3 -0.8 C 0 km/h
2379 16-01-2009 19:57:55 -0.7 C 3.83 g/m*3 -0.7 C 0 km/h
2380 16-01-2009 20:09:54 -0.7 C 3.88 g/m*3 -0.7 C 0 km/h
2381 16-01-2009 20:21:54 -0.5 C 3.93 g/m*3 -0.5 C 0 km/h
2382 16-01-2009 20:33:54 -0.4 C 3.96 g/m*3 -0.4 C 0 km/h
2383 16-01-2009 20:45:54 -0.2 C 4.01 g/m*3 -0.2 C 0 km/h
2384 16-01-2009 20:57:54 0 C 4.07 g/m*3 0 C 0 km/h
2385 16-01-2009 21:09:53 0.1 C 4.1 g/m*3 0.1 C 0 km/h
2386 16-01-2009 21:21:53 0.2 C 4.13 g/m*3 0.2 C 0 km/h
2387 16-01-2009 21:33:54 0.2 C 4.08 g/m*3 0.2 C 0 km/h
2388 16-01-2009 21:45:53 0.3 C 4.11 g/m*3 0.3 C 0 km/h
2389 16-01-2009 21:57:53 0.3 C 4.06 g/m*3 0.3 C 0 km/h
2390 16-01-2009 22:09:53 0.5 C 4.11 g/m*3 0.5 C 0 km/h
2391 16-01-2009 22:22:54 0.6 C 4.14 g/m*3 0.6 C 0 km/h
2392 16-01-2009 22:34:54 0.6 C 4.14 g/m*3 0.6 C 0 km/h
2393 16-01-2009 22:46:54 0.6 C 4.09 g/m*3 0.6 C 0 km/h
2394 16-01-2009 22:58:54 0.7 C 4.07 g/m*3 0.7 C 0 km/h
2395 16-01-2009 23:10:54 0.7 C 4.07 g/m*3 0.7 C 0 km/h
2396 16-01-2009 23:22:54 0.7 C 4.07 g/m*3 0.7 C 0 km/h
2397 16-01-2009 23:34:54 0.8 C 4.1 g/m*3 0.8 C 0 km/h
2398 16-01-2009 23:46:54 0.7 C 4.02 g/m*3 0.7 C 0 km/h
2399 16-01-2009 23:58:54 0.8 C 4.04 g/m*3 0.8 C 0 km/h
2400 17-01-2009 00:10:54 0.8 C 4.04 g/m*3 0.8 C 0 km/h
Sensor: Nr:Datum:Temp:Abs-Feuchte:Windchill:Wind:
Aussen-T/F 2401 17-01-2009 00:22:55 0.7 C 4.02 g/m*3 0.7 C 0 km/h
2402 17-01-2009 00:34:55 0.8 C 4.04 g/m*3 0.8 C 0 km/h
2403 17-01-2009 00:46:55 0.8 C 4.1 g/m*3 0.8 C 0 km/h
2404 17-01-2009 00:58:55 0.8 C 4.1 g/m*3 0.8 C 0 km/h
2405 17-01-2009 01:10:55 0.8 C 4.1 g/m*3 0.8 C 0 km/h
2406 17-01-2009 01:22:55 0.9 C 4.12 g/m*3 0.9 C 0 km/h
2407 17-01-2009 01:34:55 0.9 C 4.12 g/m*3 0.9 C 0 km/h
2408 17-01-2009 01:46:55 0.7 C 4.07 g/m*3 0.7 C 0 km/h
2409 17-01-2009 01:58:55 0.6 C 4.04 g/m*3 0.6 C 0 km/h
2410 17-01-2009 02:10:55 0.6 C 4.09 g/m*3 0.6 C 0 km/h
2411 17-01-2009 02:22:55 0.5 C 4.11 g/m*3 0.5 C 0 km/h
2412 17-01-2009 02:34:55 0.6 C 4.19 g/m*3 0.6 C 0 km/h
2413 17-01-2009 02:46:55 0.6 C 4.19 g/m*3 0.6 C 0 km/h
2414 17-01-2009 02:58:55 0.6 C 4.24 g/m*3 0.6 C 0 km/h
2415 17-01-2009 03:10:55 0.7 C 4.27 g/m*3 0.7 C 0 km/h
2416 17-01-2009 03:22:55 0.7 C 4.32 g/m*3 0.7 C 0 km/h
2417 17-01-2009 03:34:55 0.6 C 4.29 g/m*3 0.6 C 0 km/h
2418 17-01-2009 03:46:55 0.6 C 4.34 g/m*3 0.6 C 0 km/h
2419 17-01-2009 03:58:55 0.6 C 4.39 g/m*3 0.6 C 0 km/h
2420 17-01-2009 04:10:56 0.7 C 4.42 g/m*3 0.7 C 0 km/h
2421 17-01-2009 04:22:56 0.7 C 4.42 g/m*3 0.7 C 0 km/h
2422 17-01-2009 04:34:56 0.8 C 4.51 g/m*3 0.8 C 0 km/h
2423 17-01-2009 04:46:56 0.8 C 4.51 g/m*3 0.8 C 0 km/h
2424 17-01-2009 04:58:56 0.8 C 4.51 g/m*3 0.8 C 0 km/h
2425 17-01-2009 05:10:56 0.8 C 4.51 g/m*3 0.8 C 0 km/h
Sensor: Nr:Datum:Temp:Abs-Feuchte:Windchill:Wind:
Aussen-T/F 2426 17-01-2009 05:22:56 0.8 C 4.51 g/m*3 0.8 C 0 km/h
2427 17-01-2009 05:34:56 0.9 C 4.54 g/m*3 0.9 C 0 km/h
2428 17-01-2009 05:46:56 0.9 C 4.59 g/m*3 0.9 C 0 km/h
2429 17-01-2009 05:58:56 0.9 C 4.59 g/m*3 0.9 C 0 km/h
2430 17-01-2009 06:10:56 1 C 4.62 g/m*3 1 C 0 km/h
2431 17-01-2009 06:22:56 1 C 4.62 g/m*3 1 C 0 km/h
2432 17-01-2009 06:34:56 1.1 C 4.65 g/m*3 1.1 C 0 km/h
2433 17-01-2009 06:46:56 1.2 C 4.68 g/m*3 1.2 C 0 km/h
2434 17-01-2009 06:58:56 1.2 C 4.68 g/m*3 1.2 C 0 km/h
2435 17-01-2009 07:10:56 1.2 C 4.68 g/m*3 1.2 C 0 km/h
2436 17-01-2009 07:22:56 1.2 C 4.74 g/m*3 1.2 C 0 km/h
2437 17-01-2009 07:34:56 1.3 C 4.77 g/m*3 1.3 C 0 km/h
2438 17-01-2009 07:46:56 1.3 C 4.77 g/m*3 1.3 C 0 km/h
2439 17-01-2009 07:58:57 1.2 C 4.74 g/m*3 1.2 C 0 km/h
2440 17-01-2009 08:10:57 1.2 C 4.74 g/m*3 1.2 C 0 km/h
2441 17-01-2009 08:22:57 1.2 C 4.74 g/m*3 1.2 C 0 km/h
2442 17-01-2009 08:34:55 1.3 C 4.77 g/m*3 1.3 C 0 km/h
2443 17-01-2009 08:46:55 1.4 C 4.8 g/m*3 1.4 C 0 km/h
2444 17-01-2009 08:58:55 1.4 C 4.8 g/m*3 1.4 C 0 km/h
2445 17-01-2009 09:10:54 1.6 C 4.87 g/m*3 1.6 C 0 km/h
2446 17-01-2009 09:22:54 1.7 C 4.85 g/m*3 1.7 C 0 km/h
2447 17-01-2009 09:34:54 1.8 C 4.88 g/m*3 1.8 C 0 km/h
2448 17-01-2009 09:46:54 1.9 C 4.91 g/m*3 1.9 C 0 km/h
2449 17-01-2009 09:58:54 2 C 4.89 g/m*3 2 C 0 km/h
2450 17-01-2009 10:10:54 2.1 C 4.87 g/m*3 2.1 C 0 km/h
Sensor: Nr:Datum:Temp:Abs-Feuchte:Windchill:Wind:
Aussen-T/F 2451 17-01-2009 10:22:53 2.1 C 4.87 g/m*3 2.1 C 0 km/h
2452 17-01-2009 10:34:54 2.2 C 4.9 g/m*3 2.2 C 0 km/h
2453 17-01-2009 10:46:53 2.3 C 4.93 g/m*3 2.3 C 0 km/h
2454 17-01-2009 10:58:53 2.5 C 5 g/m*3 2.5 C 0 km/h
2455 17-01-2009 11:10:53 2.7 C 5.01 g/m*3 2.7 C 0 km/h
2456 17-01-2009 11:22:53 2.9 C 5.08 g/m*3 2.9 C 0 km/h
2457 17-01-2009 11:34:53 3.1 C 5.09 g/m*3 3.1 C 0 km/h
2458 17-01-2009 11:46:52 3 C 4.99 g/m*3 3 C 0 km/h
2459 17-01-2009 11:58:52 3 C 4.99 g/m*3 3 C 0 km/h
2460 17-01-2009 12:10:53 3.1 C 5.03 g/m*3 3.1 C 0 km/h
2461 17-01-2009 12:22:53 3 C 4.93 g/m*3 3 C 0 km/h
2462 17-01-2009 12:34:52 3.2 C 4.94 g/m*3 3.2 C 0 km/h
2463 17-01-2009 12:46:52 3.3 C 4.97 g/m*3 3.3 C 0 km/h
2464 17-01-2009 12:58:52 3.5 C 4.98 g/m*3 3.5 C 0 km/h
2465 17-01-2009 13:10:52 3.5 C 4.92 g/m*3 3.5 C 0 km/h
2466 17-01-2009 13:22:52 3.8 C 5.08 g/m*3 3.8 C 0 km/h
2467 17-01-2009 13:34:51 3.8 C 5.02 g/m*3 3.8 C 0 km/h
2468 17-01-2009 13:46:52 3.9 C 5.05 g/m*3 3.9 C 0 km/h
2469 17-01-2009 13:58:52 4.2 C 5.15 g/m*3 4.2 C 0 km/h
2470 17-01-2009 14:10:51 4.2 C 5.09 g/m*3 4.2 C 0 km/h
2471 17-01-2009 14:22:51 4.1 C 4.99 g/m*3 4.1 C 0 km/h
2472 17-01-2009 14:34:51 4.1 C 5.06 g/m*3 4.1 C 0 km/h
2473 17-01-2009 14:46:51 4.1 C 5.06 g/m*3 4.1 C 0 km/h
2474 17-01-2009 14:58:51 3.9 C 5.12 g/m*3 3.9 C 0 km/h
2475 17-01-2009 15:10:51 4.1 C 5.18 g/m*3 4.1 C 0 km/h
Sensor: Nr:Datum:Temp:Abs-Feuchte:Windchill:Wind:
Aussen-T/F 2476 17-01-2009 15:22:50 4.2 C 5.28 g/m*3 4.2 C 0 km/h
2477 17-01-2009 15:34:51 4.3 C 5.32 g/m*3 4.3 C 0 km/h
2478 17-01-2009 15:46:50 4.4 C 5.42 g/m*3 4.4 C 0 km/h
2479 17-01-2009 15:58:50 4.4 C 5.42 g/m*3 4.4 C 0 km/h
2480 17-01-2009 16:10:51 4.4 C 5.35 g/m*3 4.4 C 0 km/h
2481 17-01-2009 16:22:50 4.4 C 5.42 g/m*3 4.4 C 0 km/h
2482 17-01-2009 16:34:50 4.6 C 5.49 g/m*3 4.6 C 0 km/h
2483 17-01-2009 16:46:50 5.1 C 5.61 g/m*3 5.1 C 0 km/h
2484 17-01-2009 16:58:50 5.2 C 5.51 g/m*3 5.2 C 0 km/h
2485 17-01-2009 17:10:50 5.1 C 5.47 g/m*3 5.1 C 0 km/h
2486 17-01-2009 17:22:49 5 C 5.5 g/m*3 5 C 0 km/h
2487 17-01-2009 17:34:49 5 C 5.5 g/m*3 5 C 0 km/h
2488 17-01-2009 17:46:49 5 C 5.5 g/m*3 5 C 0 km/h
2489 17-01-2009 17:58:49 5 C 5.57 g/m*3 5 C 0 km/h
2490 17-01-2009 18:10:49 5 C 5.5 g/m*3 5 C 0 km/h
2491 17-01-2009 18:22:49 5 C 5.44 g/m*3 5 C 0 km/h
2492 17-01-2009 18:34:49 5.1 C 5.47 g/m*3 5.1 C 0 km/h
2493 17-01-2009 18:46:49 5.2 C 5.44 g/m*3 5.2 C 0 km/h
2494 17-01-2009 18:58:49 5.1 C 5.34 g/m*3 5.1 C 0 km/h
2495 17-01-2009 19:10:48 5.2 C 5.44 g/m*3 5.2 C 0 km/h
2496 17-01-2009 19:22:49 5.2 C 5.37 g/m*3 5.2 C 0 km/h
2497 17-01-2009 19:34:48 5.2 C 5.37 g/m*3 5.2 C 0 km/h
2498 17-01-2009 19:46:48 5.1 C 5.27 g/m*3 5.1 C 0 km/h
2499 17-01-2009 19:58:49 5.1 C 5.34 g/m*3 5.1 C 0 km/h
2500 17-01-2009 20:10:48 5.5 C 5.41 g/m*3 5.5 C 0 km/h
Sensor: Nr:Datum:Temp:Abs-Feuchte:Windchill:Wind:
Aussen-T/F 2501 17-01-2009 20:22:48 5.6 C 5.37 g/m*3 5.6 C 0 km/h
2502 17-01-2009 20:34:48 5.7 C 5.34 g/m*3 5.7 C 0 km/h
2503 17-01-2009 20:46:48 5.6 C 5.3 g/m*3 5.6 C 0 km/h
2504 17-01-2009 20:58:48 5.4 C 5.23 g/m*3 5.4 C 0 km/h
2505 17-01-2009 21:10:47 5.4 C 5.23 g/m*3 5.4 C 0 km/h
2506 17-01-2009 21:22:48 5.3 C 5.27 g/m*3 5.3 C 0 km/h
2507 17-01-2009 21:34:47 5 C 5.16 g/m*3 5 C 0 km/h
2508 17-01-2009 21:46:47 5.3 C 5.27 g/m*3 5.3 C 0 km/h
2509 17-01-2009 21:58:47 5.7 C 5.34 g/m*3 5.7 C 0 km/h
2510 17-01-2009 22:10:47 5.6 C 5.16 g/m*3 5.6 C 0 km/h
2511 17-01-2009 22:22:47 5.7 C 5.19 g/m*3 5.7 C 0 km/h
2512 17-01-2009 22:34:46 5.6 C 5.16 g/m*3 5.6 C 0 km/h
2513 17-01-2009 22:47:47 5.4 C 5.09 g/m*3 5.4 C 0 km/h
2514 17-01-2009 22:59:47 5.2 C 5.1 g/m*3 5.2 C 0 km/h
2515 17-01-2009 23:11:47 5 C 5.1 g/m*3 5 C 0 km/h
2516 17-01-2009 23:23:47 4.8 C 5.16 g/m*3 4.8 C 0 km/h
2517 17-01-2009 23:35:47 4.6 C 5.16 g/m*3 4.6 C 0 km/h
2518 17-01-2009 23:47:47 4.4 C 5.09 g/m*3 4.4 C 0 km/h
2519 17-01-2009 23:59:47 4.4 C 5.22 g/m*3 4.4 C 0 km/h
2520 18-01-2009 00:11:47 4.1 C 5.12 g/m*3 4.1 C 0 km/h
2521 18-01-2009 00:23:47 3.7 C 5.05 g/m*3 3.7 C 0 km/h
2522 18-01-2009 00:35:47 3.9 C 5.18 g/m*3 3.9 C 0 km/h
2523 18-01-2009 00:47:47 3.9 C 5.12 g/m*3 3.9 C 0 km/h
2524 18-01-2009 00:59:47 4.2 C 5.09 g/m*3 4.2 C 0 km/h
2525 18-01-2009 01:11:47 4.1 C 4.99 g/m*3 4.1 C 0 km/h
Sensor: Nr:Datum:Temp:Abs-Feuchte:Windchill:Wind:
Aussen-T/F 2526 18-01-2009 01:23:47 3.9 C 5.05 g/m*3 3.9 C 0 km/h
2527 18-01-2009 01:35:47 3.8 C 5.02 g/m*3 3.8 C 0 km/h
2528 18-01-2009 01:47:47 3.8 C 5.02 g/m*3 3.8 C 0 km/h
2529 18-01-2009 01:59:47 4 C 5.15 g/m*3 4 C 0 km/h
2530 18-01-2009 02:11:47 4.3 C 5.25 g/m*3 4.3 C 0 km/h
2531 18-01-2009 02:23:48 4.6 C 5.36 g/m*3 4.6 C 0 km/h
2532 18-01-2009 02:35:48 4.6 C 5.29 g/m*3 4.6 C 0 km/h
2533 18-01-2009 02:47:48 4.5 C 5.19 g/m*3 4.5 C 0 km/h
2534 18-01-2009 02:59:48 4.3 C 5.12 g/m*3 4.3 C 0 km/h
2535 18-01-2009 03:11:48 4.2 C 5.09 g/m*3 4.2 C 0 km/h
2536 18-01-2009 03:23:48 4.1 C 5.06 g/m*3 4.1 C 0 km/h
2537 18-01-2009 03:35:48 4.2 C 5.09 g/m*3 4.2 C 0 km/h
2538 18-01-2009 03:47:48 4.3 C 5.19 g/m*3 4.3 C 0 km/h
2539 18-01-2009 03:59:48 4.3 C 5.19 g/m*3 4.3 C 0 km/h
2540 18-01-2009 04:11:48 4.4 C 5.22 g/m*3 4.4 C 0 km/h
2541 18-01-2009 04:23:48 4.4 C 5.29 g/m*3 4.4 C 0 km/h
2542 18-01-2009 04:35:48 4.6 C 5.36 g/m*3 4.6 C 0 km/h
2543 18-01-2009 04:47:48 4.8 C 5.36 g/m*3 4.8 C 0 km/h
2544 18-01-2009 04:59:48 4.6 C 5.23 g/m*3 4.6 C 0 km/h
2545 18-01-2009 05:11:48 4.4 C 5.16 g/m*3 4.4 C 0 km/h
2546 18-01-2009 05:23:48 4.5 C 5.26 g/m*3 4.5 C 0 km/h
2547 18-01-2009 05:35:48 4.4 C 5.16 g/m*3 4.4 C 0 km/h
2548 18-01-2009 05:47:48 4.3 C 5.12 g/m*3 4.3 C 0 km/h
2549 18-01-2009 05:59:48 4.3 C 5.12 g/m*3 4.3 C 0 km/h
2550 18-01-2009 06:11:49 4.5 C 5.19 g/m*3 4.5 C 0 km/h
Sensor: Nr:Datum:Temp:Abs-Feuchte:Windchill:Wind:
Aussen-T/F 2551 18-01-2009 06:23:49 4.5 C 5.06 g/m*3 4.5 C 0 km/h
2552 18-01-2009 06:35:49 4.5 C 5 g/m*3 4.5 C 0 km/h
2553 18-01-2009 06:47:49 4.5 C 5 g/m*3 4.5 C 0 km/h
2554 18-01-2009 06:59:49 4.4 C 4.9 g/m*3 4.4 C 0 km/h
2555 18-01-2009 07:11:49 4.5 C 4.93 g/m*3 4.5 C 0 km/h
2556 18-01-2009 07:23:49 4.5 C 4.86 g/m*3 4.5 C 0 km/h
2557 18-01-2009 07:35:49 4.5 C 4.86 g/m*3 4.5 C 0 km/h
2558 18-01-2009 07:47:49 4.7 C 4.93 g/m*3 4.7 C 0 km/h
2559 18-01-2009 07:59:49 4.5 C 4.86 g/m*3 4.5 C 0 km/h
2560 18-01-2009 08:11:49 4.5 C 5 g/m*3 4.5 C 0 km/h
2561 18-01-2009 08:23:49 4.5 C 5 g/m*3 4.5 C 0 km/h
2562 18-01-2009 08:35:49 4.5 C 5.13 g/m*3 4.5 C 0 km/h
2563 18-01-2009 08:47:49 4.4 C 5.16 g/m*3 4.4 C 0 km/h
2564 18-01-2009 08:59:49 4.5 C 5.32 g/m*3 4.5 C 0 km/h
2565 18-01-2009 09:11:47 4.4 C 5.42 g/m*3 4.4 C 0 km/h
2566 18-01-2009 09:23:47 4.3 C 5.51 g/m*3 4.3 C 0 km/h
2567 18-01-2009 09:35:46 4.3 C 5.64 g/m*3 4.3 C 0 km/h
2568 18-01-2009 09:47:47 4.1 C 5.57 g/m*3 4.1 C 0 km/h
2569 18-01-2009 09:59:47 3.9 C 5.62 g/m*3 3.9 C 0 km/h
2570 18-01-2009 10:11:46 3.5 C 5.47 g/m*3 3.5 C 0 km/h
2571 18-01-2009 10:23:46 3.3 C 5.4 g/m*3 3.3 C 0 km/h
2572 18-01-2009 10:35:46 3.4 C 5.44 g/m*3 3.4 C 0 km/h
2573 18-01-2009 10:47:46 3.6 C 5.57 g/m*3 3.6 C 0 km/h
2574 18-01-2009 10:59:46 3.9 C 5.68 g/m*3 3.9 C 0 km/h
2575 18-01-2009 11:11:46 4 C 5.59 g/m*3 4 C 0 km/h
Sensor: Nr:Datum:Temp:Abs-Feuchte:Windchill:Wind:
Aussen-T/F 2576 18-01-2009 11:23:46 4.2 C 5.54 g/m*3 4.2 C 0 km/h
2577 18-01-2009 11:35:46 4.5 C 5.52 g/m*3 4.5 C 0 km/h
2578 18-01-2009 11:47:45 4.5 C 5.39 g/m*3 4.5 C 0 km/h
2579 18-01-2009 11:59:45 4.5 C 5.46 g/m*3 4.5 C 0 km/h
2580 18-01-2009 12:11:46 4.7 C 5.6 g/m*3 4.7 C 0 km/h
2581 18-01-2009 12:23:45 5 C 5.64 g/m*3 5 C 0 km/h
2582 18-01-2009 12:35:45 5.3 C 5.68 g/m*3 5.3 C 0 km/h
2583 18-01-2009 12:47:44 5.8 C 5.66 g/m*3 5.8 C 0 km/h
2584 18-01-2009 12:59:44 6.2 C 5.52 g/m*3 6.2 C 0 km/h
2585 18-01-2009 13:11:45 6.2 C 5.52 g/m*3 6.2 C 0 km/h
2586 18-01-2009 13:23:44 6.2 C 5.44 g/m*3 6.2 C 0 km/h
2587 18-01-2009 13:35:44 6.3 C 5.48 g/m*3 6.3 C 0 km/h
2588 18-01-2009 13:47:44 6.4 C 5.44 g/m*3 6.4 C 0 km/h
2589 18-01-2009 13:59:44 6.4 C 5.44 g/m*3 6.4 C 0 km/h
2590 18-01-2009 14:11:44 6.2 C 5.37 g/m*3 6.2 C 0 km/h
2591 18-01-2009 14:23:43 6.2 C 5.37 g/m*3 6.2 C 0 km/h
2592 18-01-2009 14:35:44 6.2 C 5.29 g/m*3 6.2 C 0 km/h
2593 18-01-2009 14:47:44 6.2 C 5.15 g/m*3 6.2 C 0 km/h
2594 18-01-2009 14:59:44 6.1 C 5.11 g/m*3 6.1 C 0 km/h
2595 18-01-2009 15:11:43 6.2 C 5.15 g/m*3 6.2 C 0 km/h
2596 18-01-2009 15:23:44 6.6 C 5.13 g/m*3 6.6 C 0 km/h
2597 18-01-2009 15:35:43 6.5 C 5.1 g/m*3 6.5 C 0 km/h
2598 18-01-2009 15:47:43 6.2 C 5.15 g/m*3 6.2 C 0 km/h
2599 18-01-2009 15:59:43 6 C 5.23 g/m*3 6 C 0 km/h
2600 18-01-2009 16:11:43 5.7 C 5.34 g/m*3 5.7 C 0 km/h
Sensor: Nr:Datum:Temp:Abs-Feuchte:Windchill:Wind:
Aussen-T/F 2601 18-01-2009 16:23:43 5.6 C 5.3 g/m*3 5.6 C 0 km/h
2602 18-01-2009 16:35:43 5.4 C 5.16 g/m*3 5.4 C 0 km/h
2603 18-01-2009 16:47:42 5.4 C 5.16 g/m*3 5.4 C 0 km/h
2604 18-01-2009 16:59:42 5.2 C 5.1 g/m*3 5.2 C 0 km/h
2605 18-01-2009 17:11:43 5.3 C 4.99 g/m*3 5.3 C 0 km/h
2606 18-01-2009 17:23:42 5.4 C 4.95 g/m*3 5.4 C 0 km/h
2607 18-01-2009 17:35:42 5.3 C 4.92 g/m*3 5.3 C 0 km/h
2608 18-01-2009 17:47:42 4.6 C 5.1 g/m*3 4.6 C 0 km/h
2609 18-01-2009 17:59:42 4.4 C 5.16 g/m*3 4.4 C 0 km/h
2610 18-01-2009 18:11:42 4.3 C 5.19 g/m*3 4.3 C 0 km/h
2611 18-01-2009 18:23:41 4.3 C 5.12 g/m*3 4.3 C 0 km/h
2612 18-01-2009 18:35:41 4.3 C 4.99 g/m*3 4.3 C 0 km/h
2613 18-01-2009 18:47:41 4.4 C 5.03 g/m*3 4.4 C 0 km/h
2614 18-01-2009 18:59:41 4.5 C 4.93 g/m*3 4.5 C 0 km/h
2615 18-01-2009 19:11:41 4.4 C 4.77 g/m*3 4.4 C 0 km/h
2616 18-01-2009 19:23:41 4.4 C 4.77 g/m*3 4.4 C 0 km/h
2617 18-01-2009 19:35:41 4.2 C 4.7 g/m*3 4.2 C 0 km/h
2618 18-01-2009 19:47:41 4.3 C 4.67 g/m*3 4.3 C 0 km/h
2619 18-01-2009 19:59:41 4.2 C 4.64 g/m*3 4.2 C 0 km/h
2620 18-01-2009 20:11:40 4 C 4.58 g/m*3 4 C 0 km/h
2621 18-01-2009 20:23:41 3.9 C 4.67 g/m*3 3.9 C 0 km/h
2622 18-01-2009 20:35:40 3.8 C 4.64 g/m*3 3.8 C 0 km/h
2623 18-01-2009 20:47:40 3.8 C 4.71 g/m*3 3.8 C 0 km/h
2624 18-01-2009 20:59:41 3.6 C 4.58 g/m*3 3.6 C 0 km/h
2625 18-01-2009 21:11:40 3.3 C 4.55 g/m*3 3.3 C 0 km/h
Sensor: Nr:Datum:Temp:Abs-Feuchte:Windchill:Wind:
Aussen-T/F 2626 18-01-2009 21:23:40 3.4 C 4.58 g/m*3 3.4 C 0 km/h
2627 18-01-2009 21:35:40 3.5 C 4.61 g/m*3 3.5 C 0 km/h
2628 18-01-2009 21:47:39 3.8 C 4.64 g/m*3 3.8 C 0 km/h
2629 18-01-2009 21:59:39 3.9 C 4.61 g/m*3 3.9 C 0 km/h
2630 18-01-2009 22:11:40 3.4 C 4.46 g/m*3 3.4 C 0 km/h
2631 18-01-2009 22:23:39 3.3 C 4.55 g/m*3 3.3 C 0 km/h
2632 18-01-2009 22:35:39 3 C 4.52 g/m*3 3 C 0 km/h
2633 18-01-2009 22:48:01 2.9 C 4.55 g/m*3 2.9 C 0 km/h
2634 18-01-2009 23:00:01 2.9 C 4.55 g/m*3 2.9 C 0 km/h
2635 18-01-2009 23:12:01 3.1 C 4.55 g/m*3 3.1 C 0 km/h
2636 18-01-2009 23:24:01 3.2 C 4.58 g/m*3 3.2 C 0 km/h
2637 18-01-2009 23:36:01 3.1 C 4.55 g/m*3 3.1 C 0 km/h
2638 18-01-2009 23:48:01 2.8 C 4.52 g/m*3 2.8 C 0 km/h
2639 19-01-2009 00:00:01 2.4 C 4.45 g/m*3 2.4 C 0 km/h
2640 19-01-2009 00:12:01 2.6 C 4.57 g/m*3 2.6 C 0 km/h
2641 19-01-2009 00:24:02 2.6 C 4.51 g/m*3 2.6 C 0 km/h
2642 19-01-2009 00:36:02 3 C 4.52 g/m*3 3 C 0 km/h
2643 19-01-2009 00:48:02 3.1 C 4.43 g/m*3 3.1 C 0 km/h
2644 19-01-2009 01:00:02 3.3 C 4.43 g/m*3 3.3 C 0 km/h
2645 19-01-2009 01:12:02 3.4 C 4.4 g/m*3 3.4 C 0 km/h
2646 19-01-2009 01:24:02 3.3 C 4.37 g/m*3 3.3 C 0 km/h
2647 19-01-2009 01:36:02 3.4 C 4.34 g/m*3 3.4 C 0 km/h
2648 19-01-2009 01:48:02 3.6 C 4.27 g/m*3 3.6 C 0 km/h
2649 19-01-2009 02:00:02 3.4 C 4.21 g/m*3 3.4 C 0 km/h
2650 19-01-2009 02:12:02 3.4 C 4.28 g/m*3 3.4 C 0 km/h
Sensor: Nr:Datum:Temp:Abs-Feuchte:Windchill:Wind:
Aussen-T/F 2651 19-01-2009 02:24:02 3.6 C 4.27 g/m*3 3.6 C 0 km/h
2652 19-01-2009 02:36:02 3.5 C 4.24 g/m*3 3.5 C 0 km/h
2653 19-01-2009 02:48:02 3.4 C 4.21 g/m*3 3.4 C 0 km/h
2654 19-01-2009 03:00:02 3.3 C 4.31 g/m*3 3.3 C 0 km/h
2655 19-01-2009 03:12:02 3.2 C 4.34 g/m*3 3.2 C 0 km/h
2656 19-01-2009 03:24:02 3.2 C 4.4 g/m*3 3.2 C 0 km/h
2657 19-01-2009 03:36:02 3.3 C 4.49 g/m*3 3.3 C 0 km/h
2658 19-01-2009 03:48:02 3.4 C 4.52 g/m*3 3.4 C 0 km/h
2659 19-01-2009 04:00:02 3.4 C 4.52 g/m*3 3.4 C 0 km/h
2660 19-01-2009 04:12:03 3.4 C 4.46 g/m*3 3.4 C 0 km/h
2661 19-01-2009 04:24:03 3.4 C 4.46 g/m*3 3.4 C 0 km/h
2662 19-01-2009 04:36:03 3.3 C 4.43 g/m*3 3.3 C 0 km/h
2663 19-01-2009 04:48:03 3.4 C 4.46 g/m*3 3.4 C 0 km/h
2664 19-01-2009 05:00:03 3.5 C 4.49 g/m*3 3.5 C 0 km/h
2665 19-01-2009 05:12:03 3.5 C 4.49 g/m*3 3.5 C 0 km/h
2666 19-01-2009 05:24:03 3.5 C 4.55 g/m*3 3.5 C 0 km/h
2667 19-01-2009 05:36:03 3.5 C 4.49 g/m*3 3.5 C 0 km/h
2668 19-01-2009 05:48:03 3.4 C 4.46 g/m*3 3.4 C 0 km/h
2669 19-01-2009 06:00:03 3.2 C 4.46 g/m*3 3.2 C 0 km/h
2670 19-01-2009 06:12:03 2.8 C 4.4 g/m*3 2.8 C 0 km/h
2671 19-01-2009 06:24:03 2.7 C 4.49 g/m*3 2.7 C 0 km/h
2672 19-01-2009 06:36:03 2.6 C 4.46 g/m*3 2.6 C 0 km/h
2673 19-01-2009 06:48:03 2.7 C 4.54 g/m*3 2.7 C 0 km/h
2674 19-01-2009 07:00:03 2.9 C 4.67 g/m*3 2.9 C 0 km/h
2675 19-01-2009 07:12:03 2.8 C 4.63 g/m*3 2.8 C 0 km/h
Sensor: Nr:Datum:Temp:Abs-Feuchte:Windchill:Wind:
Aussen-T/F 2676 19-01-2009 07:24:03 2.8 C 4.69 g/m*3 2.8 C 0 km/h
2677 19-01-2009 07:36:03 2.9 C 4.78 g/m*3 2.9 C 0 km/h
2678 19-01-2009 07:48:03 3.2 C 4.88 g/m*3 3.2 C 0 km/h
2679 19-01-2009 08:00:03 3.2 C 4.82 g/m*3 3.2 C 0 km/h
2680 19-01-2009 08:12:01 3.4 C 4.95 g/m*3 3.4 C 0 km/h
2681 19-01-2009 08:24:01 3.4 C 4.89 g/m*3 3.4 C 0 km/h
2682 19-01-2009 08:36:00 3.5 C 4.98 g/m*3 3.5 C 0 km/h
2683 19-01-2009 08:48:01 3.7 C 4.99 g/m*3 3.7 C 0 km/h
2684 19-01-2009 09:00:01 3.9 C 4.99 g/m*3 3.9 C 0 km/h
2685 19-01-2009 09:12:01 3.9 C 4.99 g/m*3 3.9 C 0 km/h
2686 19-01-2009 09:24:01 4 C 4.9 g/m*3 4 C 0 km/h
2687 19-01-2009 09:36:00 3.8 C 4.96 g/m*3 3.8 C 0 km/h
2688 19-01-2009 09:48:00 3.6 C 5.01 g/m*3 3.6 C 0 km/h
2689 19-01-2009 10:00:00 3.6 C 5.14 g/m*3 3.6 C 0 km/h
2690 19-01-2009 10:12:00 3.4 C 5.13 g/m*3 3.4 C 0 km/h
2691 19-01-2009 10:24:00 3.3 C 5.22 g/m*3 3.3 C 0 km/h
2692 19-01-2009 10:36:59 3.3 C 5.22 g/m*3 3.3 C 0 km/h
2693 19-01-2009 10:48:00 3.3 C 5.28 g/m*3 3.3 C 0 km/h
2694 19-01-2009 11:00:01 3.3 C 5.28 g/m*3 3.3 C 0 km/h
2695 19-01-2009 11:12:59 3.3 C 5.28 g/m*3 3.3 C 0 km/h
2696 19-01-2009 11:24:59 3.4 C 5.31 g/m*3 3.4 C 0 km/h
2697 19-01-2009 11:36:00 3.4 C 5.31 g/m*3 3.4 C 0 km/h
2698 19-01-2009 11:48:59 3.5 C 5.35 g/m*3 3.5 C 0 km/h
2699 19-01-2009 12:00:59 3.6 C 5.39 g/m*3 3.6 C 0 km/h
2700 19-01-2009 12:12:59 3.6 C 5.45 g/m*3 3.6 C 0 km/h
Sensor: Nr:Datum:Temp:Abs-Feuchte:Windchill:Wind:
Aussen-T/F 2701 19-01-2009 12:24:59 3.7 C 5.48 g/m*3 3.7 C 0 km/h
2702 19-01-2009 12:36:59 4.2 C 5.67 g/m*3 4.2 C 0 km/h
2703 19-01-2009 12:48:58 4.5 C 5.78 g/m*3 4.5 C 0 km/h
2704 19-01-2009 13:00:58 4.5 C 5.72 g/m*3 4.5 C 0 km/h
2705 19-01-2009 13:12:59 4.5 C 5.72 g/m*3 4.5 C 0 km/h
2706 19-01-2009 13:24:58 4.5 C 5.72 g/m*3 4.5 C 0 km/h
2707 19-01-2009 13:36:58 4.7 C 5.86 g/m*3 4.7 C 0 km/h
2708 19-01-2009 13:48:57 5.2 C 6.06 g/m*3 5.2 C 0 km/h
2709 19-01-2009 14:00:58 5.5 C 6.18 g/m*3 5.5 C 0 km/h
2710 19-01-2009 14:12:58 5.8 C 6.3 g/m*3 5.8 C 0 km/h
2711 19-01-2009 14:24:58 6.2 C 6.47 g/m*3 6.2 C 0 km/h
2712 19-01-2009 14:36:57 6.6 C 6.64 g/m*3 6.6 C 0 km/h
2713 19-01-2009 14:48:58 7 C 6.82 g/m*3 7 C 0 km/h
2714 19-01-2009 15:00:57 7.3 C 6.95 g/m*3 7.3 C 0 km/h
2715 19-01-2009 15:12:57 8.1 C 7.24 g/m*3 8.1 C 0 km/h
2716 19-01-2009 15:24:57 8.4 C 7.04 g/m*3 8.4 C 0 km/h
2717 19-01-2009 15:36:56 8.6 C 6.87 g/m*3 8.6 C 0 km/h
2718 19-01-2009 15:48:57 8.9 C 6.75 g/m*3 8.9 C 0 km/h
2719 19-01-2009 16:00:57 9.1 C 6.48 g/m*3 9.1 C 0 km/h
2720 19-01-2009 16:12:57 9.1 C 6.39 g/m*3 9.1 C 0 km/h
2721 19-01-2009 16:24:56 9.2 C 6.25 g/m*3 9.2 C 0 km/h
2722 19-01-2009 16:36:57 9.3 C 6.11 g/m*3 9.3 C 0 km/h
2723 19-01-2009 16:48:56 9.3 C 5.93 g/m*3 9.3 C 0 km/h
2724 19-01-2009 17:00:56 9.4 C 5.88 g/m*3 9.4 C 0 km/h
2725 19-01-2009 17:12:56 9.3 C 5.84 g/m*3 9.3 C 0 km/h
Sensor: Nr:Datum:Temp:Abs-Feuchte:Windchill:Wind:
Aussen-T/F 2726 19-01-2009 17:24:56 9 C 5.82 g/m*3 9 C 0 km/h
2727 19-01-2009 17:36:02 9 C 5.82 g/m*3 9 C 0 km/h
2728 19-01-2009 17:48:02 8.7 C 5.71 g/m*3 8.7 C 0 km/h
2729 19-01-2009 18:00:02 8.2 C 5.61 g/m*3 8.2 C 0 km/h
2730 19-01-2009 18:12:02 8.3 C 5.65 g/m*3 8.3 C 0 km/h
2731 19-01-2009 18:24:01 8.4 C 5.51 g/m*3 8.4 C 0 km/h
2732 19-01-2009 18:36:02 8.2 C 5.44 g/m*3 8.2 C 0 km/h
2733 19-01-2009 18:48:01 8.2 C 5.44 g/m*3 8.2 C 0 km/h
2734 19-01-2009 19:00:01 8 C 5.46 g/m*3 8 C 0 km/h
2735 19-01-2009 19:12:01 7.8 C 5.47 g/m*3 7.8 C 0 km/h
2736 19-01-2009 19:24:01 7.8 C 5.47 g/m*3 7.8 C 0 km/h
2737 19-01-2009 19:36:01 8.2 C 5.44 g/m*3 8.2 C 0 km/h
2738 19-01-2009 19:48:02 8.2 C 5.36 g/m*3 8.2 C 0 km/h
2739 19-01-2009 20:00:02 8.6 C 5.41 g/m*3 8.6 C 0 km/h
2740 19-01-2009 20:12:02 8.6 C 5.41 g/m*3 8.6 C 0 km/h
2741 19-01-2009 20:24:01 8.6 C 5.5 g/m*3 8.6 C 0 km/h
2742 19-01-2009 20:36:01 8.6 C 5.41 g/m*3 8.6 C 0 km/h
2743 19-01-2009 20:48:01 8.9 C 5.52 g/m*3 8.9 C 0 km/h
2744 19-01-2009 21:00:01 9.4 C 5.43 g/m*3 9.4 C 0 km/h
2745 19-01-2009 21:12:01 9.3 C 5.39 g/m*3 9.3 C 0 km/h
2746 19-01-2009 21:24:01 8.9 C 5.43 g/m*3 8.9 C 0 km/h
2747 19-01-2009 21:36:01 8.7 C 5.1 g/m*3 8.7 C 0 km/h
2748 19-01-2009 21:48:00 8.6 C 5.16 g/m*3 8.6 C 0 km/h
2749 19-01-2009 22:00:00 8.4 C 5.09 g/m*3 8.4 C 0 km/h
2750 19-01-2009 22:12:01 8.3 C 5.14 g/m*3 8.3 C 0 km/h
Sensor: Nr:Datum:Temp:Abs-Feuchte:Windchill:Wind:
Aussen-T/F 2751 19-01-2009 22:24:01 8.3 C 5.14 g/m*3 8.3 C 0 km/h
2752 19-01-2009 22:36:00 8.2 C 5.19 g/m*3 8.2 C 0 km/h
2753 19-01-2009 22:48:01 8.2 C 5.19 g/m*3 8.2 C 0 km/h
2754 19-01-2009 23:00:01 8.3 C 5.23 g/m*3 8.3 C 0 km/h
2755 19-01-2009 23:12:00 8.1 C 5.16 g/m*3 8.1 C 0 km/h
2756 19-01-2009 23:24:00 8.1 C 5.24 g/m*3 8.1 C 0 km/h
2757 19-01-2009 23:36:59 8 C 5.21 g/m*3 8 C 0 km/h
2758 19-01-2009 23:48:00 7.2 C 4.95 g/m*3 7.2 C 0 km/h
2759 20-01-2009 00:00:01 6.2 C 5.22 g/m*3 6.2 C 0 km/h
2760 20-01-2009 00:12:59 5.7 C 5.41 g/m*3 5.7 C 0 km/h
2761 20-01-2009 00:24:00 5.4 C 5.44 g/m*3 5.4 C 0 km/h
2762 20-01-2009 00:36:59 5.2 C 5.44 g/m*3 5.2 C 0 km/h
2763 20-01-2009 00:48:59 5.2 C 5.51 g/m*3 5.2 C 0 km/h
2764 20-01-2009 01:00:59 5.1 C 5.47 g/m*3 5.1 C 0 km/h
2765 20-01-2009 01:12:59 5 C 5.23 g/m*3 5 C 0 km/h
2766 20-01-2009 01:24:59 5 C 4.89 g/m*3 5 C 0 km/h
2767 20-01-2009 01:36:59 5.1 C 4.65 g/m*3 5.1 C 0 km/h
2768 20-01-2009 01:48:59 4.9 C 4.46 g/m*3 4.9 C 0 km/h
2769 20-01-2009 02:00:59 5.2 C 4.34 g/m*3 5.2 C 0 km/h
2770 20-01-2009 02:12:59 5.4 C 4.33 g/m*3 5.4 C 0 km/h
2771 20-01-2009 02:24:58 5.4 C 4.26 g/m*3 5.4 C 0 km/h
2772 20-01-2009 02:36:58 5.3 C 4.23 g/m*3 5.3 C 0 km/h
2773 20-01-2009 02:49:59 5.4 C 4.19 g/m*3 5.4 C 0 km/h
2774 20-01-2009 03:01:59 5.5 C 4.21 g/m*3 5.5 C 0 km/h
2775 20-01-2009 03:12:59 5.5 C 4.21 g/m*3 5.5 C 0 km/h
Sensor: Nr:Datum:Temp:Abs-Feuchte:Windchill:Wind:
Aussen-T/F 2776 20-01-2009 03:24:59 5.3 C 4.16 g/m*3 5.3 C 0 km/h
2777 20-01-2009 03:37:59 5.1 C 4.17 g/m*3 5.1 C 0 km/h
2778 20-01-2009 03:49:59 4.7 C 4.2 g/m*3 4.7 C 0 km/h
2779 20-01-2009 04:01:59 5 C 4.28 g/m*3 5 C 0 km/h
2780 20-01-2009 04:13:59 5.2 C 4.48 g/m*3 5.2 C 0 km/h
2781 20-01-2009 04:25:58 3.9 C 4.67 g/m*3 3.9 C 0 km/h
2782 20-01-2009 04:37:59 3.5 C 4.86 g/m*3 3.5 C 0 km/h
2783 20-01-2009 04:49:58 3.3 C 4.91 g/m*3 3.3 C 0 km/h
2784 20-01-2009 05:01:58 3.1 C 4.97 g/m*3 3.1 C 0 km/h
2785 20-01-2009 05:13:58 3 C 4.99 g/m*3 3 C 0 km/h
2786 20-01-2009 05:25:58 2.9 C 4.96 g/m*3 2.9 C 0 km/h
2787 20-01-2009 05:37:58 2.9 C 4.96 g/m*3 2.9 C 0 km/h
2788 20-01-2009 05:49:58 2.8 C 4.87 g/m*3 2.8 C 0 km/h
2789 20-01-2009 06:01:57 2.7 C 4.84 g/m*3 2.7 C 0 km/h
2790 20-01-2009 06:13:57 2.7 C 4.78 g/m*3 2.7 C 0 km/h
2791 20-01-2009 06:25:58 2.5 C 4.6 g/m*3 2.5 C 0 km/h
2792 20-01-2009 06:37:57 2.1 C 4.48 g/m*3 2.1 C 0 km/h
2793 20-01-2009 06:49:57 2.5 C 4.66 g/m*3 2.5 C 0 km/h
2794 20-01-2009 07:01:57 2.6 C 4.63 g/m*3 2.6 C 0 km/h
2795 20-01-2009 07:13:57 2.8 C 4.63 g/m*3 2.8 C 0 km/h
2796 20-01-2009 07:25:57 2.6 C 4.51 g/m*3 2.6 C 0 km/h
2797 20-01-2009 07:37:57 2.4 C 4.51 g/m*3 2.4 C 0 km/h
2798 20-01-2009 07:49:57 2.4 C 4.45 g/m*3 2.4 C 0 km/h
2799 20-01-2009 08:01:57 2.6 C 4.46 g/m*3 2.6 C 0 km/h
2800 20-01-2009 08:13:57 2.6 C 4.34 g/m*3 2.6 C 0 km/h
Sensor: Nr:Datum:Temp:Abs-Feuchte:Windchill:Wind:
Aussen-T/F 2801 20-01-2009 08:25:56 2.7 C 4.2 g/m*3 2.7 C 0 km/h
2802 20-01-2009 08:37:56 2.9 C 4.07 g/m*3 2.9 C 0 km/h
2803 20-01-2009 08:49:56 2.9 C 4.02 g/m*3 2.9 C 0 km/h
2804 20-01-2009 09:01:56 3 C 4.04 g/m*3 3 C 0 km/h
2805 20-01-2009 09:13:56 3.1 C 3.95 g/m*3 3.1 C 0 km/h
2806 20-01-2009 09:25:55 3.1 C 3.83 g/m*3 3.1 C 0 km/h
2807 20-01-2009 09:37:56 3.1 C 3.89 g/m*3 3.1 C 0 km/h
2808 20-01-2009 09:49:55 3.1 C 3.89 g/m*3 3.1 C 0 km/h
2809 20-01-2009 10:01:55 3.2 C 3.92 g/m*3 3.2 C 0 km/h
2810 20-01-2009 10:13:55 3.2 C 3.86 g/m*3 3.2 C 0 km/h
2811 20-01-2009 10:25:55 3.3 C 3.82 g/m*3 3.3 C 0 km/h
2812 20-01-2009 10:37:55 3.5 C 3.75 g/m*3 3.5 C 0 km/h
2813 20-01-2009 10:49:55 3.5 C 3.75 g/m*3 3.5 C 0 km/h
2814 20-01-2009 11:01:55 3.6 C 3.84 g/m*3 3.6 C 0 km/h
2815 20-01-2009 11:13:55 3.7 C 3.86 g/m*3 3.7 C 0 km/h
2816 20-01-2009 11:25:55 3.7 C 3.86 g/m*3 3.7 C 0 km/h
2817 20-01-2009 11:37:54 3.8 C 3.83 g/m*3 3.8 C 0 km/h
2818 20-01-2009 11:49:54 4 C 3.81 g/m*3 4 C 0 km/h
2819 20-01-2009 12:01:54 4.2 C 3.87 g/m*3 4.2 C 0 km/h
2820 20-01-2009 12:13:54 4.3 C 3.89 g/m*3 4.3 C 0 km/h
2821 20-01-2009 12:25:54 4.3 C 3.89 g/m*3 4.3 C 0 km/h
2822 20-01-2009 12:37:54 4.4 C 3.92 g/m*3 4.4 C 0 km/h
2823 20-01-2009 12:49:54 4.5 C 3.94 g/m*3 4.5 C 0 km/h
2824 20-01-2009 13:01:54 4.7 C 3.93 g/m*3 4.7 C 0 km/h
2825 20-01-2009 13:13:54 4.8 C 3.96 g/m*3 4.8 C 0 km/h
Sensor: Nr:Datum:Temp:Abs-Feuchte:Windchill:Wind:
Aussen-T/F 2826 20-01-2009 13:25:53 5.2 C 3.86 g/m*3 5.2 C 0 km/h
2827 20-01-2009 13:37:54 5.2 C 3.79 g/m*3 5.2 C 0 km/h
2828 20-01-2009 13:49:53 5.2 C 3.79 g/m*3 5.2 C 0 km/h
2829 20-01-2009 14:01:53 5.3 C 3.81 g/m*3 5.3 C 0 km/h
2830 20-01-2009 14:13:53 5.4 C 3.84 g/m*3 5.4 C 0 km/h
2831 20-01-2009 14:25:52 5.6 C 3.82 g/m*3 5.6 C 0 km/h
2832 20-01-2009 14:37:53 5.8 C 3.94 g/m*3 5.8 C 0 km/h
2833 20-01-2009 14:49:52 5.7 C 3.77 g/m*3 5.7 C 0 km/h
2834 20-01-2009 15:01:52 5.5 C 3.79 g/m*3 5.5 C 0 km/h
2835 20-01-2009 15:13:52 5.7 C 3.91 g/m*3 5.7 C 0 km/h
2836 20-01-2009 15:25:53 5.8 C 3.87 g/m*3 5.8 C 0 km/h
2837 20-01-2009 15:37:52 5.7 C 3.84 g/m*3 5.7 C 0 km/h
2838 20-01-2009 15:49:52 5.6 C 3.89 g/m*3 5.6 C 0 km/h
2839 20-01-2009 16:01:52 5.5 C 3.93 g/m*3 5.5 C 0 km/h
2840 20-01-2009 16:13:52 5.5 C 3.93 g/m*3 5.5 C 0 km/h
2841 20-01-2009 16:25:52 5.4 C 3.91 g/m*3 5.4 C 0 km/h
2842 20-01-2009 16:37:51 5.3 C 3.95 g/m*3 5.3 C 0 km/h
2843 20-01-2009 16:49:52 5.1 C 3.83 g/m*3 5.1 C 0 km/h
2844 20-01-2009 17:01:52 5 C 3.74 g/m*3 5 C 0 km/h
2845 20-01-2009 17:13:52 4.8 C 3.82 g/m*3 4.8 C 0 km/h
2846 20-01-2009 17:25:51 4.6 C 3.84 g/m*3 4.6 C 0 km/h
2847 20-01-2009 17:37:51 4.6 C 3.71 g/m*3 4.6 C 0 km/h
2848 20-01-2009 17:49:51 4.6 C 3.71 g/m*3 4.6 C 0 km/h
2849 20-01-2009 18:01:51 4.4 C 3.72 g/m*3 4.4 C 0 km/h
2850 20-01-2009 18:13:51 4.3 C 3.83 g/m*3 4.3 C 0 km/h
Sensor: Nr:Datum:Temp:Abs-Feuchte:Windchill:Wind:
Aussen-T/F 2851 20-01-2009 18:25:50 4 C 3.88 g/m*3 4 C 0 km/h
2852 20-01-2009 18:37:51 3.8 C 3.89 g/m*3 3.8 C 0 km/h
2853 20-01-2009 18:49:50 3.6 C 3.9 g/m*3 3.6 C 0 km/h
2854 20-01-2009 19:01:50 3.4 C 3.91 g/m*3 3.4 C 0 km/h
2855 20-01-2009 19:13:50 3.1 C 3.95 g/m*3 3.1 C 0 km/h
2856 20-01-2009 19:25:50 3 C 3.92 g/m*3 3 C 0 km/h
2857 20-01-2009 19:37:50 2.9 C 3.96 g/m*3 2.9 C 0 km/h
2858 20-01-2009 19:49:49 3 C 3.98 g/m*3 3 C 0 km/h
2859 20-01-2009 20:01:50 2.9 C 4.02 g/m*3 2.9 C 0 km/h
2860 20-01-2009 20:13:50 2.5 C 3.97 g/m*3 2.5 C 0 km/h
2861 20-01-2009 20:25:50 2.1 C 3.86 g/m*3 2.1 C 0 km/h
2862 20-01-2009 20:37:49 1.8 C 3.84 g/m*3 1.8 C 0 km/h
2863 20-01-2009 20:49:50 1.6 C 3.84 g/m*3 1.6 C 0 km/h
2864 20-01-2009 21:01:49 1.4 C 3.89 g/m*3 1.4 C 0 km/h
2865 20-01-2009 21:13:49 1.3 C 3.87 g/m*3 1.3 C 0 km/h
2866 20-01-2009 21:25:49 1.3 C 3.97 g/m*3 1.3 C 0 km/h
2867 20-01-2009 21:37:49 1.3 C 4.03 g/m*3 1.3 C 0 km/h
2868 20-01-2009 21:49:49 1.1 C 3.97 g/m*3 1.1 C 0 km/h
2869 20-01-2009 22:01:48 0.7 C 3.97 g/m*3 0.7 C 0 km/h
2870 20-01-2009 22:13:48 0.6 C 3.94 g/m*3 0.6 C 0 km/h
2871 20-01-2009 22:25:48 0.6 C 4.04 g/m*3 0.6 C 0 km/h
2872 20-01-2009 22:37:48 0.4 C 3.98 g/m*3 0.4 C 0 km/h
2873 20-01-2009 22:49:48 0.2 C 3.93 g/m*3 0.2 C 0 km/h
2874 20-01-2009 23:01:48 -0.1 C 3.9 g/m*3 -0.1 C 0 km/h
2875 20-01-2009 23:13:48 -0.2 C 3.87 g/m*3 -0.2 C 0 km/h
Sensor: Nr:Datum:Temp:Abs-Feuchte:Windchill:Wind:
Aussen-T/F 2876 20-01-2009 23:25:48 -0.3 C 3.89 g/m*3 -0.3 C 0 km/h
2877 20-01-2009 23:37:48 -0.6 C 3.81 g/m*3 -0.6 C 0 km/h
2878 20-01-2009 23:49:47 -0.8 C 3.76 g/m*3 -0.8 C 0 km/h
2879 21-01-2009 00:01:48 -1 C 3.71 g/m*3 -1 C 0 km/h
2880 21-01-2009 00:13:48 -1 C 3.75 g/m*3 -1 C 0 km/h
2881 21-01-2009 00:25:47 -1.1 C 3.73 g/m*3 -1.1 C 0 km/h
2882 21-01-2009 00:37:47 -1.4 C 3.65 g/m*3 -1.4 C 0 km/h
2883 21-01-2009 00:49:47 -1.4 C 3.65 g/m*3 -1.4 C 0 km/h
2884 21-01-2009 01:01:47 -1.6 C 3.64 g/m*3 -1.6 C 0 km/h
2885 21-01-2009 01:13:47 -1.6 C 3.68 g/m*3 -1.6 C 0 km/h
2886 21-01-2009 01:25:46 -1.5 C 3.71 g/m*3 -1.5 C 0 km/h
2887 21-01-2009 01:37:47 -1.6 C 3.68 g/m*3 -1.6 C 0 km/h
2888 21-01-2009 01:49:46 -1.7 C 3.66 g/m*3 -1.7 C 0 km/h
2889 21-01-2009 02:01:46 -1.7 C 3.7 g/m*3 -1.7 C 0 km/h
2890 21-01-2009 02:13:46 -1.8 C 3.72 g/m*3 -1.8 C 0 km/h
2891 21-01-2009 02:25:46 -1.9 C 3.69 g/m*3 -1.9 C 0 km/h
2892 21-01-2009 02:37:46 -1.8 C 3.72 g/m*3 -1.8 C 0 km/h
2893 21-01-2009 02:50:02 -1.9 C 3.69 g/m*3 -1.9 C 0 km/h
2894 21-01-2009 03:02:02 -2.1 C 3.64 g/m*3 -2.1 C 0 km/h
2895 21-01-2009 03:14:01 -2.3 C 3.59 g/m*3 -2.3 C 0 km/h
2896 21-01-2009 03:26:01 -2.2 C 3.62 g/m*3 -2.2 C 0 km/h
2897 21-01-2009 03:38:01 -2.1 C 3.68 g/m*3 -2.1 C 0 km/h
2898 21-01-2009 03:50:01 -2.1 C 3.68 g/m*3 -2.1 C 0 km/h
2899 21-01-2009 04:02:01 -2.3 C 3.59 g/m*3 -2.3 C 0 km/h
2900 21-01-2009 04:14:01 -2.3 C 3.63 g/m*3 -2.3 C 0 km/h
Sensor: Nr:Datum:Temp:Abs-Feuchte:Windchill:Wind:
Aussen-T/F 2901 21-01-2009 04:26:01 -2.3 C 3.63 g/m*3 -2.3 C 0 km/h
2902 21-01-2009 04:38:01 -2.4 C 3.61 g/m*3 -2.4 C 0 km/h
2903 21-01-2009 04:50:01 -2.6 C 3.56 g/m*3 -2.6 C 0 km/h
2904 21-01-2009 05:02:02 -2.5 C 3.58 g/m*3 -2.5 C 0 km/h
2905 21-01-2009 05:14:02 -2.7 C 3.53 g/m*3 -2.7 C 0 km/h
2906 21-01-2009 05:26:01 -2.8 C 3.51 g/m*3 -2.8 C 0 km/h
2907 21-01-2009 05:38:02 -2.9 C 3.48 g/m*3 -2.9 C 0 km/h
2908 21-01-2009 05:50:01 -3 C 3.46 g/m*3 -3 C 0 km/h
2909 21-01-2009 06:02:01 -2.9 C 3.52 g/m*3 -2.9 C 0 km/h
2910 21-01-2009 06:14:01 -2.9 C 3.52 g/m*3 -2.9 C 0 km/h
2911 21-01-2009 06:26:01 -3 C 3.5 g/m*3 -3 C 0 km/h
2912 21-01-2009 06:38:02 -2.9 C 3.52 g/m*3 -2.9 C 0 km/h
2913 21-01-2009 06:50:01 -3.1 C 3.47 g/m*3 -3.1 C 0 km/h
2914 21-01-2009 07:02:02 -3 C 3.5 g/m*3 -3 C 0 km/h
2915 21-01-2009 07:14:02 -2.7 C 3.61 g/m*3 -2.7 C 0 km/h
2916 21-01-2009 07:26:01 -2.8 C 3.59 g/m*3 -2.8 C 0 km/h
2917 21-01-2009 07:38:02 -3 C 3.54 g/m*3 -3 C 0 km/h
2918 21-01-2009 07:50:01 -3 C 3.54 g/m*3 -3 C 0 km/h
2919 21-01-2009 08:02:02 -2.8 C 3.59 g/m*3 -2.8 C 0 km/h
2920 21-01-2009 08:14:02 -2.7 C 3.61 g/m*3 -2.7 C 0 km/h
2921 21-01-2009 08:26:01 -2.2 C 3.78 g/m*3 -2.2 C 0 km/h
2922 21-01-2009 08:38:01 -2.1 C 3.81 g/m*3 -2.1 C 0 km/h
2923 21-01-2009 08:50:01 -2.1 C 3.81 g/m*3 -2.1 C 0 km/h
2924 21-01-2009 09:02:01 -2 C 3.84 g/m*3 -2 C 0 km/h
2925 21-01-2009 09:14:01 -2.2 C 3.78 g/m*3 -2.2 C 0 km/h
Sensor: Nr:Datum:Temp:Abs-Feuchte:Windchill:Wind:
Aussen-T/F 2926 21-01-2009 09:26:01 -2.3 C 3.76 g/m*3 -2.3 C 0 km/h
2927 21-01-2009 09:38:01 -2.4 C 3.69 g/m*3 -2.4 C 0 km/h
2928 21-01-2009 09:50:01 -2.3 C 3.71 g/m*3 -2.3 C 0 km/h
2929 21-01-2009 10:02:01 -2.3 C 3.71 g/m*3 -2.3 C 0 km/h
2930 21-01-2009 10:14:01 -2.2 C 3.74 g/m*3 -2.2 C 0 km/h
2931 21-01-2009 10:26:02 -2.1 C 3.77 g/m*3 -2.1 C 0 km/h
2932 21-01-2009 10:38:01 -1.9 C 3.82 g/m*3 -1.9 C 0 km/h
2933 21-01-2009 10:50:02 -1.5 C 3.97 g/m*3 -1.5 C 0 km/h
2934 21-01-2009 11:02:01 -0.9 C 4.19 g/m*3 -0.9 C 0 km/h
2935 21-01-2009 11:14:01 -0.4 C 4.34 g/m*3 -0.4 C 0 km/h
2936 21-01-2009 11:26:02 0.1 C 4.49 g/m*3 0.1 C 0 km/h
2937 21-01-2009 11:38:01 0.4 C 4.58 g/m*3 0.4 C 0 km/h
2938 21-01-2009 11:50:02 0.8 C 4.71 g/m*3 0.8 C 0 km/h
2939 21-01-2009 12:02:01 1 C 4.67 g/m*3 1 C 0 km/h
2940 21-01-2009 12:14:01 1.4 C 4.75 g/m*3 1.4 C 0 km/h
2941 21-01-2009 12:26:01 1.5 C 4.67 g/m*3 1.5 C 0 km/h
2942 21-01-2009 12:38:02 1.8 C 4.66 g/m*3 1.8 C 0 km/h
2943 21-01-2009 12:50:01 2.1 C 4.64 g/m*3 2.1 C 0 km/h
2944 21-01-2009 13:02:02 2.3 C 4.65 g/m*3 2.3 C 0 km/h
2945 21-01-2009 13:14:02 2.5 C 4.71 g/m*3 2.5 C 0 km/h
2946 21-01-2009 13:26:01 2.8 C 4.75 g/m*3 2.8 C 0 km/h
2947 21-01-2009 13:38:02 3.1 C 4.73 g/m*3 3.1 C 0 km/h
2948 21-01-2009 13:50:01 3.3 C 4.67 g/m*3 3.3 C 0 km/h
2949 21-01-2009 14:02:01 3.5 C 4.61 g/m*3 3.5 C 0 km/h
2950 21-01-2009 14:14:02 3.6 C 4.58 g/m*3 3.6 C 0 km/h
Sensor: Nr:Datum:Temp:Abs-Feuchte:Windchill:Wind:
Aussen-T/F 2951 21-01-2009 14:26:01 3.6 C 4.58 g/m*3 3.6 C 0 km/h
2952 21-01-2009 14:38:01 3.8 C 4.45 g/m*3 3.8 C 0 km/h
2953 21-01-2009 14:50:01 3.8 C 4.45 g/m*3 3.8 C 0 km/h
2954 21-01-2009 15:02:01 4 C 4.45 g/m*3 4 C 0 km/h
2955 21-01-2009 15:14:01 4 C 4.39 g/m*3 4 C 0 km/h
2956 21-01-2009 15:26:02 4.1 C 4.42 g/m*3 4.1 C 0 km/h
2957 21-01-2009 15:38:01 4.4 C 4.44 g/m*3 4.4 C 0 km/h
2958 21-01-2009 15:50:02 3.9 C 4.42 g/m*3 3.9 C 0 km/h
2959 21-01-2009 16:02:01 3.6 C 4.46 g/m*3 3.6 C 0 km/h
2960 21-01-2009 16:14:01 3.3 C 4.43 g/m*3 3.3 C 0 km/h
2961 21-01-2009 16:26:01 3.2 C 4.4 g/m*3 3.2 C 0 km/h
2962 21-01-2009 16:38:01 3.3 C 4.43 g/m*3 3.3 C 0 km/h
2963 21-01-2009 16:50:01 3.2 C 4.34 g/m*3 3.2 C 0 km/h
2964 21-01-2009 17:02:01 3.2 C 4.34 g/m*3 3.2 C 0 km/h
2965 21-01-2009 17:14:01 3.2 C 4.34 g/m*3 3.2 C 0 km/h
2966 21-01-2009 17:26:01 3.1 C 4.31 g/m*3 3.1 C 0 km/h
2967 21-01-2009 17:38:02 2.9 C 4.37 g/m*3 2.9 C 0 km/h
2968 21-01-2009 17:50:01 2.8 C 4.34 g/m*3 2.8 C 0 km/h
2969 21-01-2009 18:02:01 2.6 C 4.34 g/m*3 2.6 C 0 km/h
2970 21-01-2009 18:14:01 2.4 C 4.34 g/m*3 2.4 C 0 km/h
2971 21-01-2009 18:26:02 2.4 C 4.4 g/m*3 2.4 C 0 km/h
2972 21-01-2009 18:38:01 2.3 C 4.42 g/m*3 2.3 C 0 km/h
2973 21-01-2009 18:50:02 2.2 C 4.39 g/m*3 2.2 C 0 km/h
2974 21-01-2009 19:02:01 2.1 C 4.42 g/m*3 2.1 C 0 km/h
2975 21-01-2009 19:14:01 2 C 4.39 g/m*3 2 C 0 km/h
Sensor: Nr:Datum:Temp:Abs-Feuchte:Windchill:Wind:
Aussen-T/F 2976 21-01-2009 19:26:01 2 C 4.45 g/m*3 2 C 0 km/h
2977 21-01-2009 19:38:01 2.4 C 4.62 g/m*3 2.4 C 0 km/h
2978 21-01-2009 19:50:01 2.8 C 4.69 g/m*3 2.8 C 0 km/h
2979 21-01-2009 20:02:02 2.9 C 4.61 g/m*3 2.9 C 0 km/h
2980 21-01-2009 20:14:02 3 C 4.58 g/m*3 3 C 0 km/h
2981 21-01-2009 20:26:01 2.9 C 4.55 g/m*3 2.9 C 0 km/h
2982 21-01-2009 20:38:02 2.8 C 4.52 g/m*3 2.8 C 0 km/h
2983 21-01-2009 20:50:01 2.7 C 4.54 g/m*3 2.7 C 0 km/h
2984 21-01-2009 21:02:02 2.7 C 4.54 g/m*3 2.7 C 0 km/h
2985 21-01-2009 21:14:02 2.6 C 4.51 g/m*3 2.6 C 0 km/h
2986 21-01-2009 21:26:01 2.5 C 4.48 g/m*3 2.5 C 0 km/h
2987 21-01-2009 21:38:01 2.3 C 4.42 g/m*3 2.3 C 0 km/h
2988 21-01-2009 21:50:01 2 C 4.39 g/m*3 2 C 0 km/h
2989 21-01-2009 22:02:01 1.8 C 4.39 g/m*3 1.8 C 0 km/h
2990 21-01-2009 22:14:01 1.8 C 4.44 g/m*3 1.8 C 0 km/h
2991 21-01-2009 22:26:01 1.9 C 4.53 g/m*3 1.9 C 0 km/h
2992 21-01-2009 22:38:01 1.9 C 4.53 g/m*3 1.9 C 0 km/h
2993 21-01-2009 22:50:01 2 C 4.5 g/m*3 2 C 0 km/h
2994 21-01-2009 23:02:01 2 C 4.5 g/m*3 2 C 0 km/h
2995 21-01-2009 23:14:01 1.9 C 4.53 g/m*3 1.9 C 0 km/h
2996 21-01-2009 23:26:02 1.9 C 4.53 g/m*3 1.9 C 0 km/h
2997 21-01-2009 23:38:01 1.8 C 4.49 g/m*3 1.8 C 0 km/h
2998 21-01-2009 23:50:02 1.5 C 4.4 g/m*3 1.5 C 0 km/h
2999 22-01-2009 00:02:01 1 C 4.26 g/m*3 1 C 0 km/h
3000 22-01-2009 00:14:01 0.7 C 4.22 g/m*3 0.7 C 0 km/h
Sensor: Nr:Datum:Temp:Abs-Feuchte:Windchill:Wind:
Aussen-T/F 3001 22-01-2009 00:26:01 0.4 C 4.18 g/m*3 0.4 C 0 km/h
3002 22-01-2009 00:38:02 0.4 C 4.23 g/m*3 0.4 C 0 km/h
3003 22-01-2009 00:50:01 0.5 C 4.26 g/m*3 0.5 C 0 km/h
3004 22-01-2009 01:02:02 0.3 C 4.2 g/m*3 0.3 C 0 km/h
3005 22-01-2009 01:14:02 0.3 C 4.2 g/m*3 0.3 C 0 km/h
3006 22-01-2009 01:26:01 0.2 C 4.22 g/m*3 0.2 C 0 km/h
3007 22-01-2009 01:38:01 0.2 C 4.22 g/m*3 0.2 C 0 km/h
3008 22-01-2009 01:50:01 0.6 C 4.39 g/m*3 0.6 C 0 km/h
3009 22-01-2009 02:02:01 1 C 4.46 g/m*3 1 C 0 km/h
3010 22-01-2009 02:14:02 1.3 C 4.45 g/m*3 1.3 C 0 km/h
3011 22-01-2009 02:26:01 1.6 C 4.33 g/m*3 1.6 C 0 km/h
3012 22-01-2009 02:38:01 1.6 C 4.22 g/m*3 1.6 C 0 km/h
3013 22-01-2009 02:50:35 1.3 C 4.08 g/m*3 1.3 C 0 km/h
3014 22-01-2009 03:02:35 1.2 C 4.05 g/m*3 1.2 C 0 km/h
3015 22-01-2009 03:14:35 1.1 C 4.08 g/m*3 1.1 C 0 km/h
3016 22-01-2009 03:26:35 0.9 C 4.02 g/m*3 0.9 C 0 km/h
3017 22-01-2009 03:38:35 0.8 C 4.04 g/m*3 0.8 C 0 km/h
3018 22-01-2009 03:50:35 0.8 C 4.04 g/m*3 0.8 C 0 km/h
3019 22-01-2009 04:02:35 0.6 C 3.99 g/m*3 0.6 C 0 km/h
3020 22-01-2009 04:14:34 0.5 C 3.96 g/m*3 0.5 C 0 km/h
3021 22-01-2009 04:26:34 0.5 C 4.01 g/m*3 0.5 C 0 km/h
3022 22-01-2009 04:38:35 0.5 C 4.01 g/m*3 0.5 C 0 km/h
3023 22-01-2009 04:50:35 0.4 C 4.03 g/m*3 0.4 C 0 km/h
3024 22-01-2009 05:02:34 0.4 C 4.03 g/m*3 0.4 C 0 km/h
3025 22-01-2009 05:14:34 0.6 C 4.09 g/m*3 0.6 C 0 km/h
Sensor: Nr:Datum:Temp:Abs-Feuchte:Windchill:Wind:
Aussen-T/F 3026 22-01-2009 05:26:35 0.5 C 4.06 g/m*3 0.5 C 0 km/h
3027 22-01-2009 05:38:34 0.2 C 3.98 g/m*3 0.2 C 0 km/h
3028 22-01-2009 05:50:34 -0.2 C 3.87 g/m*3 -0.2 C 0 km/h
3029 22-01-2009 06:02:34 -0.2 C 3.92 g/m*3 -0.2 C 0 km/h
3030 22-01-2009 06:14:34 -0.2 C 3.97 g/m*3 -0.2 C 0 km/h
3031 22-01-2009 06:26:34 -0.5 C 3.88 g/m*3 -0.5 C 0 km/h
3032 22-01-2009 06:38:33 -0.5 C 3.88 g/m*3 -0.5 C 0 km/h
3033 22-01-2009 06:50:34 -0.3 C 4.03 g/m*3 -0.3 C 0 km/h
3034 22-01-2009 07:02:33 -0.3 C 4.03 g/m*3 -0.3 C 0 km/h
3035 22-01-2009 07:14:33 -0.4 C 4.01 g/m*3 -0.4 C 0 km/h
3036 22-01-2009 07:26:33 -0.6 C 3.95 g/m*3 -0.6 C 0 km/h
3037 22-01-2009 07:38:33 -0.5 C 4.03 g/m*3 -0.5 C 0 km/h
3038 22-01-2009 07:50:33 -0.6 C 4 g/m*3 -0.6 C 0 km/h
3039 22-01-2009 08:02:32 -0.6 C 4.04 g/m*3 -0.6 C 0 km/h
3040 22-01-2009 08:14:33 -0.6 C 4.04 g/m*3 -0.6 C 0 km/h
3041 22-01-2009 08:26:33 -0.4 C 4.15 g/m*3 -0.4 C 0 km/h
3042 22-01-2009 08:38:32 -0.4 C 4.15 g/m*3 -0.4 C 0 km/h
3043 22-01-2009 08:50:32 -0.3 C 4.18 g/m*3 -0.3 C 0 km/h
3044 22-01-2009 09:02:33 0 C 4.26 g/m*3 0 C 0 km/h
3045 22-01-2009 09:14:32 0.2 C 4.37 g/m*3 0.2 C 0 km/h
3046 22-01-2009 09:26:32 0.3 C 4.35 g/m*3 0.3 C 0 km/h
3047 22-01-2009 09:38:32 0.3 C 4.35 g/m*3 0.3 C 0 km/h
3048 22-01-2009 09:50:32 0.5 C 4.41 g/m*3 0.5 C 0 km/h
3049 22-01-2009 10:02:32 1.5 C 4.51 g/m*3 1.5 C 0 km/h
3050 22-01-2009 10:14:31 1.9 C 4.36 g/m*3 1.9 C 0 km/h
Sensor: Nr:Datum:Temp:Abs-Feuchte:Windchill:Wind:
Aussen-T/F 3051 22-01-2009 10:26:31 2.6 C 4.17 g/m*3 2.6 C 0 km/h
3052 22-01-2009 10:38:31 2.9 C 4.02 g/m*3 2.9 C 0 km/h
3053 22-01-2009 10:50:31 3.1 C 3.89 g/m*3 3.1 C 0 km/h
3054 22-01-2009 11:02:31 3.2 C 3.86 g/m*3 3.2 C 0 km/h
3055 22-01-2009 11:14:30 3.5 C 3.81 g/m*3 3.5 C 0 km/h
3056 22-01-2009 11:26:30 3.9 C 3.85 g/m*3 3.9 C 0 km/h
3057 22-01-2009 11:38:31 4.1 C 3.71 g/m*3 4.1 C 0 km/h
3058 22-01-2009 11:50:30 4.2 C 3.74 g/m*3 4.2 C 0 km/h
3059 22-01-2009 12:02:30 4.1 C 3.71 g/m*3 4.1 C 0 km/h
3060 22-01-2009 12:14:31 4.3 C 3.83 g/m*3 4.3 C 0 km/h
3061 22-01-2009 12:26:31 4.7 C 3.66 g/m*3 4.7 C 0 km/h
3062 22-01-2009 12:38:30 4.9 C 3.71 g/m*3 4.9 C 0 km/h
3063 22-01-2009 12:50:30 5.3 C 3.53 g/m*3 5.3 C 0 km/h
3064 22-01-2009 13:02:30 5.6 C 3.61 g/m*3 5.6 C 0 km/h
3065 22-01-2009 13:14:30 5.5 C 3.37 g/m*3 5.5 C 0 km/h
3066 22-01-2009 13:26:30 5.6 C 3.39 g/m*3 5.6 C 0 km/h
3067 22-01-2009 13:38:29 5.6 C 3.39 g/m*3 5.6 C 0 km/h
3068 22-01-2009 13:50:30 5.8 C 3.37 g/m*3 5.8 C 0 km/h
3069 22-01-2009 14:02:29 6 C 3.34 g/m*3 6 C 0 km/h
3070 22-01-2009 14:14:29 6.1 C 3.36 g/m*3 6.1 C 0 km/h
3071 22-01-2009 14:26:29 6.3 C 3.41 g/m*3 6.3 C 0 km/h
3072 22-01-2009 14:38:29 6.7 C 3.42 g/m*3 6.7 C 0 km/h
3073 22-01-2009 14:50:29 7 C 3.18 g/m*3 7 C 0 km/h
3074 22-01-2009 15:02:29 6.8 C 3.06 g/m*3 6.8 C 0 km/h
3075 22-01-2009 15:14:28 6.4 C 3.05 g/m*3 6.4 C 0 km/h
Sensor: Nr:Datum:Temp:Abs-Feuchte:Windchill:Wind:
Aussen-T/F 3076 22-01-2009 15:26:28 6.2 C 3.09 g/m*3 6.2 C 0 km/h
3077 22-01-2009 15:38:29 6.2 C 3.09 g/m*3 6.2 C 0 km/h
3078 22-01-2009 15:50:28 6 C 2.98 g/m*3 6 C 0 km/h
3079 22-01-2009 16:02:28 5.9 C 3.1 g/m*3 5.9 C 0 km/h
3080 22-01-2009 16:14:28 5.7 C 3.06 g/m*3 5.7 C 0 km/h
3081 22-01-2009 16:26:28 5.6 C 3.11 g/m*3 5.6 C 0 km/h
3082 22-01-2009 16:38:28 5.5 C 3.02 g/m*3 5.5 C 0 km/h
3083 22-01-2009 16:50:27 5.3 C 3.12 g/m*3 5.3 C 0 km/h
3084 22-01-2009 17:02:28 5.2 C 3.03 g/m*3 5.2 C 0 km/h
3085 22-01-2009 17:14:02 5.3 C 2.91 g/m*3 5.3 C 0 km/h
3086 22-01-2009 17:26:02 5.3 C 2.98 g/m*3 5.3 C 0 km/h
3087 22-01-2009 17:38:01 5.2 C 3.1 g/m*3 5.2 C 0 km/h
3088 22-01-2009 17:50:01 5.2 C 2.96 g/m*3 5.2 C 0 km/h
3089 22-01-2009 18:02:01 5.2 C 3.03 g/m*3 5.2 C 0 km/h
3090 22-01-2009 18:14:01 5.2 C 3.1 g/m*3 5.2 C 0 km/h
3091 22-01-2009 18:26:01 5.1 C 3.15 g/m*3 5.1 C 0 km/h
3092 22-01-2009 18:38:01 5.2 C 3.24 g/m*3 5.2 C 0 km/h
3093 22-01-2009 18:50:01 5 C 3.26 g/m*3 5 C 0 km/h
3094 22-01-2009 19:02:01 5 C 3.33 g/m*3 5 C 0 km/h
3095 22-01-2009 19:14:01 5 C 3.4 g/m*3 5 C 0 km/h
3096 22-01-2009 19:26:00 5 C 3.6 g/m*3 5 C 0 km/h
3097 22-01-2009 19:38:01 4.9 C 3.85 g/m*3 4.9 C 0 km/h
3098 22-01-2009 19:50:00 4.8 C 3.96 g/m*3 4.8 C 0 km/h
3099 22-01-2009 20:02:00 4.7 C 4 g/m*3 4.7 C 0 km/h
3100 22-01-2009 20:14:01 4.6 C 4.1 g/m*3 4.6 C 0 km/h
Sensor: Nr:Datum:Temp:Abs-Feuchte:Windchill:Wind:
Aussen-T/F 3101 22-01-2009 20:26:00 4.5 C 4.14 g/m*3 4.5 C 0 km/h
3102 22-01-2009 20:38:00 4.4 C 4.24 g/m*3 4.4 C 0 km/h
3103 22-01-2009 20:50:00 4.1 C 4.35 g/m*3 4.1 C 0 km/h
3104 22-01-2009 21:02:00 3.8 C 4.45 g/m*3 3.8 C 0 km/h
3105 22-01-2009 21:14:00 3.6 C 4.52 g/m*3 3.6 C 0 km/h
3106 22-01-2009 21:26:59 3.5 C 4.67 g/m*3 3.5 C 0 km/h
3107 22-01-2009 21:38:59 3.3 C 4.67 g/m*3 3.3 C 0 km/h
3108 22-01-2009 21:50:59 3.2 C 4.7 g/m*3 3.2 C 0 km/h
3109 22-01-2009 22:02:59 3.2 C 4.82 g/m*3 3.2 C 0 km/h
3110 22-01-2009 22:14:58 3.1 C 4.79 g/m*3 3.1 C 0 km/h
3111 22-01-2009 22:26:58 3.1 C 4.79 g/m*3 3.1 C 0 km/h
3112 22-01-2009 22:38:59 3.1 C 4.85 g/m*3 3.1 C 0 km/h
3113 22-01-2009 22:50:58 3.2 C 4.88 g/m*3 3.2 C 0 km/h
3114 22-01-2009 23:02:58 3.2 C 4.94 g/m*3 3.2 C 0 km/h
3115 22-01-2009 23:14:59 3.4 C 4.95 g/m*3 3.4 C 0 km/h
3116 22-01-2009 23:26:59 3.6 C 4.83 g/m*3 3.6 C 0 km/h
3117 22-01-2009 23:38:58 3.8 C 4.77 g/m*3 3.8 C 0 km/h
3118 22-01-2009 23:50:58 3.9 C 4.74 g/m*3 3.9 C 0 km/h
3119 23-01-2009 00:02:58 4 C 4.7 g/m*3 4 C 0 km/h
3120 23-01-2009 00:14:58 4 C 4.7 g/m*3 4 C 0 km/h
3121 23-01-2009 00:26:58 4 C 4.7 g/m*3 4 C 0 km/h
3122 23-01-2009 00:38:57 4 C 4.7 g/m*3 4 C 0 km/h
3123 23-01-2009 00:50:58 4 C 4.7 g/m*3 4 C 0 km/h
3124 23-01-2009 01:02:57 4 C 4.7 g/m*3 4 C 0 km/h
3125 23-01-2009 01:14:57 4 C 4.77 g/m*3 4 C 0 km/h
Sensor: Nr:Datum:Temp:Abs-Feuchte:Windchill:Wind:
Aussen-T/F 3126 23-01-2009 01:26:57 4 C 4.77 g/m*3 4 C 0 km/h
3127 23-01-2009 01:38:58 3.9 C 4.8 g/m*3 3.9 C 0 km/h
3128 23-01-2009 01:50:57 3.8 C 4.77 g/m*3 3.8 C 0 km/h
3129 23-01-2009 02:02:57 3.7 C 4.74 g/m*3 3.7 C 0 km/h
3130 23-01-2009 02:14:56 3.8 C 4.77 g/m*3 3.8 C 0 km/h
3131 23-01-2009 02:26:56 3.8 C 4.77 g/m*3 3.8 C 0 km/h
3132 23-01-2009 02:38:57 3.6 C 4.7 g/m*3 3.6 C 0 km/h
3133 23-01-2009 02:51:58 3.7 C 4.74 g/m*3 3.7 C 0 km/h
3134 23-01-2009 03:03:58 3.7 C 4.74 g/m*3 3.7 C 0 km/h
3135 23-01-2009 03:15:58 3.9 C 4.8 g/m*3 3.9 C 0 km/h
3136 23-01-2009 03:27:58 3.9 C 4.8 g/m*3 3.9 C 0 km/h
3137 23-01-2009 03:39:57 3.9 C 4.8 g/m*3 3.9 C 0 km/h
3138 23-01-2009 03:51:57 3.9 C 4.8 g/m*3 3.9 C 0 km/h
3139 23-01-2009 04:03:58 3.8 C 4.83 g/m*3 3.8 C 0 km/h
3140 23-01-2009 04:15:57 3.8 C 4.83 g/m*3 3.8 C 0 km/h
3141 23-01-2009 04:27:57 3.7 C 4.8 g/m*3 3.7 C 0 km/h
3142 23-01-2009 04:39:57 3.7 C 4.86 g/m*3 3.7 C 0 km/h
3143 23-01-2009 04:51:57 3.7 C 4.86 g/m*3 3.7 C 0 km/h
3144 23-01-2009 05:03:57 3.7 C 4.92 g/m*3 3.7 C 0 km/h
3145 23-01-2009 05:15:56 3.8 C 4.96 g/m*3 3.8 C 0 km/h
3146 23-01-2009 05:27:56 3.8 C 4.96 g/m*3 3.8 C 0 km/h
3147 23-01-2009 05:39:56 3.8 C 4.96 g/m*3 3.8 C 0 km/h
3148 23-01-2009 05:51:56 3.8 C 5.02 g/m*3 3.8 C 0 km/h
3149 23-01-2009 06:03:57 3.9 C 4.93 g/m*3 3.9 C 0 km/h
3150 23-01-2009 06:15:56 3.7 C 4.8 g/m*3 3.7 C 0 km/h
Sensor: Nr:Datum:Temp:Abs-Feuchte:Windchill:Wind:
Aussen-T/F 3151 23-01-2009 06:27:56 3.4 C 4.76 g/m*3 3.4 C 0 km/h
3152 23-01-2009 06:39:56 3.1 C 4.73 g/m*3 3.1 C 0 km/h
3153 23-01-2009 06:51:56 2.9 C 4.9 g/m*3 2.9 C 0 km/h
3154 23-01-2009 07:03:56 2.7 C 4.95 g/m*3 2.7 C 0 km/h
3155 23-01-2009 07:15:55 2.5 C 4.94 g/m*3 2.5 C 0 km/h
3156 23-01-2009 07:27:55 2.5 C 5 g/m*3 2.5 C 0 km/h
3157 23-01-2009 07:39:55 2.4 C 4.97 g/m*3 2.4 C 0 km/h
3158 23-01-2009 07:51:55 2.5 C 5.06 g/m*3 2.5 C 0 km/h
3159 23-01-2009 08:03:55 2.7 C 5.13 g/m*3 2.7 C 0 km/h
3160 23-01-2009 08:15:54 2.7 C 5.13 g/m*3 2.7 C 0 km/h
3161 23-01-2009 08:27:54 2.7 C 5.19 g/m*3 2.7 C 0 km/h
3162 23-01-2009 08:39:55 2.9 C 5.26 g/m*3 2.9 C 0 km/h
3163 23-01-2009 08:51:54 2.9 C 5.26 g/m*3 2.9 C 0 km/h
3164 23-01-2009 09:03:54 2.9 C 5.32 g/m*3 2.9 C 0 km/h
3165 23-01-2009 09:15:55 2.9 C 5.32 g/m*3 2.9 C 0 km/h
3166 23-01-2009 09:27:55 3 C 5.29 g/m*3 3 C 0 km/h
3167 23-01-2009 09:39:54 3 C 5.35 g/m*3 3 C 0 km/h
3168 23-01-2009 09:51:54 3 C 5.35 g/m*3 3 C 0 km/h
3169 23-01-2009 10:03:54 3.1 C 5.39 g/m*3 3.1 C 0 km/h
3170 23-01-2009 10:15:54 3.1 C 5.39 g/m*3 3.1 C 0 km/h
3171 23-01-2009 10:27:54 3.4 C 5.5 g/m*3 3.4 C 0 km/h
3172 23-01-2009 10:39:53 3.5 C 5.53 g/m*3 3.5 C 0 km/h
3173 23-01-2009 10:51:54 3.4 C 5.5 g/m*3 3.4 C 0 km/h
3174 23-01-2009 11:03:54 3.6 C 5.63 g/m*3 3.6 C 0 km/h
3175 23-01-2009 11:15:53 4 C 5.72 g/m*3 4 C 0 km/h
Sensor: Nr:Datum:Temp:Abs-Feuchte:Windchill:Wind:
Aussen-T/F 3176 23-01-2009 11:27:53 4.2 C 5.73 g/m*3 4.2 C 0 km/h
3177 23-01-2009 11:39:53 4.1 C 5.7 g/m*3 4.1 C 0 km/h
3178 23-01-2009 11:51:53 4.2 C 5.8 g/m*3 4.2 C 0 km/h
3179 23-01-2009 12:03:53 4.4 C 5.94 g/m*3 4.4 C 0 km/h
3180 23-01-2009 12:15:52 4.6 C 6.02 g/m*3 4.6 C 0 km/h
3181 23-01-2009 12:27:52 5.2 C 6.27 g/m*3 5.2 C 0 km/h
3182 23-01-2009 12:39:53 5.4 C 6.35 g/m*3 5.4 C 0 km/h
3183 23-01-2009 12:51:52 5.5 C 6.39 g/m*3 5.5 C 0 km/h
3184 23-01-2009 13:03:52 5.5 C 6.39 g/m*3 5.5 C 0 km/h
3185 23-01-2009 13:15:52 5.4 C 6.35 g/m*3 5.4 C 0 km/h
3186 23-01-2009 13:27:52 5.6 C 6.5 g/m*3 5.6 C 0 km/h
3187 23-01-2009 13:39:52 5.6 C 6.5 g/m*3 5.6 C 0 km/h
3188 23-01-2009 13:51:51 5.6 C 6.5 g/m*3 5.6 C 0 km/h
3189 23-01-2009 14:03:52 5.7 C 6.62 g/m*3 5.7 C 0 km/h
3190 23-01-2009 14:15:52 5.7 C 6.62 g/m*3 5.7 C 0 km/h
3191 23-01-2009 14:27:52 5.5 C 6.53 g/m*3 5.5 C 0 km/h
3192 23-01-2009 14:39:51 5.4 C 6.49 g/m*3 5.4 C 0 km/h
3193 23-01-2009 14:51:52 5.9 C 6.78 g/m*3 5.9 C 0 km/h
3194 23-01-2009 15:03:51 6.5 C 7.05 g/m*3 6.5 C 0 km/h
3195 23-01-2009 15:15:51 6.5 C 7.12 g/m*3 6.5 C 0 km/h
3196 23-01-2009 15:27:51 6.6 C 7.17 g/m*3 6.6 C 0 km/h
3197 23-01-2009 15:39:50 6.5 C 7.05 g/m*3 6.5 C 0 km/h
3198 23-01-2009 15:51:51 6.6 C 7.1 g/m*3 6.6 C 0 km/h
3199 23-01-2009 16:03:50 6.7 C 7.14 g/m*3 6.7 C 0 km/h
3200 23-01-2009 16:15:50 7.1 C 7.18 g/m*3 7.1 C 0 km/h
Sensor: Nr:Datum:Temp:Abs-Feuchte:Windchill:Wind:
Aussen-T/F 3201 23-01-2009 16:27:50 7.3 C 7.11 g/m*3 7.3 C 0 km/h
3202 23-01-2009 16:39:51 7.4 C 6.92 g/m*3 7.4 C 0 km/h
3203 23-01-2009 16:51:50 7.3 C 6.56 g/m*3 7.3 C 0 km/h
3204 23-01-2009 17:03:50 7.1 C 6.08 g/m*3 7.1 C 0 km/h
3205 23-01-2009 17:15:50 7.2 C 5.81 g/m*3 7.2 C 0 km/h
3206 23-01-2009 17:27:50 7 C 5.73 g/m*3 7 C 0 km/h
3207 23-01-2009 17:39:50 6.9 C 5.77 g/m*3 6.9 C 0 km/h
3208 23-01-2009 17:51:49 6.3 C 5.55 g/m*3 6.3 C 0 km/h
3209 23-01-2009 18:03:50 6.2 C 5 g/m*3 6.2 C 0 km/h
3210 23-01-2009 18:15:49 6 C 4.72 g/m*3 6 C 0 km/h
3211 23-01-2009 18:27:49 5.9 C 4.69 g/m*3 5.9 C 0 km/h
3212 23-01-2009 18:39:49 5.6 C 4.52 g/m*3 5.6 C 0 km/h
3213 23-01-2009 18:51:49 5.2 C 4.27 g/m*3 5.2 C 0 km/h
3214 23-01-2009 19:03:49 5 C 4.28 g/m*3 5 C 0 km/h
3215 23-01-2009 19:15:49 4.8 C 4.43 g/m*3 4.8 C 0 km/h
3216 23-01-2009 19:27:49 4.5 C 4.47 g/m*3 4.5 C 0 km/h
3217 23-01-2009 19:39:48 4.3 C 4.61 g/m*3 4.3 C 0 km/h
3218 23-01-2009 19:51:48 4 C 4.58 g/m*3 4 C 0 km/h
3219 23-01-2009 20:03:48 3.8 C 4.77 g/m*3 3.8 C 0 km/h
3220 23-01-2009 20:15:48 3.5 C 4.8 g/m*3 3.5 C 0 km/h
3221 23-01-2009 20:27:48 3.3 C 4.91 g/m*3 3.3 C 0 km/h
3222 23-01-2009 20:39:48 3.2 C 4.94 g/m*3 3.2 C 0 km/h
3223 23-01-2009 20:51:48 3.3 C 5.04 g/m*3 3.3 C 0 km/h
3224 23-01-2009 21:03:48 3.5 C 5.1 g/m*3 3.5 C 0 km/h
3225 23-01-2009 21:15:47 3.5 C 4.98 g/m*3 3.5 C 0 km/h
Sensor: Nr:Datum:Temp:Abs-Feuchte:Windchill:Wind:
Aussen-T/F 3226 23-01-2009 21:27:47 3.5 C 4.92 g/m*3 3.5 C 0 km/h
3227 23-01-2009 21:39:48 3.8 C 4.89 g/m*3 3.8 C 0 km/h
3228 23-01-2009 21:51:48 3.8 C 4.77 g/m*3 3.8 C 0 km/h
3229 23-01-2009 22:03:47 3.8 C 4.77 g/m*3 3.8 C 0 km/h
3230 23-01-2009 22:15:47 4 C 4.64 g/m*3 4 C 0 km/h
3231 23-01-2009 22:27:47 4.1 C 4.61 g/m*3 4.1 C 0 km/h
3232 23-01-2009 22:39:47 4 C 4.58 g/m*3 4 C 0 km/h
3233 23-01-2009 22:51:47 4.1 C 4.61 g/m*3 4.1 C 0 km/h
3234 23-01-2009 23:03:46 4.1 C 4.54 g/m*3 4.1 C 0 km/h
3235 23-01-2009 23:15:47 4.1 C 4.54 g/m*3 4.1 C 0 km/h
3236 23-01-2009 23:27:47 4.1 C 4.48 g/m*3 4.1 C 0 km/h
3237 23-01-2009 23:39:46 4.2 C 4.45 g/m*3 4.2 C 0 km/h